Time,TemperatureF,DewpointF,PressureIn,WindDirection,WindDirectionDegrees,WindSpeedMPH,WindSpeedGustMPH,Humidity,HourlyPrecipIn,Conditions,Clouds,dailyrainin,SolarRadiationWatts/m^2,SoftwareType,DateUTC
2013-06-07 00:00:00,86.3,38.8,29.15,WSW,250,2.4,3.1,18,-99.99,,,0.00,0,rob ver 1B,2013-06-07 07:00:00,
2013-06-07 00:01:00,86.2,38.8,29.15,WSW,252,2.6,3.2,18,-99.99,,,0.00,0,rob ver 1B,2013-06-07 07:01:00,
2013-06-07 00:02:00,87.3,39.4,29.18,SSE,164,5.0,6.0,18,-99.99,,,0.00,0,rob ver 1A,2013-06-07 07:02:00,
2013-06-07 00:03:00,86.1,38.8,29.15,West,264,2.7,3.4,18,-99.99,,,0.00,0,rob ver 1B,2013-06-07 07:03:00,
2013-06-07 00:04:00,86.0,38.8,29.15,West,272,3.0,3.8,18,-99.99,,,0.00,0,rob ver 1B,2013-06-07 07:04:00,
2013-06-07 00:05:00,86.0,38.8,29.15,West,277,2.9,3.8,18,-99.99,,,0.00,0,rob ver 1B,2013-06-07 07:05:00,
2013-06-07 00:06:00,85.9,38.6,29.15,West,259,2.8,3.9,18,-99.99,,,0.00,0,rob ver 1B,2013-06-07 07:06:00,
2013-06-07 00:07:00,87.0,39.1,29.21,ENE,62,2.9,3.7,18,-99.99,,,0.00,0,rob ver 1A,2013-06-07 07:07:00,
2013-06-07 00:08:00,85.8,38.6,29.15,West,272,1.8,3.0,18,-99.99,,,0.00,0,rob ver 1B,2013-06-07 07:08:00,
2013-06-07 00:09:00,85.7,38.6,29.12,West,269,2.4,3.4,18,-99.99,,,0.00,0,rob ver 1B,2013-06-07 07:09:00,
2013-06-07 00:10:00,85.7,38.7,29.12,WNW,286,2.9,3.7,19,-99.99,,,0.00,0,rob ver 1B,2013-06-07 07:10:00,
2013-06-07 00:11:00,85.7,38.8,29.15,WNW,294,3.1,4.1,19,-99.99,,,0.00,0,rob ver 1B,2013-06-07 07:11:00,
2013-06-07 00:12:00,85.7,38.9,29.15,WNW,295,3.4,4.7,18,-99.99,,,0.00,0,rob ver 1B,2013-06-07 07:12:00,
2013-06-07 00:13:00,85.8,39.3,29.18,ENE,58,4.3,5.4,19,-99.99,,,0.00,0,rob ver 1A,2013-06-07 07:13:00,
2013-06-07 00:14:00,85.8,38.8,29.15,WNW,298,4.0,4.9,18,-99.99,,,0.00,0,rob ver 1B,2013-06-07 07:14:00,
2013-06-07 00:15:00,85.8,38.7,29.15,WNW,302,4.6,5.3,18,-99.99,,,0.00,0,rob ver 1B,2013-06-07 07:15:00,
2013-06-07 00:16:00,85.7,38.6,29.15,WNW,294,4.4,5.0,18,-99.99,,,0.00,0,rob ver 1B,2013-06-07 07:16:00,
2013-06-07 00:17:00,85.5,38.4,29.15,WNW,294,5.2,6.2,18,-99.99,,,0.00,0,rob ver 1B,2013-06-07 07:17:00,
2013-06-07 00:18:00,86.2,40.2,29.18,East,95,3.3,5.1,19,-99.99,,,0.00,0,rob ver 1A,2013-06-07 07:18:00,
2013-06-07 00:19:00,85.3,38.3,29.15,WNW,299,4.9,5.8,18,-99.99,,,0.00,0,rob ver 1B,2013-06-07 07:19:00,
2013-06-07 00:20:00,85.2,38.2,29.15,WNW,300,5.5,6.7,18,-99.99,,,0.00,0,rob ver 1B,2013-06-07 07:20:00,
2013-06-07 00:21:00,85.2,38.2,29.15,WNW,289,5.4,6.9,18,-99.99,,,0.00,0,rob ver 1B,2013-06-07 07:21:00,
2013-06-07 00:22:00,85.1,38.1,29.15,WNW,296,6.6,7.7,18,-99.99,,,0.00,0,rob ver 1B,2013-06-07 07:22:00,
2013-06-07 00:23:00,86.4,39.8,29.21,ESE,122,3.1,3.8,19,-99.99,,,0.00,0,rob ver 1A,2013-06-07 07:23:00,
2013-06-07 00:24:00,85.1,38.0,29.15,WNW,303,6.4,8.7,18,-99.99,,,0.00,0,rob ver 1B,2013-06-07 07:24:00,
2013-06-07 00:25:00,85.2,38.0,29.12,NW,304,7.0,8.0,18,-99.99,,,0.00,0,rob ver 1B,2013-06-07 07:25:00,
2013-06-07 00:26:00,85.3,37.9,29.15,WNW,300,6.9,9.5,18,-99.99,,,0.00,0,rob ver 1B,2013-06-07 07:26:00,
2013-06-07 00:27:00,85.4,37.8,29.15,WNW,294,6.4,7.7,18,-99.99,,,0.00,0,rob ver 1B,2013-06-07 07:27:00,
2013-06-07 00:28:00,86.1,39.4,29.21,East,100,2.4,3.1,19,-99.99,,,0.00,0,rob ver 1A,2013-06-07 07:28:00,
2013-06-07 00:29:00,85.6,37.7,29.15,WNW,292,5.8,7.2,18,-99.99,,,0.00,0,rob ver 1B,2013-06-07 07:29:00,
2013-06-07 00:30:00,85.6,37.7,29.15,WNW,300,5.3,6.2,18,-99.99,,,0.00,0,rob ver 1B,2013-06-07 07:30:00,
2013-06-07 00:31:00,85.7,37.6,29.15,WNW,295,5.7,7.3,18,-99.99,,,0.00,0,rob ver 1B,2013-06-07 07:31:00,
2013-06-07 00:32:00,85.7,37.5,29.15,WNW,301,5.7,7.6,18,-99.99,,,0.00,0,rob ver 1B,2013-06-07 07:32:00,
2013-06-07 00:33:00,85.8,37.3,29.12,NW,304,6.5,7.4,17,-99.99,,,0.00,0,rob ver 1B,2013-06-07 07:33:00,
2013-06-07 00:34:00,85.9,39.7,29.18,ENE,74,1.6,2.2,19,-99.99,,,0.00,0,rob ver 1A,2013-06-07 07:34:00,
2013-06-07 00:35:00,86.1,37.2,29.15,WNW,296,4.2,6.5,17,-99.99,,,0.00,0,rob ver 1B,2013-06-07 07:35:00,
2013-06-07 00:36:00,86.2,37.1,29.15,WSW,254,5.5,8.5,17,-99.99,,,0.00,0,rob ver 1B,2013-06-07 07:36:00,
2013-06-07 00:37:00,86.1,37.0,29.15,WNW,282,6.5,8.7,17,-99.99,,,0.00,0,rob ver 1B,2013-06-07 07:37:00,
2013-06-07 00:38:00,86.0,37.2,29.15,WNW,294,6.9,9.0,17,-99.99,,,0.00,0,rob ver 1B,2013-06-07 07:38:00,
2013-06-07 00:39:00,86.5,39.6,29.18,East,98,2.7,3.7,19,-99.99,,,0.00,0,rob ver 1A,2013-06-07 07:39:00,
2013-06-07 00:40:00,86.0,37.1,29.15,WNW,291,6.8,8.2,17,-99.99,,,0.00,0,rob ver 1B,2013-06-07 07:40:00,
2013-06-07 00:41:00,86.1,37.2,29.12,WNW,293,7.2,8.7,17,-99.99,,,0.00,0,rob ver 1B,2013-06-07 07:41:00,
2013-06-07 00:42:00,86.1,37.1,29.15,WNW,299,6.6,7.8,17,-99.99,,,0.00,0,rob ver 1B,2013-06-07 07:42:00,
2013-06-07 00:43:00,86.2,37.1,29.15,WNW,292,6.4,8.1,17,-99.99,,,0.00,0,rob ver 1B,2013-06-07 07:43:00,
2013-06-07 00:44:00,86.9,39.3,29.18,SSE,156,2.2,3.5,18,-99.99,,,0.00,0,rob ver 1A,2013-06-07 07:44:00,
2013-06-07 00:45:00,86.3,37.0,29.15,West,280,4.5,6.3,17,-99.99,,,0.00,0,rob ver 1B,2013-06-07 07:45:00,
2013-06-07 00:46:00,86.2,36.9,29.15,West,271,5.0,6.8,17,-99.99,,,0.00,0,rob ver 1B,2013-06-07 07:46:00,
2013-06-07 00:47:00,86.2,36.9,29.15,West,275,4.1,4.9,17,-99.99,,,0.00,0,rob ver 1B,2013-06-07 07:47:00,
2013-06-07 00:48:00,86.2,36.9,29.15,West,271,4.0,7.1,17,-99.99,,,0.00,0,rob ver 1B,2013-06-07 07:48:00,
2013-06-07 00:49:00,86.2,36.8,29.15,West,266,5.2,7.4,17,-99.99,,,0.00,0,rob ver 1B,2013-06-07 07:49:00,
2013-06-07 00:50:00,86.5,38.9,29.18,SSE,162,3.7,4.3,18,-99.99,,,0.00,0,rob ver 1A,2013-06-07 07:50:00,
2013-06-07 00:51:00,86.4,36.8,29.15,WSW,249,3.7,5.4,17,-99.99,,,0.00,0,rob ver 1B,2013-06-07 07:51:00,
2013-06-07 00:52:00,86.4,36.7,29.15,WSW,246,3.1,4.1,17,-99.99,,,0.00,0,rob ver 1B,2013-06-07 07:52:00,
2013-06-07 00:53:00,86.3,36.7,29.15,WSW,258,2.6,3.8,17,-99.99,,,0.00,0,rob ver 1B,2013-06-07 07:53:00,
2013-06-07 00:54:00,86.3,36.6,29.15,West,273,2.7,4.2,17,-99.99,,,0.00,0,rob ver 1B,2013-06-07 07:54:00,
2013-06-07 00:55:00,85.7,39.1,29.18,East,95,2.0,2.6,19,-99.99,,,0.00,0,rob ver 1A,2013-06-07 07:55:00,
2013-06-07 00:56:00,86.3,36.5,29.15,West,276,3.4,5.1,17,-99.99,,,0.00,0,rob ver 1B,2013-06-07 07:56:00,
2013-06-07 00:57:00,86.3,36.5,29.15,West,278,3.1,4.3,16,-99.99,,,0.00,0,rob ver 1B,2013-06-07 07:57:00,
2013-06-07 00:58:00,86.3,36.4,29.15,WNW,300,1.4,2.9,17,-99.99,,,0.00,0,rob ver 1B,2013-06-07 07:58:00,
2013-06-07 00:59:00,86.3,36.3,29.15,West,271,2.6,4.5,16,-99.99,,,0.00,0,rob ver 1B,2013-06-07 07:59:00,
2013-06-07 01:00:00,86.3,36.3,29.15,WSW,253,3.6,5.3,16,-99.99,,,0.00,0,rob ver 1B,2013-06-07 08:00:00,
2013-06-07 01:01:00,85.5,39.3,29.18,ENE,75,1.7,3.3,19,-99.99,,,0.00,0,rob ver 1A,2013-06-07 08:01:00,
2013-06-07 01:02:00,86.4,36.1,29.12,WSW,253,3.3,4.9,16,-99.99,,,0.00,0,rob ver 1B,2013-06-07 08:02:00,
2013-06-07 01:03:00,86.5,36.1,29.12,WSW,243,1.3,3.4,16,-99.99,,,0.00,0,rob ver 1B,2013-06-07 08:03:00,
2013-06-07 01:04:00,86.4,36.1,29.15,West,277,1.8,3.6,16,-99.99,,,0.00,0,rob ver 1B,2013-06-07 08:04:00,
2013-06-07 01:05:00,86.4,36.0,29.15,WSW,245,3.2,4.0,16,-99.99,,,0.00,0,rob ver 1B,2013-06-07 08:05:00,
2013-06-07 01:06:00,86.3,36.0,29.15,WSW,240,3.2,4.3,16,-99.99,,,0.00,0,rob ver 1B,2013-06-07 08:06:00,
2013-06-07 01:07:00,86.3,39.5,29.18,SE,131,2.4,4.1,19,-99.99,,,0.00,0,rob ver 1A,2013-06-07 08:07:00,
2013-06-07 01:08:00,86.3,35.9,29.15,West,269,3.9,4.6,16,-99.99,,,0.00,0,rob ver 1B,2013-06-07 08:08:00,
2013-06-07 01:09:00,86.2,35.8,29.12,West,271,4.0,5.3,16,-99.99,,,0.00,0,rob ver 1B,2013-06-07 08:09:00,
2013-06-07 01:10:00,86.2,35.8,29.15,West,280,4.7,5.5,16,-99.99,,,0.00,0,rob ver 1B,2013-06-07 08:10:00,
2013-06-07 01:11:00,86.1,35.7,29.15,WNW,291,5.0,6.9,16,-99.99,,,0.00,0,rob ver 1B,2013-06-07 08:11:00,
2013-06-07 01:12:00,86.3,35.7,29.15,West,274,4.6,5.8,16,-99.99,,,0.00,0,rob ver 1B,2013-06-07 08:12:00,
2013-06-07 01:13:00,86.6,39.3,29.18,ESE,102,3.0,4.4,18,-99.99,,,0.00,0,rob ver 1A,2013-06-07 08:13:00,
2013-06-07 01:14:00,86.4,35.4,29.15,WNW,292,4.9,6.0,16,-99.99,,,0.00,0,rob ver 1B,2013-06-07 08:14:00,
2013-06-07 01:15:00,86.5,35.3,29.12,WNW,292,4.1,5.4,16,-99.99,,,0.00,0,rob ver 1B,2013-06-07 08:15:00,
2013-06-07 01:16:00,86.6,35.1,29.12,WNW,294,4.9,7.1,15,-99.99,,,0.00,0,rob ver 1B,2013-06-07 08:16:00,
2013-06-07 01:17:00,86.7,35.0,29.15,WNW,282,4.5,6.5,15,-99.99,,,0.00,0,rob ver 1B,2013-06-07 08:17:00,
2013-06-07 01:18:00,86.8,38.9,29.18,SE,124,2.1,3.3,18,-99.99,,,0.00,0,rob ver 1A,2013-06-07 08:18:00,
2013-06-07 01:19:00,86.9,34.9,29.15,West,281,6.5,8.6,15,-99.99,,,0.00,0,rob ver 1B,2013-06-07 08:19:00,
2013-06-07 01:20:00,87.0,34.8,29.15,WNW,285,5.4,8.0,15,-99.99,,,0.00,0,rob ver 1B,2013-06-07 08:20:00,
2013-06-07 01:21:00,86.8,34.6,29.15,West,266,5.9,7.0,15,-99.99,,,0.00,0,rob ver 1B,2013-06-07 08:21:00,
2013-06-07 01:22:00,86.6,34.4,29.12,WNW,303,6.7,8.1,15,-99.99,,,0.00,0,rob ver 1B,2013-06-07 08:22:00,
2013-06-07 01:23:00,87.2,37.9,29.18,SSE,151,3.6,4.3,17,-99.99,,,0.00,0,rob ver 1A,2013-06-07 08:23:00,
2013-06-07 01:24:00,87.0,34.3,29.15,West,271,7.1,10.2,15,-99.99,,,0.00,0,rob ver 1B,2013-06-07 08:24:00,
2013-06-07 01:25:00,87.0,34.3,29.15,West,265,7.7,8.9,15,-99.99,,,0.00,0,rob ver 1B,2013-06-07 08:25:00,
2013-06-07 01:26:00,86.8,34.1,29.15,West,263,7.6,10.3,15,-99.99,,,0.00,0,rob ver 1B,2013-06-07 08:26:00,
2013-06-07 01:27:00,86.8,34.1,29.15,West,270,6.8,8.7,15,-99.99,,,0.00,0,rob ver 1B,2013-06-07 08:27:00,
2013-06-07 01:28:00,86.9,37.6,29.18,South,172,1.3,1.9,17,-99.99,,,0.00,0,rob ver 1A,2013-06-07 08:28:00,
2013-06-07 01:29:00,87.0,33.3,29.15,West,266,7.8,9.8,14,-99.99,,,0.00,0,rob ver 1B,2013-06-07 08:29:00,
2013-06-07 01:30:00,87.1,33.7,29.15,WSW,254,8.6,10.7,14,-99.99,,,0.00,0,rob ver 1B,2013-06-07 08:30:00,
2013-06-07 01:31:00,87.0,33.7,29.15,WSW,250,7.7,9.5,14,-99.99,,,0.00,0,rob ver 1B,2013-06-07 08:31:00,
2013-06-07 01:32:00,87.0,33.8,29.15,WSW,252,7.3,10.5,15,-99.99,,,0.00,0,rob ver 1B,2013-06-07 08:32:00,
2013-06-07 01:33:00,86.9,34.3,29.15,West,261,6.9,9.5,15,-99.99,,,0.00,0,rob ver 1B,2013-06-07 08:33:00,
2013-06-07 01:34:00,86.7,37.2,29.18,SSE,167,1.8,2.1,17,-99.99,,,0.00,0,rob ver 1A,2013-06-07 08:34:00,
2013-06-07 01:35:00,86.8,33.9,29.15,WSW,247,8.7,10.8,15,-99.99,,,0.00,0,rob ver 1B,2013-06-07 08:35:00,
2013-06-07 01:36:00,86.8,34.2,29.15,WSW,250,7.7,9.2,15,-99.99,,,0.00,0,rob ver 1B,2013-06-07 08:36:00,
2013-06-07 01:37:00,86.7,34.1,29.15,WSW,249,6.2,8.8,15,-99.99,,,0.00,0,rob ver 1B,2013-06-07 08:37:00,
2013-06-07 01:38:00,86.5,34.5,29.15,West,263,7.6,9.0,15,-99.99,,,0.00,0,rob ver 1B,2013-06-07 08:38:00,
2013-06-07 01:39:00,86.4,37.0,29.18,SSE,159,1.9,2.2,17,-99.99,,,0.00,0,rob ver 1A,2013-06-07 08:39:00,
2013-06-07 01:40:00,86.1,34.5,29.15,WSW,256,6.1,7.3,15,-99.99,,,0.00,0,rob ver 1B,2013-06-07 08:40:00,
2013-06-07 01:41:00,86.0,34.5,29.15,West,261,4.7,5.9,15,-99.99,,,0.00,0,rob ver 1B,2013-06-07 08:41:00,
2013-06-07 01:42:00,85.9,34.6,29.15,West,269,5.2,6.7,16,-99.99,,,0.00,0,rob ver 1B,2013-06-07 08:42:00,
2013-06-07 01:43:00,85.6,34.7,29.15,West,275,5.1,6.1,16,-99.99,,,0.00,0,rob ver 1B,2013-06-07 08:43:00,
2013-06-07 01:44:00,85.4,34.7,29.15,WNW,283,4.8,5.6,16,-99.99,,,0.00,0,rob ver 1B,2013-06-07 08:44:00,
2013-06-07 01:45:00,85.9,37.0,29.18,ENE,74,0.4,0.9,17,-99.99,,,0.00,0,rob ver 1A,2013-06-07 08:45:00,
2013-06-07 01:46:00,85.1,34.8,29.15,WNW,294,4.9,5.4,16,-99.99,,,0.00,0,rob ver 1B,2013-06-07 08:46:00,
2013-06-07 01:47:00,85.0,34.8,29.15,WNW,292,4.7,5.3,16,-99.99,,,0.00,0,rob ver 1B,2013-06-07 08:47:00,
2013-06-07 01:48:00,84.9,34.9,29.15,WNW,299,4.5,5.1,16,-99.99,,,0.00,0,rob ver 1B,2013-06-07 08:48:00,
2013-06-07 01:49:00,84.8,34.8,29.15,NW,308,4.0,4.7,16,-99.99,,,0.00,0,rob ver 1B,2013-06-07 08:49:00,
2013-06-07 01:50:00,85.4,36.9,29.18,NNW,336,2.0,2.2,17,-99.99,,,0.00,0,rob ver 1A,2013-06-07 08:50:00,
2013-06-07 01:51:00,84.7,34.8,29.15,WNW,302,3.4,5.5,16,-99.99,,,0.00,0,rob ver 1B,2013-06-07 08:51:00,
2013-06-07 01:52:00,84.7,34.8,29.15,WNW,300,3.3,4.9,16,-99.99,,,0.00,0,rob ver 1B,2013-06-07 08:52:00,
2013-06-07 01:53:00,84.8,34.8,29.15,West,280,4.2,5.9,16,-99.99,,,0.00,0,rob ver 1B,2013-06-07 08:53:00,
2013-06-07 01:54:00,85.0,34.7,29.15,West,274,4.0,4.9,16,-99.99,,,0.00,0,rob ver 1B,2013-06-07 08:54:00,
2013-06-07 01:55:00,85.1,34.6,29.15,West,265,4.5,6.1,16,-99.99,,,0.00,0,rob ver 1B,2013-06-07 08:55:00,
2013-06-07 01:56:00,85.2,37.1,29.18,North,350,1.4,1.6,17,-99.99,,,0.00,0,rob ver 1A,2013-06-07 08:56:00,
2013-06-07 01:57:00,85.5,34.4,29.15,West,261,6.5,8.1,16,-99.99,,,0.00,0,rob ver 1B,2013-06-07 08:57:00,
2013-06-07 01:58:00,85.7,34.5,29.15,West,270,5.8,7.2,15,-99.99,,,0.00,0,rob ver 1B,2013-06-07 08:58:00,
2013-06-07 01:59:00,85.7,34.4,29.15,West,273,6.0,7.0,16,-99.99,,,0.00,0,rob ver 1B,2013-06-07 08:59:00,
2013-06-07 02:00:00,85.5,34.3,29.15,West,275,6.2,7.2,16,-99.99,,,0.00,0,rob ver 1B,2013-06-07 09:00:00,
2013-06-07 02:01:00,85.3,37.1,29.18,WNW,297,1.1,1.3,17,-99.99,,,0.00,0,rob ver 1A,2013-06-07 09:01:00,
2013-06-07 02:02:00,85.1,34.3,29.15,WNW,282,6.8,8.4,16,-99.99,,,0.00,0,rob ver 1B,2013-06-07 09:02:00,
2013-06-07 02:03:00,85.1,34.2,29.15,WNW,283,6.5,7.6,16,-99.99,,,0.00,0,rob ver 1B,2013-06-07 09:03:00,
2013-06-07 02:04:00,85.0,34.2,29.15,WNW,286,6.7,7.3,16,-99.99,,,0.00,0,rob ver 1B,2013-06-07 09:04:00,
2013-06-07 02:05:00,84.8,34.1,29.15,WNW,288,6.4,6.9,16,-99.99,,,0.00,0,rob ver 1B,2013-06-07 09:05:00,
2013-06-07 02:06:00,84.7,34.0,29.15,WNW,287,6.4,7.2,16,-99.99,,,0.00,0,rob ver 1B,2013-06-07 09:06:00,
2013-06-07 02:07:00,85.4,35.9,29.18,SE,137,2.4,3.1,16,-99.99,,,0.00,0,rob ver 1A,2013-06-07 09:07:00,
2013-06-07 02:08:00,84.5,33.8,29.15,WNW,289,6.4,7.5,16,-99.99,,,0.00,0,rob ver 1B,2013-06-07 09:08:00,
2013-06-07 02:09:00,84.5,33.8,29.15,WNW,290,6.3,6.9,16,-99.99,,,0.00,0,rob ver 1B,2013-06-07 09:09:00,
2013-06-07 02:10:00,84.5,33.7,29.15,WNW,290,6.7,8.0,16,-99.99,,,0.00,0,rob ver 1B,2013-06-07 09:10:00,
2013-06-07 02:11:00,84.6,33.7,29.15,WNW,289,6.9,7.7,16,-99.99,,,0.00,0,rob ver 1B,2013-06-07 09:11:00,
2013-06-07 02:12:00,85.5,35.1,29.18,SE,141,2.6,3.8,16,-99.99,,,0.00,0,rob ver 1A,2013-06-07 09:12:00,
2013-06-07 02:13:00,84.7,33.7,29.15,WNW,286,6.2,7.0,16,-99.99,,,0.00,0,rob ver 1B,2013-06-07 09:13:00,
2013-06-07 02:14:00,84.6,33.6,29.15,WNW,285,6.6,7.4,16,-99.99,,,0.00,0,rob ver 1B,2013-06-07 09:14:00,
2013-06-07 02:15:00,84.6,33.7,29.15,WNW,284,6.5,7.7,16,-99.99,,,0.00,0,rob ver 1B,2013-06-07 09:15:00,
2013-06-07 02:16:00,84.6,33.7,29.15,WNW,287,6.8,7.6,16,-99.99,,,0.00,0,rob ver 1B,2013-06-07 09:16:00,
2013-06-07 02:17:00,85.3,35.0,29.18,ENE,64,0.9,1.2,16,-99.99,,,0.00,0,rob ver 1A,2013-06-07 09:17:00,
2013-06-07 02:18:00,84.5,33.7,29.15,WNW,285,6.2,7.9,16,-99.99,,,0.00,0,rob ver 1B,2013-06-07 09:18:00,
2013-06-07 02:19:00,84.5,33.7,29.15,WNW,282,6.3,7.2,16,-99.99,,,0.00,0,rob ver 1B,2013-06-07 09:19:00,
2013-06-07 02:20:00,84.4,33.7,29.15,WNW,283,6.3,7.0,16,-99.99,,,0.00,0,rob ver 1B,2013-06-07 09:20:00,
2013-06-07 02:21:00,84.4,33.8,29.15,WNW,283,6.4,7.2,16,-99.99,,,0.00,0,rob ver 1B,2013-06-07 09:21:00,
2013-06-07 02:22:00,84.8,34.7,29.18,NE,39,1.8,1.9,16,-99.99,,,0.00,0,rob ver 1A,2013-06-07 09:22:00,
2013-06-07 02:23:00,84.2,33.7,29.15,WNW,287,6.3,7.4,16,-99.99,,,0.00,0,rob ver 1B,2013-06-07 09:23:00,
2013-06-07 02:24:00,84.3,33.6,29.15,WNW,288,5.4,6.5,16,-99.99,,,0.00,0,rob ver 1B,2013-06-07 09:24:00,
2013-06-07 02:25:00,84.2,33.6,29.15,WNW,290,5.9,6.8,16,-99.99,,,0.00,0,rob ver 1B,2013-06-07 09:25:00,
2013-06-07 02:26:00,84.2,33.6,29.15,WNW,289,6.2,7.1,16,-99.99,,,0.00,0,rob ver 1B,2013-06-07 09:26:00,
2013-06-07 02:27:00,85.2,34.3,29.18,East,92,1.2,2.2,16,-99.99,,,0.00,0,rob ver 1A,2013-06-07 09:27:00,
2013-06-07 02:28:00,84.2,33.4,29.15,WNW,288,5.6,6.4,16,-99.99,,,0.00,0,rob ver 1B,2013-06-07 09:28:00,
2013-06-07 02:29:00,84.1,33.3,29.15,WNW,287,5.9,6.7,16,-99.99,,,0.00,0,rob ver 1B,2013-06-07 09:29:00,
2013-06-07 02:30:00,84.1,33.3,29.15,WNW,285,5.8,6.7,16,-99.99,,,0.00,0,rob ver 1B,2013-06-07 09:30:00,
2013-06-07 02:31:00,84.0,33.2,29.15,WNW,285,6.0,6.8,16,-99.99,,,0.00,0,rob ver 1B,2013-06-07 09:31:00,
2013-06-07 02:32:00,85.6,33.5,29.18,ENE,77,1.6,2.1,15,-99.99,,,0.00,0,rob ver 1A,2013-06-07 09:32:00,
2013-06-07 02:33:00,84.0,33.1,29.15,WNW,284,7.0,8.2,16,-99.99,,,0.00,0,rob ver 1B,2013-06-07 09:33:00,
2013-06-07 02:34:00,84.2,33.0,29.15,West,277,7.9,10.0,15,-99.99,,,0.00,0,rob ver 1B,2013-06-07 09:34:00,
2013-06-07 02:35:00,84.5,32.9,29.15,West,273,6.8,7.9,15,-99.99,,,0.00,0,rob ver 1B,2013-06-07 09:35:00,
2013-06-07 02:36:00,84.5,32.9,29.15,West,279,6.6,8.2,15,-99.99,,,0.00,0,rob ver 1B,2013-06-07 09:36:00,
2013-06-07 02:37:00,84.5,32.9,29.15,West,278,7.6,8.8,15,-99.99,,,0.00,0,rob ver 1B,2013-06-07 09:37:00,
2013-06-07 02:38:00,85.5,33.4,29.18,NE,43,2.0,2.1,15,-99.99,,,0.00,0,rob ver 1A,2013-06-07 09:38:00,
2013-06-07 02:39:00,84.7,32.8,29.15,WNW,282,6.2,6.9,15,-99.99,,,0.00,0,rob ver 1B,2013-06-07 09:39:00,
2013-06-07 02:40:00,84.4,32.7,29.15,West,281,6.0,6.6,15,-99.99,,,0.00,0,rob ver 1B,2013-06-07 09:40:00,
2013-06-07 02:41:00,84.1,32.7,29.15,WNW,287,5.6,6.0,15,-99.99,,,0.00,0,rob ver 1B,2013-06-07 09:41:00,
2013-06-07 02:42:00,83.9,32.8,29.15,WNW,290,5.4,6.3,15,-99.99,,,0.00,0,rob ver 1B,2013-06-07 09:42:00,
2013-06-07 02:43:00,84.2,33.7,29.18,NNE,31,2.8,3.1,16,-99.99,,,0.00,0,rob ver 1A,2013-06-07 09:43:00,
2013-06-07 02:44:00,83.9,32.8,29.15,WNW,293,5.4,5.9,15,-99.99,,,0.00,0,rob ver 1B,2013-06-07 09:44:00,
2013-06-07 02:45:00,83.8,32.7,29.15,WNW,289,5.8,6.7,16,-99.99,,,0.00,0,rob ver 1B,2013-06-07 09:45:00,
2013-06-07 02:46:00,83.7,32.7,29.15,WNW,290,5.8,6.4,15,-99.99,,,0.00,0,rob ver 1B,2013-06-07 09:46:00,
2013-06-07 02:47:00,83.6,32.7,29.15,WNW,295,5.9,6.7,16,-99.99,,,0.00,0,rob ver 1B,2013-06-07 09:47:00,
2013-06-07 02:48:00,83.1,34.0,29.18,ENE,61,2.7,3.0,16,-99.99,,,0.00,0,rob ver 1A,2013-06-07 09:48:00,
2013-06-07 02:49:00,83.5,32.7,29.15,WNW,298,4.4,5.5,16,-99.99,,,0.00,0,rob ver 1B,2013-06-07 09:49:00,
2013-06-07 02:50:00,83.3,32.7,29.15,WNW,301,4.6,5.5,16,-99.99,,,0.00,0,rob ver 1B,2013-06-07 09:50:00,
2013-06-07 02:51:00,83.3,32.6,29.15,WNW,303,4.0,5.1,16,-99.99,,,0.00,0,rob ver 1B,2013-06-07 09:51:00,
2013-06-07 02:52:00,83.4,32.6,29.15,WNW,302,3.9,4.6,16,-99.99,,,0.00,0,rob ver 1B,2013-06-07 09:52:00,
2013-06-07 02:53:00,84.2,33.8,29.18,ENE,75,1.8,2.2,16,-99.99,,,0.00,0,rob ver 1A,2013-06-07 09:53:00,
2013-06-07 02:54:00,83.4,32.6,29.15,NW,304,3.0,3.6,16,-99.99,,,0.00,0,rob ver 1B,2013-06-07 09:54:00,
2013-06-07 02:55:00,83.3,32.6,29.15,NW,306,2.8,3.2,16,-99.99,,,0.00,0,rob ver 1B,2013-06-07 09:55:00,
2013-06-07 02:56:00,83.3,32.6,29.15,NW,307,3.1,3.6,16,-99.99,,,0.00,0,rob ver 1B,2013-06-07 09:56:00,
2013-06-07 02:57:00,83.2,32.6,29.15,NW,308,3.2,3.7,16,-99.99,,,0.00,0,rob ver 1B,2013-06-07 09:57:00,
2013-06-07 02:58:00,84.0,33.3,29.18,NE,51,1.1,1.8,16,-99.99,,,0.00,0,rob ver 1A,2013-06-07 09:58:00,
2013-06-07 02:59:00,83.2,32.5,29.15,NW,321,3.4,3.8,16,-99.99,,,0.00,0,rob ver 1B,2013-06-07 09:59:00,
2013-06-07 03:00:00,83.3,32.5,29.15,NNW,331,3.3,3.9,16,-99.99,,,0.00,0,rob ver 1B,2013-06-07 10:00:00,
2013-06-07 03:01:00,83.2,32.5,29.15,NNW,334,3.1,3.9,16,-99.99,,,0.00,0,rob ver 1B,2013-06-07 10:01:00,
2013-06-07 03:02:00,83.2,32.4,29.15,NNW,341,3.3,3.9,16,-99.99,,,0.00,0,rob ver 1B,2013-06-07 10:02:00,
2013-06-07 03:03:00,83.1,32.5,29.15,NNW,336,3.3,3.8,16,-99.99,,,0.00,0,rob ver 1B,2013-06-07 10:03:00,
2013-06-07 03:04:00,82.7,33.4,29.18,WSW,237,2.3,3.0,17,-99.99,,,0.00,0,rob ver 1A,2013-06-07 10:04:00,
2013-06-07 03:05:00,83.0,32.4,29.15,NW,316,3.5,4.1,16,-99.99,,,0.00,0,rob ver 1B,2013-06-07 10:05:00,
2013-06-07 03:06:00,83.1,32.5,29.15,WNW,302,4.0,4.3,16,-99.99,,,0.00,0,rob ver 1B,2013-06-07 10:06:00,
2013-06-07 03:07:00,83.3,32.3,29.15,WNW,292,4.1,4.8,15,-99.99,,,0.00,0,rob ver 1B,2013-06-07 10:07:00,
2013-06-07 03:08:00,83.5,32.4,29.15,WNW,285,4.8,6.0,15,-99.99,,,0.00,0,rob ver 1B,2013-06-07 10:08:00,
2013-06-07 03:09:00,82.2,36.0,29.18,SW,214,2.1,2.3,19,-99.99,,,0.00,0,rob ver 1A,2013-06-07 10:09:00,
2013-06-07 03:10:00,84.2,32.2,29.15,WNW,282,4.8,5.1,15,-99.99,,,0.00,0,rob ver 1B,2013-06-07 10:10:00,
2013-06-07 03:11:00,84.2,32.1,29.15,West,277,4.5,5.3,15,-99.99,,,0.00,0,rob ver 1B,2013-06-07 10:11:00,
2013-06-07 03:12:00,84.2,32.1,29.15,West,281,4.2,4.9,15,-99.99,,,0.00,0,rob ver 1B,2013-06-07 10:12:00,
2013-06-07 03:13:00,84.0,32.1,29.15,WNW,282,4.2,4.8,15,-99.99,,,0.00,0,rob ver 1B,2013-06-07 10:13:00,
2013-06-07 03:14:00,82.1,35.5,29.18,West,264,1.2,1.5,18,-99.99,,,0.00,0,rob ver 1A,2013-06-07 10:14:00,
2013-06-07 03:15:00,83.8,32.1,29.15,WNW,288,4.1,4.7,15,-99.99,,,0.00,0,rob ver 1B,2013-06-07 10:15:00,
2013-06-07 03:16:00,83.8,32.1,29.15,WNW,294,4.0,4.4,15,-99.99,,,0.00,0,rob ver 1B,2013-06-07 10:16:00,
2013-06-07 03:17:00,83.7,32.0,29.15,WNW,302,3.3,3.7,15,-99.99,,,0.00,0,rob ver 1B,2013-06-07 10:17:00,
2013-06-07 03:18:00,83.5,32.0,29.15,NW,309,2.9,3.4,15,-99.99,,,0.00,0,rob ver 1B,2013-06-07 10:18:00,
2013-06-07 03:19:00,83.4,32.1,29.15,NW,321,2.8,3.6,15,-99.99,,,0.00,0,rob ver 1B,2013-06-07 10:19:00,
2013-06-07 03:20:00,81.4,34.8,29.18,NNW,339,1.3,1.7,18,-99.99,,,0.00,0,rob ver 1A,2013-06-07 10:20:00,
2013-06-07 03:21:00,83.0,31.9,29.15,NNW,342,3.1,3.6,15,-99.99,,,0.00,0,rob ver 1B,2013-06-07 10:21:00,
2013-06-07 03:22:00,82.7,32.0,29.15,NNW,346,3.7,4.0,16,-99.99,,,0.00,0,rob ver 1B,2013-06-07 10:22:00,
2013-06-07 03:23:00,82.6,32.0,29.15,North,353,3.5,4.0,16,-99.99,,,0.00,0,rob ver 1B,2013-06-07 10:23:00,
2013-06-07 03:24:00,82.6,31.9,29.15,NNW,348,3.5,4.1,16,-99.99,,,0.00,0,rob ver 1B,2013-06-07 10:24:00,
2013-06-07 03:25:00,81.2,34.4,29.18,NE,53,0.4,0.5,18,-99.99,,,0.00,0,rob ver 1A,2013-06-07 10:25:00,
2013-06-07 03:26:00,82.7,32.0,29.15,NNW,341,4.0,4.4,15,-99.99,,,0.00,0,rob ver 1B,2013-06-07 10:26:00,
2013-06-07 03:27:00,82.9,31.9,29.15,NNW,340,3.9,4.4,15,-99.99,,,0.00,0,rob ver 1B,2013-06-07 10:27:00,
2013-06-07 03:28:00,83.0,31.8,29.15,NNW,335,4.1,4.9,15,-99.99,,,0.00,0,rob ver 1B,2013-06-07 10:28:00,
2013-06-07 03:29:00,82.9,31.8,29.15,NNW,327,4.4,5.1,15,-99.99,,,0.00,0,rob ver 1B,2013-06-07 10:29:00,
2013-06-07 03:30:00,81.3,34.9,29.18,ESE,123,0.1,0.2,18,-99.99,,,0.00,0,rob ver 1A,2013-06-07 10:30:00,
2013-06-07 03:31:00,83.2,31.7,29.15,NNW,334,3.9,4.3,15,-99.99,,,0.00,0,rob ver 1B,2013-06-07 10:31:00,
2013-06-07 03:32:00,83.1,31.7,29.15,NNW,335,3.6,4.3,15,-99.99,,,0.00,0,rob ver 1B,2013-06-07 10:32:00,
2013-06-07 03:33:00,83.0,31.6,29.15,NNW,334,3.2,3.8,15,-99.99,,,0.00,0,rob ver 1B,2013-06-07 10:33:00,
2013-06-07 03:34:00,82.8,31.7,29.15,NW,325,3.4,3.8,15,-99.99,,,0.00,0,rob ver 1B,2013-06-07 10:34:00,
2013-06-07 03:35:00,82.8,31.6,29.15,NW,325,3.4,3.9,15,-99.99,,,0.00,0,rob ver 1B,2013-06-07 10:35:00,
2013-06-07 03:36:00,81.4,34.6,29.18,East,89,0.7,1.0,18,-99.99,,,0.00,0,rob ver 1A,2013-06-07 10:36:00,
2013-06-07 03:37:00,82.9,31.5,29.15,NNW,328,3.5,3.9,15,-99.99,,,0.00,0,rob ver 1B,2013-06-07 10:37:00,
2013-06-07 03:38:00,82.9,31.6,29.15,NNW,337,3.3,3.8,15,-99.99,,,0.00,0,rob ver 1B,2013-06-07 10:38:00,
2013-06-07 03:39:00,82.9,31.5,29.15,NNW,340,3.3,3.8,15,-99.99,,,0.00,0,rob ver 1B,2013-06-07 10:39:00,
2013-06-07 03:40:00,83.0,31.6,29.15,NNW,342,3.5,3.8,15,-99.99,,,0.00,0,rob ver 1B,2013-06-07 10:40:00,
2013-06-07 03:41:00,81.6,34.9,29.18,NE,39,1.5,1.8,18,-99.99,,,0.00,0,rob ver 1A,2013-06-07 10:41:00,
2013-06-07 03:42:00,83.0,31.4,29.15,NNW,341,3.3,3.6,15,-99.99,,,0.00,0,rob ver 1B,2013-06-07 10:42:00,
2013-06-07 03:43:00,83.0,31.4,29.15,NNW,346,3.2,3.4,15,-99.99,,,0.00,0,rob ver 1B,2013-06-07 10:43:00,
2013-06-07 03:44:00,83.0,31.4,29.15,NNW,346,3.4,3.8,15,-99.99,,,0.00,0,rob ver 1B,2013-06-07 10:44:00,
2013-06-07 03:45:00,83.1,31.4,29.15,North,350,3.5,3.9,15,-99.99,,,0.00,0,rob ver 1B,2013-06-07 10:45:00,
2013-06-07 03:46:00,83.1,31.2,29.15,North,353,3.4,3.8,15,-99.99,,,0.00,0,rob ver 1B,2013-06-07 10:46:00,
2013-06-07 03:47:00,83.0,34.8,29.18,East,92,2.0,2.7,17,-99.99,,,0.00,0,rob ver 1A,2013-06-07 10:47:00,
2013-06-07 03:48:00,82.7,31.2,29.15,North,355,3.8,4.0,15,-99.99,,,0.00,0,rob ver 1B,2013-06-07 10:48:00,
2013-06-07 03:49:00,82.5,31.1,29.15,North,355,3.9,4.3,15,-99.99,,,0.00,0,rob ver 1B,2013-06-07 10:49:00,
2013-06-07 03:50:00,82.4,31.1,29.15,North,358,4.0,4.4,15,-99.99,,,0.00,0,rob ver 1B,2013-06-07 10:50:00,
2013-06-07 03:51:00,82.4,31.2,29.15,North,1,3.3,3.7,15,-99.99,,,0.00,0,rob ver 1B,2013-06-07 10:51:00,
2013-06-07 03:52:00,83.2,35.1,29.18,South,172,0.9,1.3,17,-99.99,,,0.00,0,rob ver 1A,2013-06-07 10:52:00,
2013-06-07 03:53:00,82.3,31.1,29.15,North,10,3.4,3.9,15,-99.99,,,0.00,0,rob ver 1B,2013-06-07 10:53:00,
2013-06-07 03:54:00,82.3,31.1,29.15,North,6,3.5,3.8,15,-99.99,,,0.00,0,rob ver 1B,2013-06-07 10:54:00,
2013-06-07 03:55:00,82.3,31.1,29.15,North,358,3.6,3.8,15,-99.99,,,0.00,0,rob ver 1B,2013-06-07 10:55:00,
2013-06-07 03:56:00,82.5,31.0,29.15,North,356,3.6,3.9,15,-99.99,,,0.00,0,rob ver 1B,2013-06-07 10:56:00,
2013-06-07 03:57:00,82.6,31.0,29.15,North,354,3.5,3.8,15,-99.99,,,0.00,0,rob ver 1B,2013-06-07 10:57:00,
2013-06-07 03:58:00,82.8,34.4,29.18,NE,51,2.9,3.4,17,-99.99,,,0.00,0,rob ver 1A,2013-06-07 10:58:00,
2013-06-07 03:59:00,82.8,30.8,29.15,North,355,2.6,2.9,15,-99.99,,,0.00,0,rob ver 1B,2013-06-07 10:59:00,
2013-06-07 04:00:00,82.8,30.8,29.15,North,354,2.5,2.9,15,-99.99,,,0.00,0,rob ver 1B,2013-06-07 11:00:00,
2013-06-07 04:01:00,82.7,30.7,29.15,North,2,1.9,2.4,15,-99.99,,,0.00,0,rob ver 1B,2013-06-07 11:01:00,
2013-06-07 04:02:00,82.6,30.7,29.15,North,356,1.9,2.2,15,-99.99,,,0.00,0,rob ver 1B,2013-06-07 11:02:00,
2013-06-07 04:03:00,82.9,34.8,29.18,NE,53,2.4,2.7,17,-99.99,,,0.00,0,rob ver 1A,2013-06-07 11:03:00,
2013-06-07 04:04:00,82.5,30.7,29.15,North,2,2.2,2.5,15,-99.99,,,0.00,0,rob ver 1B,2013-06-07 11:04:00,
2013-06-07 04:05:00,82.4,30.8,29.15,North,355,1.9,2.3,15,-99.99,,,0.00,0,rob ver 1B,2013-06-07 11:05:00,
2013-06-07 04:06:00,82.5,30.6,29.15,North,6,2.1,2.3,15,-99.99,,,0.00,0,rob ver 1B,2013-06-07 11:06:00,
2013-06-07 04:07:00,82.5,30.7,29.15,North,10,2.2,2.4,15,-99.99,,,0.00,0,rob ver 1B,2013-06-07 11:07:00,
2013-06-07 04:08:00,82.4,30.7,29.15,North,11,2.1,2.5,15,-99.99,,,0.00,0,rob ver 1B,2013-06-07 11:08:00,
2013-06-07 04:09:00,83.2,35.1,29.18,ENE,69,1.4,1.7,17,-99.99,,,0.00,0,rob ver 1A,2013-06-07 11:09:00,
2013-06-07 04:10:00,82.3,30.7,29.15,NNE,14,1.7,1.9,15,-99.99,,,0.00,0,rob ver 1B,2013-06-07 11:10:00,
2013-06-07 04:11:00,82.2,30.6,29.15,NNE,31,1.4,1.7,15,-99.99,,,0.00,0,rob ver 1B,2013-06-07 11:11:00,
2013-06-07 04:12:00,81.9,30.7,29.15,NE,40,1.2,1.6,15,-99.99,,,0.00,0,rob ver 1B,2013-06-07 11:12:00,
2013-06-07 04:13:00,81.8,30.8,29.15,NE,46,1.5,1.7,15,-99.99,,,0.00,0,rob ver 1B,2013-06-07 11:13:00,
2013-06-07 04:14:00,82.3,33.0,29.18,NNE,20,4.3,4.6,17,-99.99,,,0.00,0,rob ver 1A,2013-06-07 11:14:00,
2013-06-07 04:15:00,81.6,30.6,29.15,NE,54,1.8,2.3,15,-99.99,,,0.00,0,rob ver 1B,2013-06-07 11:15:00,
2013-06-07 04:16:00,81.3,30.8,29.15,NE,45,1.6,2.0,15,-99.99,,,0.00,0,rob ver 1B,2013-06-07 11:16:00,
2013-06-07 04:17:00,81.3,30.8,29.15,NE,36,1.8,2.2,16,-99.99,,,0.00,0,rob ver 1B,2013-06-07 11:17:00,
2013-06-07 04:18:00,81.3,30.5,29.15,ENE,75,1.4,2.3,15,-99.99,,,0.00,0,rob ver 1B,2013-06-07 11:18:00,
2013-06-07 04:19:00,81.3,33.7,29.18,NE,37,3.4,4.0,17,-99.99,,,0.00,0,rob ver 1A,2013-06-07 11:19:00,
2013-06-07 04:20:00,80.6,30.0,29.15,ESE,115,1.7,2.1,15,-99.99,,,0.00,0,rob ver 1B,2013-06-07 11:20:00,
2013-06-07 04:21:00,80.0,30.4,29.15,East,86,2.1,2.5,16,-99.99,,,0.00,0,rob ver 1B,2013-06-07 11:21:00,
2013-06-07 04:22:00,79.8,30.3,29.15,ENE,73,2.3,2.8,16,-99.99,,,0.00,0,rob ver 1B,2013-06-07 11:22:00,
2013-06-07 04:23:00,79.5,30.2,29.15,East,83,3.6,4.4,16,-99.99,,,0.00,0,rob ver 1B,2013-06-07 11:23:00,
2013-06-07 04:24:00,79.4,31.2,29.15,ENE,59,3.2,5.1,17,-99.99,,,0.00,0,rob ver 1B,2013-06-07 11:24:00,
2013-06-07 04:25:00,80.7,33.3,29.18,NE,36,5.1,5.5,18,-99.99,,,0.00,0,rob ver 1A,2013-06-07 11:25:00,
2013-06-07 04:26:00,80.5,30.3,29.15,ESE,110,2.1,3.6,16,-99.99,,,0.00,0,rob ver 1B,2013-06-07 11:26:00,
2013-06-07 04:27:00,80.3,30.2,29.15,East,96,1.2,2.2,16,-99.99,,,0.00,0,rob ver 1B,2013-06-07 11:27:00,
2013-06-07 04:28:00,80.2,30.8,29.15,ESE,114,1.7,2.2,16,-99.99,,,0.00,0,rob ver 1B,2013-06-07 11:28:00,
2013-06-07 04:29:00,80.4,31.0,29.15,ESE,119,2.1,2.5,16,-99.99,,,0.00,0,rob ver 1B,2013-06-07 11:29:00,
2013-06-07 04:30:00,80.2,33.3,29.18,NE,38,3.8,4.1,18,-99.99,,,0.00,0,rob ver 1A,2013-06-07 11:30:00,
2013-06-07 04:31:00,81.0,31.6,29.15,SE,135,2.0,2.4,16,-99.99,,,0.00,0,rob ver 1B,2013-06-07 11:31:00,
2013-06-07 04:32:00,81.3,31.7,29.15,SE,139,1.7,2.1,16,-99.99,,,0.00,0,rob ver 1B,2013-06-07 11:32:00,
2013-06-07 04:33:00,81.4,31.6,29.15,SE,146,2.0,2.5,16,-99.99,,,0.00,0,rob ver 1B,2013-06-07 11:33:00,
2013-06-07 04:34:00,81.3,31.6,29.15,SSE,148,1.8,2.0,16,-99.99,,,0.00,0,rob ver 1B,2013-06-07 11:34:00,
2013-06-07 04:35:00,80.3,33.1,29.18,NNE,25,3.3,3.7,18,-99.99,,,0.00,0,rob ver 1A,2013-06-07 11:35:00,
2013-06-07 04:36:00,81.3,31.3,29.15,ESE,103,2.2,2.7,16,-99.99,,,0.00,0,rob ver 1B,2013-06-07 11:36:00,
2013-06-07 04:37:00,81.1,30.9,29.15,ENE,60,2.4,3.1,16,-99.99,,,0.00,0,rob ver 1B,2013-06-07 11:37:00,
2013-06-07 04:38:00,80.8,30.7,29.15,NE,54,3.0,3.2,16,-99.99,,,0.00,0,rob ver 1B,2013-06-07 11:38:00,
2013-06-07 04:39:00,80.5,30.8,29.15,NE,54,2.5,2.9,16,-99.99,,,0.00,0,rob ver 1B,2013-06-07 11:39:00,
2013-06-07 04:40:00,80.4,30.9,29.15,NE,51,2.7,3.3,16,-99.99,,,0.00,0,rob ver 1B,2013-06-07 11:40:00,
2013-06-07 04:41:00,79.2,33.2,29.18,NNE,15,3.2,3.6,18,-99.99,,,0.00,0,rob ver 1A,2013-06-07 11:41:00,
2013-06-07 04:42:00,80.4,31.3,29.15,NE,39,2.9,3.3,16,-99.99,,,0.00,0,rob ver 1B,2013-06-07 11:42:00,
2013-06-07 04:43:00,80.5,31.3,29.15,NE,38,3.2,3.4,16,-99.99,,,0.00,0,rob ver 1B,2013-06-07 11:43:00,
2013-06-07 04:44:00,80.6,31.5,29.15,NE,36,2.8,3.0,16,-99.99,,,0.00,0,rob ver 1B,2013-06-07 11:44:00,
2013-06-07 04:45:00,80.7,31.3,29.15,NNE,27,2.9,3.2,16,-99.99,,,0.00,0,rob ver 1B,2013-06-07 11:45:00,
2013-06-07 04:46:00,79.0,33.2,29.18,North,358,3.0,3.4,19,-99.99,,,0.00,0,rob ver 1A,2013-06-07 11:46:00,
2013-06-07 04:47:00,80.9,30.4,29.15,NNE,16,3.3,3.6,15,-99.99,,,0.00,0,rob ver 1B,2013-06-07 11:47:00,
2013-06-07 04:48:00,80.6,29.9,29.15,North,6,2.9,3.6,15,-99.99,,,0.00,0,rob ver 1B,2013-06-07 11:48:00,
2013-06-07 04:49:00,80.1,30.1,29.15,NNE,22,2.6,3.0,16,-99.99,,,0.00,0,rob ver 1B,2013-06-07 11:49:00,
2013-06-07 04:50:00,79.6,30.6,29.15,NNE,33,3.2,3.6,16,-99.99,,,0.00,0,rob ver 1B,2013-06-07 11:50:00,
2013-06-07 04:51:00,79.5,30.5,29.15,NE,37,3.3,3.6,16,-99.99,,,0.00,0,rob ver 1B,2013-06-07 11:51:00,
2013-06-07 04:52:00,79.7,33.2,29.18,NNE,26,2.0,2.2,18,-99.99,,,0.00,0,rob ver 1A,2013-06-07 11:52:00,
2013-06-07 04:53:00,78.8,30.1,29.15,NNE,21,4.4,5.0,16,-99.99,,,0.00,0,rob ver 1B,2013-06-07 11:53:00,
2013-06-07 04:54:00,78.3,30.1,29.15,NNE,21,5.6,6.1,17,-99.99,,,0.00,0,rob ver 1B,2013-06-07 11:54:00,
2013-06-07 04:55:00,78.3,30.2,29.15,NNE,20,5.9,6.1,17,-99.99,,,0.00,0,rob ver 1B,2013-06-07 11:55:00,
2013-06-07 04:56:00,78.4,30.2,29.15,NNE,18,5.6,5.9,17,-99.99,,,0.00,0,rob ver 1B,2013-06-07 11:56:00,
2013-06-07 04:57:00,79.7,33.5,29.18,ENE,63,3.2,3.5,18,-99.99,,,0.00,0,rob ver 1A,2013-06-07 11:57:00,
2013-06-07 04:58:00,78.4,30.3,29.15,NNE,19,5.3,5.7,17,-99.99,,,0.00,0,rob ver 1B,2013-06-07 11:58:00,
2013-06-07 04:59:00,78.4,30.3,29.15,NNE,19,5.2,5.5,17,-99.99,,,0.00,0,rob ver 1B,2013-06-07 11:59:00,
2013-06-07 05:00:00,78.4,30.2,29.15,NNE,20,5.3,5.4,17,-99.99,,,0.00,0,rob ver 1B,2013-06-07 12:00:00,
2013-06-07 05:01:00,78.5,30.3,29.15,NNE,22,5.4,5.6,17,-99.99,,,0.00,0,rob ver 1B,2013-06-07 12:01:00,
2013-06-07 05:02:00,79.6,33.5,29.18,NE,54,2.6,2.7,19,-99.99,,,0.00,0,rob ver 1A,2013-06-07 12:02:00,
2013-06-07 05:03:00,78.4,30.1,29.15,NNE,28,4.1,4.4,17,-99.99,,,0.00,0,rob ver 1B,2013-06-07 12:03:00,
2013-06-07 05:04:00,78.1,30.0,29.15,NNE,27,4.2,4.7,17,-99.99,,,0.00,0,rob ver 1B,2013-06-07 12:04:00,
2013-06-07 05:05:00,77.9,30.0,29.15,NNE,26,5.1,5.4,17,-99.99,,,0.00,0,rob ver 1B,2013-06-07 12:05:00,
2013-06-07 05:06:00,77.9,30.0,29.15,NNE,27,5.1,5.5,17,-99.99,,,0.00,0,rob ver 1B,2013-06-07 12:06:00,
2013-06-07 05:07:00,77.9,29.8,29.15,NNE,29,4.4,4.8,17,-99.99,,,0.00,0,rob ver 1B,2013-06-07 12:07:00,
2013-06-07 05:08:00,79.2,32.7,29.18,NE,40,5.0,5.3,18,-99.99,,,0.00,.164,rob ver 1A,2013-06-07 12:08:00,
2013-06-07 05:09:00,77.7,29.9,29.18,NE,46,3.9,4.8,17,-99.99,,,0.00,.164,rob ver 1B,2013-06-07 12:09:00,
2013-06-07 05:10:00,77.7,29.9,29.15,NE,41,5.1,5.4,17,-99.99,,,0.00,.328,rob ver 1B,2013-06-07 12:10:00,
2013-06-07 05:11:00,77.9,29.8,29.15,NE,36,5.3,5.5,17,-99.99,,,0.00,.328,rob ver 1B,2013-06-07 12:11:00,
2013-06-07 05:12:00,78.1,29.7,29.15,NE,35,5.3,5.4,16,-99.99,,,0.00,.328,rob ver 1B,2013-06-07 12:12:00,
2013-06-07 05:13:00,78.6,32.9,29.18,NE,49,4.6,5.3,18,-99.99,,,0.00,.328,rob ver 1A,2013-06-07 12:13:00,
2013-06-07 05:14:00,77.9,29.7,29.15,NNE,23,5.1,5.6,17,-99.99,,,0.00,.328,rob ver 1B,2013-06-07 12:14:00,
2013-06-07 05:15:00,77.9,30.1,29.15,NNE,19,5.7,5.9,17,-99.99,,,0.00,.328,rob ver 1B,2013-06-07 12:15:00,
2013-06-07 05:16:00,78.4,30.1,29.18,NNE,20,5.4,5.7,16,-99.99,,,0.00,.82,rob ver 1B,2013-06-07 12:16:00,
2013-06-07 05:17:00,78.6,29.8,29.18,NE,40,4.4,5.5,16,-99.99,,,0.00,.984,rob ver 1B,2013-06-07 12:17:00,
2013-06-07 05:18:00,78.5,33.0,29.18,NE,47,4.2,4.7,19,-99.99,,,0.00,.984,rob ver 1A,2013-06-07 12:18:00,
2013-06-07 05:19:00,77.9,29.4,29.18,NE,45,4.0,5.0,16,-99.99,,,0.00,1.312,rob ver 1B,2013-06-07 12:19:00,
2013-06-07 05:20:00,77.5,29.4,29.18,NE,49,3.8,4.8,17,-99.99,,,0.00,1.64,rob ver 1B,2013-06-07 12:20:00,
2013-06-07 05:21:00,77.1,29.2,29.18,ENE,59,5.2,7.1,17,-99.99,,,0.00,1.64,rob ver 1B,2013-06-07 12:21:00,
2013-06-07 05:22:00,76.8,28.9,29.18,NE,52,6.3,8.9,17,-99.99,,,0.00,1.968,rob ver 1B,2013-06-07 12:22:00,
2013-06-07 05:23:00,78.7,33.1,29.18,NE,44,4.8,5.3,18,-99.99,,,0.00,1.968,rob ver 1A,2013-06-07 12:23:00,
2013-06-07 05:24:00,76.4,28.8,29.18,NE,47,6.5,8.0,17,-99.99,,,0.00,2.952,rob ver 1B,2013-06-07 12:24:00,
2013-06-07 05:25:00,76.4,28.8,29.18,NE,45,6.3,7.8,17,-99.99,,,0.00,2.952,rob ver 1B,2013-06-07 12:25:00,
2013-06-07 05:26:00,76.5,28.8,29.18,NE,50,5.4,7.0,17,-99.99,,,0.00,3.28,rob ver 1B,2013-06-07 12:26:00,
2013-06-07 05:27:00,76.6,28.8,29.18,NE,44,4.9,6.0,17,-99.99,,,0.00,3.936,rob ver 1B,2013-06-07 12:27:00,
2013-06-07 05:28:00,76.8,28.8,29.18,NE,40,5.1,6.3,16,-99.99,,,0.00,4.428,rob ver 1B,2013-06-07 12:28:00,
2013-06-07 05:29:00,78.1,32.7,29.18,NE,51,4.3,5.1,19,-99.99,,,0.00,2.952,rob ver 1A,2013-06-07 12:29:00,
2013-06-07 05:30:00,77.1,28.7,29.18,NE,39,5.7,7.1,16,-99.99,,,0.00,5.248,rob ver 1B,2013-06-07 12:30:00,
2013-06-07 05:31:00,77.2,28.8,29.18,NE,37,6.2,7.1,16,-99.99,,,0.00,5.904,rob ver 1B,2013-06-07 12:31:00,
2013-06-07 05:32:00,77.4,28.9,29.18,NE,36,6.2,7.2,16,-99.99,,,0.00,6.56,rob ver 1B,2013-06-07 12:32:00,
2013-06-07 05:33:00,77.5,28.8,29.18,NE,36,6.2,7.3,16,-99.99,,,0.00,7.22,rob ver 1B,2013-06-07 12:33:00,
2013-06-07 05:34:00,77.6,28.8,29.18,NE,39,6.1,6.8,16,-99.99,,,0.00,7.87,rob ver 1B,2013-06-07 12:34:00,
2013-06-07 05:35:00,77.6,32.7,29.18,NE,45,4.5,5.0,19,-99.99,,,0.00,5.248,rob ver 1A,2013-06-07 12:35:00,
2013-06-07 05:36:00,77.7,28.8,29.18,NE,41,5.5,6.1,16,-99.99,,,0.00,9.18,rob ver 1B,2013-06-07 12:36:00,
2013-06-07 05:37:00,77.7,28.8,29.18,NE,39,5.5,6.7,16,-99.99,,,0.00,9.84,rob ver 1B,2013-06-07 12:37:00,
2013-06-07 05:38:00,77.7,28.8,29.18,NE,37,4.9,6.0,16,-99.99,,,0.00,10.5,rob ver 1B,2013-06-07 12:38:00,
2013-06-07 05:39:00,77.8,28.9,29.18,NNE,33,5.1,5.6,16,-99.99,,,0.00,12.46,rob ver 1B,2013-06-07 12:39:00,
2013-06-07 05:40:00,77.6,32.5,29.18,NE,44,4.5,5.1,19,-99.99,,,0.00,9.84,rob ver 1A,2013-06-07 12:40:00,
2013-06-07 05:41:00,77.9,28.9,29.18,NE,37,5.0,5.8,16,-99.99,,,0.00,19.02,rob ver 1B,2013-06-07 12:41:00,
2013-06-07 05:42:00,78.0,28.9,29.18,NE,39,4.3,5.1,16,-99.99,,,0.00,20.66,rob ver 1B,2013-06-07 12:42:00,
2013-06-07 05:43:00,78.1,28.9,29.18,NE,42,3.2,4.3,16,-99.99,,,0.00,22.3,rob ver 1B,2013-06-07 12:43:00,
2013-06-07 05:44:00,78.1,28.9,29.18,NE,41,3.8,5.4,16,-99.99,,,0.00,24.27,rob ver 1B,2013-06-07 12:44:00,
2013-06-07 05:45:00,77.4,32.4,29.18,NE,40,4.8,5.4,19,-99.99,,,0.00,15.09,rob ver 1A,2013-06-07 12:45:00,
2013-06-07 05:46:00,78.2,28.8,29.18,NE,44,4.8,5.6,16,-99.99,,,0.00,27.55,rob ver 1B,2013-06-07 12:46:00,
2013-06-07 05:47:00,78.2,28.7,29.18,NE,43,4.7,6.1,16,-99.99,,,0.00,29.52,rob ver 1B,2013-06-07 12:47:00,
2013-06-07 05:48:00,78.3,28.7,29.18,NE,45,4.8,6.0,16,-99.99,,,0.00,31.32,rob ver 1B,2013-06-07 12:48:00,
2013-06-07 05:49:00,78.3,28.6,29.18,NE,46,4.9,6.4,16,-99.99,,,0.00,33.45,rob ver 1B,2013-06-07 12:49:00,
2013-06-07 05:50:00,77.8,32.5,29.18,NE,44,4.6,5.2,19,-99.99,,,0.00,27.55,rob ver 1A,2013-06-07 12:50:00,
2013-06-07 05:51:00,78.5,28.4,29.18,NE,48,5.4,7.0,15,-99.99,,,0.00,37.39,rob ver 1B,2013-06-07 12:51:00,
2013-06-07 05:52:00,78.6,28.4,29.18,NE,49,5.6,6.8,15,-99.99,,,0.00,39.36,rob ver 1B,2013-06-07 12:52:00,
2013-06-07 05:53:00,78.7,28.2,29.18,NE,53,6.5,8.1,15,-99.99,,,0.00,41.33,rob ver 1B,2013-06-07 12:53:00,
2013-06-07 05:54:00,78.9,28.1,29.18,ENE,63,5.5,6.9,15,-99.99,,,0.00,43.95,rob ver 1B,2013-06-07 12:54:00,
2013-06-07 05:55:00,79.0,27.9,29.18,ENE,64,5.5,8.0,15,-99.99,,,0.00,45.92,rob ver 1B,2013-06-07 12:55:00,
2013-06-07 05:56:00,78.2,32.5,29.18,NE,53,4.1,4.6,18,-99.99,,,0.00,40.01,rob ver 1A,2013-06-07 12:56:00,
2013-06-07 05:57:00,79.6,27.0,29.18,ENE,67,6.6,9.5,14,-99.99,,,0.00,50.51,rob ver 1B,2013-06-07 12:57:00,
2013-06-07 05:58:00,79.9,26.7,29.18,ENE,68,6.5,8.7,14,-99.99,,,0.00,52.48,rob ver 1B,2013-06-07 12:58:00,
2013-06-07 05:59:00,80.0,26.5,29.18,ENE,71,7.2,9.4,13,-99.99,,,0.00,54.77,rob ver 1B,2013-06-07 12:59:00,
2013-06-07 06:00:00,80.2,26.3,29.18,ENE,77,7.9,10.6,13,-99.99,,,0.00,57.07,rob ver 1B,2013-06-07 13:00:00,
2013-06-07 06:01:00,78.6,32.5,29.18,NE,55,3.8,4.3,18,-99.99,,,0.00,53.79,rob ver 1A,2013-06-07 13:01:00,
2013-06-07 06:02:00,80.5,26.2,29.18,East,80,7.8,10.8,13,-99.99,,,0.00,61.66,rob ver 1B,2013-06-07 13:02:00,
2013-06-07 06:03:00,80.7,26.2,29.18,ENE,77,8.2,10.0,13,-99.99,,,0.00,63.96,rob ver 1B,2013-06-07 13:03:00,
2013-06-07 06:04:00,80.7,26.1,29.18,ENE,76,8.3,9.8,13,-99.99,,,0.00,66.25,rob ver 1B,2013-06-07 13:04:00,
2013-06-07 06:05:00,80.8,26.1,29.18,ENE,75,9.0,11.3,13,-99.99,,,0.00,68.88,rob ver 1B,2013-06-07 13:05:00,
2013-06-07 06:06:00,79.2,32.6,29.18,NE,54,4.2,4.7,18,-99.99,,,0.00,65.6,rob ver 1A,2013-06-07 13:06:00,
2013-06-07 06:07:00,80.7,26.3,29.18,ENE,77,8.6,10.8,13,-99.99,,,0.00,73.5,rob ver 1B,2013-06-07 13:07:00,
2013-06-07 06:08:00,80.7,26.5,29.18,ENE,77,8.3,10.1,13,-99.99,,,0.00,76.1,rob ver 1B,2013-06-07 13:08:00,
2013-06-07 06:09:00,80.7,26.8,29.18,ENE,77,8.3,9.4,13,-99.99,,,0.00,78.7,rob ver 1B,2013-06-07 13:09:00,
2013-06-07 06:10:00,80.7,27.0,29.18,ENE,78,8.2,10.6,13,-99.99,,,0.00,81,rob ver 1B,2013-06-07 13:10:00,
2013-06-07 06:11:00,80.7,27.1,29.18,East,79,8.4,9.5,14,-99.99,,,0.00,83.8,rob ver 1B,2013-06-07 13:11:00,
2013-06-07 06:12:00,79.7,32.6,29.18,NE,47,3.5,4.0,18,-99.99,,,0.00,78.7,rob ver 1A,2013-06-07 13:12:00,
2013-06-07 06:13:00,80.6,27.3,29.18,East,87,7.3,8.5,14,-99.99,,,0.00,89.2,rob ver 1B,2013-06-07 13:13:00,
2013-06-07 06:14:00,80.4,28.0,29.18,East,86,6.8,8.6,14,-99.99,,,0.00,91.5,rob ver 1B,2013-06-07 13:14:00,
2013-06-07 06:15:00,80.4,28.6,29.18,East,83,7.3,9.1,15,-99.99,,,0.00,93.8,rob ver 1B,2013-06-07 13:15:00,
2013-06-07 06:16:00,80.4,28.9,29.18,East,87,7.1,8.5,15,-99.99,,,0.00,96.4,rob ver 1B,2013-06-07 13:16:00,
2013-06-07 06:17:00,81.1,32.8,29.18,ENE,62,2.4,2.7,17,-99.99,,,0.00,94.8,rob ver 1A,2013-06-07 13:17:00,
2013-06-07 06:18:00,80.3,29.2,29.18,East,90,6.7,8.2,15,-99.99,,,0.00,102.2,rob ver 1B,2013-06-07 13:18:00,
2013-06-07 06:19:00,80.3,29.5,29.18,East,90,6.9,8.0,15,-99.99,,,0.00,105,rob ver 1B,2013-06-07 13:19:00,
2013-06-07 06:20:00,80.3,29.7,29.18,East,89,6.8,8.8,15,-99.99,,,0.00,107.7,rob ver 1B,2013-06-07 13:20:00,
2013-06-07 06:21:00,80.3,29.9,29.18,East,89,6.6,7.7,15,-99.99,,,0.00,110.5,rob ver 1B,2013-06-07 13:21:00,
2013-06-07 06:22:00,80.3,30.0,29.18,East,87,6.0,7.4,15,-99.99,,,0.00,113.5,rob ver 1B,2013-06-07 13:22:00,
2013-06-07 06:23:00,81.9,32.7,29.18,NE,49,2.6,2.9,16,-99.99,,,0.00,111.2,rob ver 1A,2013-06-07 13:23:00,
2013-06-07 06:24:00,80.3,30.2,29.18,East,93,6.4,7.9,16,-99.99,,,0.00,118.7,rob ver 1B,2013-06-07 13:24:00,
2013-06-07 06:25:00,80.3,30.2,29.18,East,92,6.1,7.3,16,-99.99,,,0.00,121.7,rob ver 1B,2013-06-07 13:25:00,
2013-06-07 06:26:00,80.4,30.3,29.18,East,92,6.5,7.5,16,-99.99,,,0.00,124.6,rob ver 1B,2013-06-07 13:26:00,
2013-06-07 06:27:00,80.5,30.3,29.18,East,91,6.5,8.0,16,-99.99,,,0.00,127.3,rob ver 1B,2013-06-07 13:27:00,
2013-06-07 06:28:00,80.5,30.4,29.18,East,94,6.6,8.4,16,-99.99,,,0.00,129.9,rob ver 1B,2013-06-07 13:28:00,
2013-06-07 06:29:00,82.5,32.9,29.18,NE,50,2.5,2.8,16,-99.99,,,0.00,129.2,rob ver 1A,2013-06-07 13:29:00,
2013-06-07 06:30:00,80.5,30.4,29.21,East,89,6.9,8.6,16,-99.99,,,0.00,136.1,rob ver 1B,2013-06-07 13:30:00,
2013-06-07 06:31:00,80.6,30.5,29.21,East,86,6.7,9.0,16,-99.99,,,0.00,139.1,rob ver 1B,2013-06-07 13:31:00,
2013-06-07 06:32:00,80.7,30.5,29.21,East,84,6.8,8.5,16,-99.99,,,0.00,141.9,rob ver 1B,2013-06-07 13:32:00,
2013-06-07 06:33:00,80.7,30.6,29.21,East,86,6.4,7.9,16,-99.99,,,0.00,144.3,rob ver 1B,2013-06-07 13:33:00,
2013-06-07 06:34:00,83.3,33.1,29.18,East,88,1.9,2.4,16,-99.99,,,0.00,144.3,rob ver 1A,2013-06-07 13:34:00,
2013-06-07 06:35:00,80.8,30.8,29.21,East,85,6.1,9.0,16,-99.99,,,0.00,150.2,rob ver 1B,2013-06-07 13:35:00,
2013-06-07 06:36:00,80.8,30.9,29.21,East,83,6.2,7.9,16,-99.99,,,0.00,153.8,rob ver 1B,2013-06-07 13:36:00,
2013-06-07 06:37:00,80.9,31.0,29.21,East,86,5.8,7.9,16,-99.99,,,0.00,156.8,rob ver 1B,2013-06-07 13:37:00,
2013-06-07 06:38:00,80.9,31.2,29.21,East,85,6.0,7.9,16,-99.99,,,0.00,159.4,rob ver 1B,2013-06-07 13:38:00,
2013-06-07 06:39:00,81.0,31.4,29.21,East,83,6.2,7.5,16,-99.99,,,0.00,162.7,rob ver 1B,2013-06-07 13:39:00,
2013-06-07 06:40:00,83.6,32.9,29.18,East,90,2.4,2.7,16,-99.99,,,0.00,159.4,rob ver 1A,2013-06-07 13:40:00,
2013-06-07 06:41:00,81.1,31.7,29.21,East,82,5.9,7.5,16,-99.99,,,0.00,168.6,rob ver 1B,2013-06-07 13:41:00,
2013-06-07 06:42:00,81.2,31.8,29.21,East,86,5.3,7.2,16,-99.99,,,0.00,171.9,rob ver 1B,2013-06-07 13:42:00,
2013-06-07 06:43:00,81.2,32.0,29.21,East,85,5.6,7.2,16,-99.99,,,0.00,174.8,rob ver 1B,2013-06-07 13:43:00,
2013-06-07 06:44:00,81.3,32.1,29.21,East,90,6.1,7.4,16,-99.99,,,0.00,178.1,rob ver 1B,2013-06-07 13:44:00,
2013-06-07 06:45:00,83.5,33.3,29.21,East,92,2.6,3.2,16,-99.99,,,0.00,178.4,rob ver 1A,2013-06-07 13:45:00,
2013-06-07 06:46:00,81.3,32.3,29.21,ESE,118,5.1,6.3,17,-99.99,,,0.00,184.3,rob ver 1B,2013-06-07 13:46:00,
2013-06-07 06:47:00,81.4,32.5,29.21,SE,132,4.9,6.1,17,-99.99,,,0.00,187.6,rob ver 1B,2013-06-07 13:47:00,
2013-06-07 06:48:00,81.4,32.4,29.21,SE,146,5.0,6.2,16,-99.99,,,0.00,190.9,rob ver 1B,2013-06-07 13:48:00,
2013-06-07 06:49:00,81.4,31.7,29.21,SSE,157,5.1,6.5,16,-99.99,,,0.00,194.3,rob ver 1B,2013-06-07 13:49:00,
2013-06-07 06:50:00,81.3,31.5,29.21,SSE,156,4.7,5.9,16,-99.99,,,0.00,197.4,rob ver 1B,2013-06-07 13:50:00,
2013-06-07 06:51:00,84.7,33.0,29.21,NE,48,2.3,2.7,15,-99.99,,,0.00,197.6,rob ver 1A,2013-06-07 13:51:00,
2013-06-07 06:52:00,81.1,31.1,29.21,SSE,157,5.2,6.0,16,-99.99,,,0.00,204,rob ver 1B,2013-06-07 13:52:00,
2013-06-07 06:53:00,81.0,31.2,29.21,SSE,152,5.0,5.8,16,-99.99,,,0.00,207.3,rob ver 1B,2013-06-07 13:53:00,
2013-06-07 06:54:00,80.9,31.7,29.21,SSE,163,4.9,6.1,16,-99.99,,,0.00,210.5,rob ver 1B,2013-06-07 13:54:00,
2013-06-07 06:55:00,80.8,32.0,29.21,SSE,168,4.8,5.9,17,-99.99,,,0.00,213.5,rob ver 1B,2013-06-07 13:55:00,
2013-06-07 06:56:00,85.0,32.9,29.21,ESE,103,1.7,2.2,15,-99.99,,,0.00,214.3,rob ver 1A,2013-06-07 13:56:00,
2013-06-07 06:57:00,80.8,32.2,29.21,South,174,4.5,5.5,17,-99.99,,,0.00,219.7,rob ver 1B,2013-06-07 13:57:00,
2013-06-07 06:58:00,80.9,32.2,29.21,South,177,4.1,4.6,17,-99.99,,,0.00,222.8,rob ver 1B,2013-06-07 13:58:00,
2013-06-07 06:59:00,81.0,32.2,29.21,South,172,4.4,5.1,17,-99.99,,,0.00,226.6,rob ver 1B,2013-06-07 13:59:00,
2013-06-07 07:00:00,81.0,32.2,29.21,South,171,4.2,5.4,16,-99.99,,,0.00,229.6,rob ver 1B,2013-06-07 14:00:00,
2013-06-07 07:01:00,81.1,32.2,29.21,SSE,166,4.3,5.0,17,-99.99,,,0.00,233.2,rob ver 1B,2013-06-07 14:01:00,
2013-06-07 07:02:00,85.2,33.4,29.21,SE,134,2.3,3.0,15,-99.99,,,0.00,230.2,rob ver 1A,2013-06-07 14:02:00,
2013-06-07 07:03:00,81.2,32.2,29.21,SSE,168,3.9,4.4,16,-99.99,,,0.00,240,rob ver 1B,2013-06-07 14:03:00,
2013-06-07 07:04:00,81.2,32.2,29.21,SSE,167,3.4,4.0,16,-99.99,,,0.00,242.7,rob ver 1B,2013-06-07 14:04:00,
2013-06-07 07:05:00,81.4,32.3,29.21,SSE,164,3.3,4.3,16,-99.99,,,0.00,246.3,rob ver 1B,2013-06-07 14:05:00,
2013-06-07 07:06:00,81.5,32.2,29.21,South,172,3.4,3.8,16,-99.99,,,0.00,249.5,rob ver 1B,2013-06-07 14:06:00,
2013-06-07 07:07:00,81.6,32.2,29.21,South,176,3.0,3.5,16,-99.99,,,0.00,252.8,rob ver 1B,2013-06-07 14:07:00,
2013-06-07 07:08:00,84.8,33.5,29.21,SE,137,3.0,3.7,15,-99.99,,,0.00,253.6,rob ver 1A,2013-06-07 14:08:00,
2013-06-07 07:09:00,81.9,32.2,29.21,South,181,2.9,3.4,16,-99.99,,,0.00,259.5,rob ver 1B,2013-06-07 14:09:00,
2013-06-07 07:10:00,82.1,32.2,29.21,South,173,2.6,3.1,16,-99.99,,,0.00,263,rob ver 1B,2013-06-07 14:10:00,
2013-06-07 07:11:00,82.3,32.2,29.21,SSE,166,2.6,3.3,16,-99.99,,,0.00,266.3,rob ver 1B,2013-06-07 14:11:00,
2013-06-07 07:12:00,82.3,32.2,29.21,South,171,2.3,2.9,16,-99.99,,,0.00,269.9,rob ver 1B,2013-06-07 14:12:00,
2013-06-07 07:13:00,85.2,33.3,29.21,SSE,150,1.6,2.0,15,-99.99,,,0.00,270,rob ver 1A,2013-06-07 14:13:00,
2013-06-07 07:14:00,82.7,32.6,29.21,SE,138,1.2,1.6,16,-99.99,,,0.00,276.7,rob ver 1B,2013-06-07 14:14:00,
2013-06-07 07:15:00,82.8,32.6,29.21,SSE,150,1.4,2.0,16,-99.99,,,0.00,279.4,rob ver 1B,2013-06-07 14:15:00,
2013-06-07 07:16:00,83.0,32.6,29.21,SE,134,1.2,2.1,16,-99.99,,,0.00,283,rob ver 1B,2013-06-07 14:16:00,
2013-06-07 07:17:00,83.3,32.7,29.21,ESE,115,0.6,1.0,16,-99.99,,,0.00,286.6,rob ver 1B,2013-06-07 14:17:00,
2013-06-07 07:18:00,85.8,33.2,29.21,SE,128,1.4,2.1,15,-99.99,,,0.00,287.7,rob ver 1A,2013-06-07 14:18:00,
2013-06-07 07:19:00,83.9,32.9,29.21,SE,133,1.3,1.8,15,-99.99,,,0.00,293.1,rob ver 1B,2013-06-07 14:19:00,
2013-06-07 07:20:00,83.8,32.8,29.21,ESE,107,0.8,1.3,15,-99.99,,,0.00,296.7,rob ver 1B,2013-06-07 14:20:00,
2013-06-07 07:21:00,83.9,32.7,29.21,ESE,117,0.9,1.7,15,-99.99,,,0.00,300,rob ver 1B,2013-06-07 14:21:00,
2013-06-07 07:22:00,84.0,32.4,29.21,SE,134,1.1,1.5,15,-99.99,,,0.00,303.3,rob ver 1B,2013-06-07 14:22:00,
2013-06-07 07:23:00,84.1,32.4,29.21,South,170,1.1,1.4,15,-99.99,,,0.00,306.6,rob ver 1B,2013-06-07 14:23:00,
2013-06-07 07:24:00,87.1,32.8,29.21,East,94,1.3,1.7,14,-99.99,,,0.00,306.5,rob ver 1A,2013-06-07 14:24:00,
2013-06-07 07:25:00,84.3,32.2,29.21,SSE,162,1.6,2.6,15,-99.99,,,0.00,313.6,rob ver 1B,2013-06-07 14:25:00,
2013-06-07 07:26:00,84.1,32.2,29.21,SSE,157,1.6,2.0,15,-99.99,,,0.00,317,rob ver 1B,2013-06-07 14:26:00,
2013-06-07 07:27:00,84.0,32.4,29.21,SE,143,1.4,2.1,15,-99.99,,,0.00,320,rob ver 1B,2013-06-07 14:27:00,
2013-06-07 07:28:00,84.0,32.4,29.21,SSE,167,1.6,2.7,15,-99.99,,,0.00,323.6,rob ver 1B,2013-06-07 14:28:00,
2013-06-07 07:29:00,87.9,33.1,29.21,SSW,198,1.2,1.7,13,-99.99,,,0.00,325.9,rob ver 1A,2013-06-07 14:29:00,
2013-06-07 07:30:00,84.4,32.7,29.23,SSW,209,1.3,2.0,15,-99.99,,,0.00,330.2,rob ver 1B,2013-06-07 14:30:00,
2013-06-07 07:31:00,84.7,32.9,29.23,SSW,209,1.2,1.7,15,-99.99,,,0.00,333.4,rob ver 1B,2013-06-07 14:31:00,
2013-06-07 07:32:00,84.7,32.8,29.23,South,171,1.9,2.7,15,-99.99,,,0.00,337.4,rob ver 1B,2013-06-07 14:32:00,
2013-06-07 07:33:00,84.5,32.8,29.23,SSE,159,1.6,2.6,15,-99.99,,,0.00,340.3,rob ver 1B,2013-06-07 14:33:00,
2013-06-07 07:34:00,84.5,33.0,29.23,SSW,206,1.2,1.8,15,-99.99,,,0.00,344.1,rob ver 1B,2013-06-07 14:34:00,
2013-06-07 07:35:00,87.9,33.1,29.21,SSW,207,2.1,2.6,14,-99.99,,,0.00,341.3,rob ver 1A,2013-06-07 14:35:00,
2013-06-07 07:36:00,85.0,33.5,29.23,West,261,1.3,1.7,15,-99.99,,,0.00,351.5,rob ver 1B,2013-06-07 14:36:00,
2013-06-07 07:37:00,85.2,33.6,29.23,WNW,282,1.7,2.1,15,-99.99,,,0.00,355.1,rob ver 1B,2013-06-07 14:37:00,
2013-06-07 07:38:00,85.3,33.8,29.23,WNW,287,1.6,2.4,15,-99.99,,,0.00,358.5,rob ver 1B,2013-06-07 14:38:00,
2013-06-07 07:39:00,85.4,33.9,29.23,WSW,249,1.3,1.7,15,-99.99,,,0.00,362.3,rob ver 1B,2013-06-07 14:39:00,
2013-06-07 07:40:00,88.0,33.2,29.21,SW,231,1.7,2.5,14,-99.99,,,0.00,362.3,rob ver 1A,2013-06-07 14:40:00,
2013-06-07 07:41:00,85.4,34.0,29.23,West,262,1.0,2.0,15,-99.99,,,0.00,369.3,rob ver 1B,2013-06-07 14:41:00,
2013-06-07 07:42:00,85.6,34.1,29.23,WNW,301,0.7,1.3,15,-99.99,,,0.00,373.1,rob ver 1B,2013-06-07 14:42:00,
2013-06-07 07:43:00,86.0,34.1,29.23,NNW,341,0.6,1.0,15,-99.99,,,0.00,376.7,rob ver 1B,2013-06-07 14:43:00,
2013-06-07 07:44:00,86.4,34.1,29.23,NNW,336,0.7,1.2,15,-99.99,,,0.00,380.9,rob ver 1B,2013-06-07 14:44:00,
2013-06-07 07:45:00,86.8,34.1,29.23,North,0,1.1,1.7,15,-99.99,,,0.00,384.6,rob ver 1B,2013-06-07 14:45:00,
2013-06-07 07:46:00,88.4,34.0,29.21,SW,233,2.4,3.1,14,-99.99,,,0.00,381.9,rob ver 1A,2013-06-07 14:46:00,
2013-06-07 07:47:00,87.2,34.2,29.23,NNE,12,1.2,1.7,15,-99.99,,,0.00,390.8,rob ver 1B,2013-06-07 14:47:00,
2013-06-07 07:48:00,87.3,34.4,29.23,NE,36,1.3,1.9,15,-99.99,,,0.00,394.4,rob ver 1B,2013-06-07 14:48:00,
2013-06-07 07:49:00,87.3,34.7,29.23,NE,42,0.7,1.3,15,-99.99,,,0.00,398.3,rob ver 1B,2013-06-07 14:49:00,
2013-06-07 07:50:00,87.5,34.6,29.23,East,86,0.3,0.8,15,-99.99,,,0.00,402.3,rob ver 1B,2013-06-07 14:50:00,
2013-06-07 07:51:00,88.0,34.7,29.23,SE,128,1.3,3.2,14,-99.99,,,0.00,405.5,rob ver 1B,2013-06-07 14:51:00,
2013-06-07 07:52:00,88.5,34.7,29.21,SW,216,0.5,1.1,14,-99.99,,,0.00,399.1,rob ver 1A,2013-06-07 14:52:00,
2013-06-07 07:53:00,87.6,34.3,29.23,WSW,243,1.3,1.8,15,-99.99,,,0.00,412.1,rob ver 1B,2013-06-07 14:53:00,
2013-06-07 07:54:00,87.6,34.5,29.23,West,276,1.0,1.7,15,-99.99,,,0.00,415.4,rob ver 1B,2013-06-07 14:54:00,
2013-06-07 07:55:00,87.6,34.6,29.23,West,280,1.1,2.1,15,-99.99,,,0.00,418.6,rob ver 1B,2013-06-07 14:55:00,
2013-06-07 07:56:00,87.7,34.6,29.23,WSW,247,0.8,1.4,15,-99.99,,,0.00,422.1,rob ver 1B,2013-06-07 14:56:00,
2013-06-07 07:57:00,87.5,34.6,29.23,SSE,160,1.0,1.6,15,-99.99,,,0.00,425.4,rob ver 1B,2013-06-07 14:57:00,
2013-06-07 07:58:00,89.2,35.6,29.21,SSW,203,2.9,3.6,14,-99.99,,,0.00,421.8,rob ver 1A,2013-06-07 14:58:00,
2013-06-07 07:59:00,87.3,34.3,29.23,SW,233,1.3,2.4,15,-99.99,,,0.00,431.7,rob ver 1B,2013-06-07 14:59:00,
2013-06-07 08:00:00,87.4,35.3,29.23,West,273,1.7,3.1,15,-99.99,,,0.00,433.8,rob ver 1B,2013-06-07 15:00:00,
2013-06-07 08:01:00,87.4,34.8,29.23,WSW,247,1.5,2.5,15,-99.99,,,0.00,438.1,rob ver 1B,2013-06-07 15:01:00,
2013-06-07 08:02:00,87.3,35.0,29.23,WSW,248,1.6,2.3,15,-99.99,,,0.00,441.1,rob ver 1B,2013-06-07 15:02:00,
2013-06-07 08:03:00,89.9,34.4,29.21,SW,232,1.9,3.7,13,-99.99,,,0.00,441.5,rob ver 1A,2013-06-07 15:03:00,
2013-06-07 08:04:00,87.0,35.7,29.23,West,266,2.0,2.9,16,-99.99,,,0.00,448.1,rob ver 1B,2013-06-07 15:04:00,
2013-06-07 08:05:00,86.8,35.9,29.23,WNW,284,1.2,1.8,16,-99.99,,,0.00,451.7,rob ver 1B,2013-06-07 15:05:00,
2013-06-07 08:06:00,87.0,36.0,29.23,West,281,0.8,2.6,16,-99.99,,,0.00,455.3,rob ver 1B,2013-06-07 15:06:00,
2013-06-07 08:07:00,87.2,36.2,29.23,West,278,2.0,2.7,16,-99.99,,,0.00,458.2,rob ver 1B,2013-06-07 15:07:00,
2013-06-07 08:08:00,89.9,32.0,29.21,South,187,3.3,4.8,12,-99.99,,,0.00,459.1,rob ver 1A,2013-06-07 15:08:00,
2013-06-07 08:09:00,87.2,36.5,29.23,West,263,1.2,2.7,16,-99.99,,,0.00,464.9,rob ver 1B,2013-06-07 15:09:00,
2013-06-07 08:10:00,87.3,36.8,29.23,WSW,253,2.3,3.0,16,-99.99,,,0.00,469,rob ver 1B,2013-06-07 15:10:00,
2013-06-07 08:11:00,87.0,36.6,29.23,SW,222,2.4,3.3,16,-99.99,,,0.00,472,rob ver 1B,2013-06-07 15:11:00,
2013-06-07 08:12:00,86.7,36.9,29.23,SW,221,2.7,3.9,17,-99.99,,,0.00,475.6,rob ver 1B,2013-06-07 15:12:00,
2013-06-07 08:13:00,90.3,31.4,29.21,SW,214,4.5,6.4,12,-99.99,,,0.00,476.2,rob ver 1A,2013-06-07 15:13:00,
2013-06-07 08:14:00,86.5,37.5,29.23,WSW,255,2.4,3.6,17,-99.99,,,0.00,482.1,rob ver 1B,2013-06-07 15:14:00,
2013-06-07 08:15:00,86.5,37.6,29.23,SW,230,2.7,3.4,17,-99.99,,,0.00,485.4,rob ver 1B,2013-06-07 15:15:00,
2013-06-07 08:16:00,86.5,38.0,29.23,SSW,195,1.9,2.8,17,-99.99,,,0.00,489.2,rob ver 1B,2013-06-07 15:16:00,
2013-06-07 08:17:00,86.8,38.1,29.23,SSW,196,1.0,1.8,17,-99.99,,,0.00,491.3,rob ver 1B,2013-06-07 15:17:00,
2013-06-07 08:18:00,90.6,31.1,29.21,SSW,206,4.2,5.6,11,-99.99,,,0.00,492.5,rob ver 1A,2013-06-07 15:18:00,
2013-06-07 08:19:00,87.3,37.6,29.23,East,100,0.9,1.6,17,-99.99,,,0.00,498.5,rob ver 1B,2013-06-07 15:19:00,
2013-06-07 08:20:00,87.7,36.9,29.23,SW,215,2.2,3.6,16,-99.99,,,0.00,501.8,rob ver 1B,2013-06-07 15:20:00,
2013-06-07 08:21:00,87.8,36.3,29.23,SSW,203,2.3,3.5,16,-99.99,,,0.00,505.7,rob ver 1B,2013-06-07 15:21:00,
2013-06-07 08:22:00,87.7,36.7,29.23,WSW,251,3.0,4.2,16,-99.99,,,0.00,508.3,rob ver 1B,2013-06-07 15:22:00,
2013-06-07 08:23:00,90.4,30.6,29.21,SW,216,5.6,6.9,11,-99.99,,,0.00,508.9,rob ver 1A,2013-06-07 15:23:00,
2013-06-07 08:24:00,87.3,36.8,29.23,WSW,240,2.5,3.6,16,-99.99,,,0.00,515.2,rob ver 1B,2013-06-07 15:24:00,
2013-06-07 08:25:00,87.2,37.1,29.23,SSW,204,2.9,4.5,17,-99.99,,,0.00,518.1,rob ver 1B,2013-06-07 15:25:00,
2013-06-07 08:26:00,87.2,37.1,29.23,South,185,2.5,3.7,17,-99.99,,,0.00,521.2,rob ver 1B,2013-06-07 15:26:00,
2013-06-07 08:27:00,87.3,37.0,29.23,South,181,2.2,3.5,16,-99.99,,,0.00,524.3,rob ver 1B,2013-06-07 15:27:00,
2013-06-07 08:28:00,87.5,37.3,29.23,South,190,1.0,2.2,16,-99.99,,,0.00,527.3,rob ver 1B,2013-06-07 15:28:00,
2013-06-07 08:29:00,90.9,31.0,29.21,SSW,200,6.9,9.0,11,-99.99,,,0.00,530,rob ver 1A,2013-06-07 15:29:00,
2013-06-07 08:30:00,87.9,38.2,29.23,SW,230,2.5,3.8,17,-99.99,,,0.00,534.8,rob ver 1B,2013-06-07 15:30:00,
2013-06-07 08:31:00,87.7,38.9,29.23,WSW,248,2.9,3.7,17,-99.99,,,0.00,537.6,rob ver 1B,2013-06-07 15:31:00,
2013-06-07 08:32:00,87.5,38.9,29.23,SW,223,1.8,2.8,18,-99.99,,,0.00,539.7,rob ver 1B,2013-06-07 15:32:00,
2013-06-07 08:33:00,87.8,39.1,29.23,SSW,207,1.0,1.8,17,-99.99,,,0.00,543.3,rob ver 1B,2013-06-07 15:33:00,
2013-06-07 08:34:00,88.3,38.8,29.23,WSW,253,0.6,1.3,17,-99.99,,,0.00,546.3,rob ver 1B,2013-06-07 15:34:00,
2013-06-07 08:35:00,91.1,30.1,29.21,SSW,204,7.4,10.8,11,-99.99,,,0.00,546.2,rob ver 1A,2013-06-07 15:35:00,
2013-06-07 08:36:00,89.0,39.4,29.23,WSW,256,2.1,3.9,17,-99.99,,,0.00,552.8,rob ver 1B,2013-06-07 15:36:00,
2013-06-07 08:37:00,88.7,40.0,29.23,WSW,247,3.6,4.6,18,-99.99,,,0.00,555.9,rob ver 1B,2013-06-07 15:37:00,
2013-06-07 08:38:00,87.9,39.9,29.23,WSW,257,3.8,4.6,18,-99.99,,,0.00,558.9,rob ver 1B,2013-06-07 15:38:00,
2013-06-07 08:39:00,87.6,39.8,29.23,WSW,254,2.9,3.7,18,-99.99,,,0.00,561.5,rob ver 1B,2013-06-07 15:39:00,
2013-06-07 08:40:00,87.7,39.6,29.23,WSW,243,2.8,4.0,18,-99.99,,,0.00,564.6,rob ver 1B,2013-06-07 15:40:00,
2013-06-07 08:41:00,91.5,28.7,29.21,South,174,9.9,11.6,10,-99.99,,,0.00,566.7,rob ver 1A,2013-06-07 15:41:00,
2013-06-07 08:42:00,87.5,39.6,29.23,WSW,238,3.4,4.4,18,-99.99,,,0.00,571.8,rob ver 1B,2013-06-07 15:42:00,
2013-06-07 08:43:00,87.4,39.7,29.23,SW,236,3.0,4.5,18,-99.99,,,0.00,575.4,rob ver 1B,2013-06-07 15:43:00,
2013-06-07 08:44:00,87.5,39.4,29.23,SW,231,4.3,5.9,18,-99.99,,,0.00,578.7,rob ver 1B,2013-06-07 15:44:00,
2013-06-07 08:45:00,87.5,39.2,29.23,SW,221,5.0,6.5,18,-99.99,,,0.00,581.3,rob ver 1B,2013-06-07 15:45:00,
2013-06-07 08:46:00,91.6,28.6,29.21,South,187,8.7,10.6,10,-99.99,,,0.00,584.8,rob ver 1A,2013-06-07 15:46:00,
2013-06-07 08:47:00,87.5,39.5,29.23,SW,222,3.4,4.5,18,-99.99,,,0.00,586.9,rob ver 1B,2013-06-07 15:47:00,
2013-06-07 08:48:00,87.6,40.2,29.23,SW,224,3.0,4.1,19,-99.99,,,0.00,590.2,rob ver 1B,2013-06-07 15:48:00,
2013-06-07 08:49:00,87.8,40.1,29.23,SSW,199,2.1,3.8,18,-99.99,,,0.00,593.4,rob ver 1B,2013-06-07 15:49:00,
2013-06-07 08:50:00,88.0,39.9,29.23,SSW,198,1.9,3.3,18,-99.99,,,0.00,596.7,rob ver 1B,2013-06-07 15:50:00,
2013-06-07 08:51:00,91.8,27.8,29.21,South,186,11.3,15.5,10,-99.99,,,0.00,597.9,rob ver 1A,2013-06-07 15:51:00,
2013-06-07 08:52:00,88.4,40.3,29.23,SW,221,2.4,3.4,18,-99.99,,,0.00,602.4,rob ver 1B,2013-06-07 15:52:00,
2013-06-07 08:53:00,88.6,40.1,29.23,SW,230,2.5,3.5,18,-99.99,,,0.00,605.4,rob ver 1B,2013-06-07 15:53:00,
2013-06-07 08:54:00,88.7,40.1,29.23,SW,216,2.9,4.7,18,-99.99,,,0.00,607.8,rob ver 1B,2013-06-07 15:54:00,
2013-06-07 08:55:00,88.8,40.1,29.23,SW,216,2.3,3.7,17,-99.99,,,0.00,611,rob ver 1B,2013-06-07 15:55:00,
2013-06-07 08:56:00,89.0,39.8,29.23,WSW,248,2.6,4.6,17,-99.99,,,0.00,612.6,rob ver 1B,2013-06-07 15:56:00,
2013-06-07 08:57:00,91.7,28.1,29.21,South,190,12.0,14.2,10,-99.99,,,0.00,615.2,rob ver 1A,2013-06-07 15:57:00,
2013-06-07 08:58:00,89.2,39.9,29.23,West,266,3.1,3.8,17,-99.99,,,0.00,620.3,rob ver 1B,2013-06-07 15:58:00,
2013-06-07 08:59:00,89.2,39.7,29.23,WSW,247,3.6,5.6,17,-99.99,,,0.00,623.5,rob ver 1B,2013-06-07 15:59:00,
2013-06-07 09:00:00,89.0,39.9,29.23,WSW,247,3.7,6.3,17,-99.99,,,0.00,626.3,rob ver 1B,2013-06-07 16:00:00,
2013-06-07 09:01:00,88.9,40.1,29.23,WSW,250,4.1,5.2,18,-99.99,,,0.00,628.8,rob ver 1B,2013-06-07 16:01:00,
2013-06-07 09:02:00,92.2,29.9,29.21,South,190,12.1,14.3,11,-99.99,,,0.00,632.5,rob ver 1A,2013-06-07 16:02:00,
2013-06-07 09:03:00,88.8,40.2,29.23,West,269,3.2,4.2,18,-99.99,,,0.00,635.3,rob ver 1B,2013-06-07 16:03:00,
2013-06-07 09:04:00,89.0,40.3,29.23,NW,316,2.2,3.7,18,-99.99,,,0.00,638.6,rob ver 1B,2013-06-07 16:04:00,
2013-06-07 09:05:00,89.3,40.3,29.23,North,352,1.2,2.5,17,-99.99,,,0.00,641.8,rob ver 1B,2013-06-07 16:05:00,
2013-06-07 09:06:00,89.9,40.2,29.23,ENE,72,1.4,2.7,17,-99.99,,,0.00,643.8,rob ver 1B,2013-06-07 16:06:00,
2013-06-07 09:07:00,90.4,40.2,29.23,South,183,1.2,2.6,17,-99.99,,,0.00,647.1,rob ver 1B,2013-06-07 16:07:00,
2013-06-07 09:08:00,92.6,30.4,29.21,South,175,11.5,13.3,10,-99.99,,,0.00,630.5,rob ver 1A,2013-06-07 16:08:00,
2013-06-07 09:09:00,90.9,40.4,29.23,NW,315,4.5,6.0,17,-99.99,,,0.00,652.9,rob ver 1B,2013-06-07 16:09:00,
2013-06-07 09:10:00,90.8,40.5,29.23,NW,308,3.7,4.7,17,-99.99,,,0.00,654.9,rob ver 1B,2013-06-07 16:10:00,
2013-06-07 09:11:00,90.8,40.7,29.23,WNW,293,2.7,3.8,17,-99.99,,,0.00,658.8,rob ver 1B,2013-06-07 16:11:00,
2013-06-07 09:12:00,90.9,40.5,29.23,NW,316,1.9,3.3,17,-99.99,,,0.00,660.8,rob ver 1B,2013-06-07 16:12:00,
2013-06-07 09:13:00,92.4,30.7,29.21,SSW,192,11.2,13.7,11,-99.99,,,0.00,635.1,rob ver 1A,2013-06-07 16:13:00,
2013-06-07 09:14:00,91.2,40.8,29.23,NNW,341,2.6,3.9,17,-99.99,,,0.00,666.6,rob ver 1B,2013-06-07 16:14:00,
2013-06-07 09:15:00,91.2,40.9,29.23,North,353,3.3,4.8,17,-99.99,,,0.00,670.4,rob ver 1B,2013-06-07 16:15:00,
2013-06-07 09:16:00,91.1,41.4,29.23,North,354,3.2,4.4,17,-99.99,,,0.00,673.9,rob ver 1B,2013-06-07 16:16:00,
2013-06-07 09:17:00,91.1,41.6,29.26,NNW,344,3.1,4.6,18,-99.99,,,0.00,676.1,rob ver 1B,2013-06-07 16:17:00,
2013-06-07 09:18:00,91.1,41.6,29.23,North,355,3.0,3.9,17,-99.99,,,0.00,677.8,rob ver 1B,2013-06-07 16:18:00,
2013-06-07 09:19:00,92.5,31.6,29.21,SSW,195,11.4,13.5,11,-99.99,,,0.00,673.1,rob ver 1A,2013-06-07 16:19:00,
2013-06-07 09:20:00,91.3,41.8,29.23,NNW,344,2.8,4.2,18,-99.99,,,0.00,684.8,rob ver 1B,2013-06-07 16:20:00,
2013-06-07 09:21:00,91.4,42.4,29.23,North,358,2.5,3.3,18,-99.99,,,0.00,686.9,rob ver 1B,2013-06-07 16:21:00,
2013-06-07 09:22:00,91.6,42.6,29.23,NNW,339,1.7,2.6,18,-99.99,,,0.00,690.7,rob ver 1B,2013-06-07 16:22:00,
2013-06-07 09:23:00,91.8,42.4,29.23,North,7,3.3,4.5,17,-99.99,,,0.00,692.8,rob ver 1B,2013-06-07 16:23:00,
2013-06-07 09:24:00,92.8,32.7,29.21,South,179,11.6,14.4,12,-99.99,,,0.00,687.5,rob ver 1A,2013-06-07 16:24:00,
2013-06-07 09:25:00,91.7,42.2,29.26,North,350,2.7,3.9,18,-99.99,,,0.00,696.9,rob ver 1B,2013-06-07 16:25:00,
2013-06-07 09:26:00,91.8,42.6,29.26,North,2,1.8,3.1,18,-99.99,,,0.00,699.5,rob ver 1B,2013-06-07 16:26:00,
2013-06-07 09:27:00,92.1,42.4,29.26,North,10,3.2,5.7,17,-99.99,,,0.00,702,rob ver 1B,2013-06-07 16:27:00,
2013-06-07 09:28:00,92.0,41.9,29.26,NNW,347,2.1,4.6,17,-99.99,,,0.00,706,rob ver 1B,2013-06-07 16:28:00,
2013-06-07 09:29:00,91.9,41.7,29.26,SSE,153,1.3,2.2,17,-99.99,,,0.00,709,rob ver 1B,2013-06-07 16:29:00,
2013-06-07 09:30:00,92.8,33.1,29.21,South,186,12.1,16.2,12,-99.99,,,0.00,693.7,rob ver 1A,2013-06-07 16:30:00,
2013-06-07 09:31:00,92.0,41.6,29.26,WSW,241,1.0,1.9,17,-99.99,,,0.00,714,rob ver 1B,2013-06-07 16:31:00,
2013-06-07 09:32:00,92.4,41.8,29.26,SSW,206,1.7,2.7,17,-99.99,,,0.00,718,rob ver 1B,2013-06-07 16:32:00,
2013-06-07 09:33:00,92.3,41.6,29.26,South,188,3.0,4.4,17,-99.99,,,0.00,720,rob ver 1B,2013-06-07 16:33:00,
2013-06-07 09:34:00,92.0,41.3,29.26,South,174,2.3,3.0,17,-99.99,,,0.00,722,rob ver 1B,2013-06-07 16:34:00,
2013-06-07 09:35:00,93.2,33.3,29.21,South,178,12.0,15.9,12,-99.99,,,0.00,715,rob ver 1A,2013-06-07 16:35:00,
2013-06-07 09:36:00,91.8,41.5,29.26,SSW,213,1.1,3.0,17,-99.99,,,0.00,727,rob ver 1B,2013-06-07 16:36:00,
2013-06-07 09:37:00,92.2,41.6,29.26,West,269,2.9,4.4,17,-99.99,,,0.00,729,rob ver 1B,2013-06-07 16:37:00,
2013-06-07 09:38:00,92.1,41.7,29.26,West,275,1.9,3.5,17,-99.99,,,0.00,733,rob ver 1B,2013-06-07 16:38:00,
2013-06-07 09:39:00,91.9,42.0,29.26,West,270,2.6,4.3,17,-99.99,,,0.00,736,rob ver 1B,2013-06-07 16:39:00,
2013-06-07 09:40:00,91.8,42.0,29.26,NW,311,2.2,3.4,17,-99.99,,,0.00,738,rob ver 1B,2013-06-07 16:40:00,
2013-06-07 09:41:00,93.7,33.7,29.21,SSE,166,9.9,12.2,12,-99.99,,,0.00,732,rob ver 1A,2013-06-07 16:41:00,
2013-06-07 09:42:00,92.2,41.9,29.26,SE,124,1.9,3.6,17,-99.99,,,0.00,743,rob ver 1B,2013-06-07 16:42:00,
2013-06-07 09:43:00,91.8,41.5,29.26,ESE,115,2.2,2.9,17,-99.99,,,0.00,745,rob ver 1B,2013-06-07 16:43:00,
2013-06-07 09:44:00,91.6,41.5,29.26,East,99,1.0,2.2,17,-99.99,,,0.00,747,rob ver 1B,2013-06-07 16:44:00,
2013-06-07 09:45:00,92.1,41.6,29.26,NE,55,0.4,1.0,17,-99.99,,,0.00,751,rob ver 1B,2013-06-07 16:45:00,
2013-06-07 09:46:00,93.9,32.9,29.21,SSW,194,12.5,14.8,11,-99.99,,,0.00,746,rob ver 1A,2013-06-07 16:46:00,
2013-06-07 09:47:00,93.7,41.5,29.26,SW,220,2.6,4.8,16,-99.99,,,0.00,755,rob ver 1B,2013-06-07 16:47:00,
2013-06-07 09:48:00,93.5,41.2,29.26,SSW,198,4.8,6.6,16,-99.99,,,0.00,757,rob ver 1B,2013-06-07 16:48:00,
2013-06-07 09:49:00,92.9,41.4,29.26,South,178,4.2,6.4,16,-99.99,,,0.00,761,rob ver 1B,2013-06-07 16:49:00,
2013-06-07 09:50:00,92.7,41.4,29.26,SSW,204,6.1,8.1,16,-99.99,,,0.00,762,rob ver 1B,2013-06-07 16:50:00,
2013-06-07 09:51:00,93.8,33.2,29.21,South,170,11.4,12.8,11,-99.99,,,0.00,764,rob ver 1A,2013-06-07 16:51:00,
2013-06-07 09:52:00,91.9,41.2,29.26,SW,230,4.9,7.4,17,-99.99,,,0.00,766,rob ver 1B,2013-06-07 16:52:00,
2013-06-07 09:53:00,91.6,41.6,29.26,SW,230,4.5,7.0,17,-99.99,,,0.00,769,rob ver 1B,2013-06-07 16:53:00,
2013-06-07 09:54:00,91.7,42.2,29.26,WSW,246,2.9,4.4,17,-99.99,,,0.00,771,rob ver 1B,2013-06-07 16:54:00,
2013-06-07 09:55:00,91.8,42.7,29.26,SSW,203,2.1,3.6,18,-99.99,,,0.00,773,rob ver 1B,2013-06-07 16:55:00,
2013-06-07 09:56:00,94.7,34.6,29.21,South,189,11.2,13.2,12,-99.99,,,0.00,778,rob ver 1A,2013-06-07 16:56:00,
2013-06-07 09:57:00,92.2,43.0,29.26,East,87,0.8,1.3,18,-99.99,,,0.00,778,rob ver 1B,2013-06-07 16:57:00,
2013-06-07 09:58:00,93.0,43.2,29.26,NNE,29,2.5,3.8,17,-99.99,,,0.00,780,rob ver 1B,2013-06-07 16:58:00,
2013-06-07 09:59:00,93.4,43.4,29.26,NNE,17,2.5,3.3,17,-99.99,,,0.00,785,rob ver 1B,2013-06-07 16:59:00,
2013-06-07 10:00:00,93.6,43.4,29.26,North,353,1.9,2.8,17,-99.99,,,0.00,786,rob ver 1B,2013-06-07 17:00:00,
2013-06-07 10:01:00,93.9,43.3,29.26,NNE,33,1.6,2.4,17,-99.99,,,0.00,788,rob ver 1B,2013-06-07 17:01:00,
2013-06-07 10:02:00,94.7,35.2,29.21,South,179,13.1,16.2,12,-99.99,,,0.00,792,rob ver 1A,2013-06-07 17:02:00,
2013-06-07 10:03:00,93.3,42.6,29.26,ENE,64,2.2,3.0,17,-99.99,,,0.00,793,rob ver 1B,2013-06-07 17:03:00,
2013-06-07 10:04:00,93.2,42.7,29.26,ENE,61,2.4,4.2,17,-99.99,,,0.00,796,rob ver 1B,2013-06-07 17:04:00,
2013-06-07 10:05:00,93.3,42.7,29.26,NE,47,2.1,4.3,17,-99.99,,,0.00,798,rob ver 1B,2013-06-07 17:05:00,
2013-06-07 10:06:00,93.4,42.7,29.26,NE,53,3.0,3.9,17,-99.99,,,0.00,801,rob ver 1B,2013-06-07 17:06:00,
2013-06-07 10:07:00,95.7,35.8,29.21,SSW,199,11.7,15.1,12,-99.99,,,0.00,801,rob ver 1A,2013-06-07 17:07:00,
2013-06-07 10:08:00,94.0,43.1,29.26,West,264,1.6,3.1,17,-99.99,,,0.00,804,rob ver 1B,2013-06-07 17:08:00,
2013-06-07 10:09:00,94.0,43.2,29.26,SSE,160,3.2,4.8,17,-99.99,,,0.00,808,rob ver 1B,2013-06-07 17:09:00,
2013-06-07 10:10:00,93.6,43.0,29.26,SE,135,1.6,3.5,17,-99.99,,,0.00,810,rob ver 1B,2013-06-07 17:10:00,
2013-06-07 10:11:00,93.7,43.3,29.26,SSW,201,4.4,8.3,17,-99.99,,,0.00,812,rob ver 1B,2013-06-07 17:11:00,
2013-06-07 10:12:00,95.5,33.9,29.21,South,190,9.3,12.0,11,-99.99,,,0.00,815,rob ver 1A,2013-06-07 17:12:00,
2013-06-07 10:13:00,93.2,43.4,29.26,SSW,213,3.6,5.4,17,-99.99,,,0.00,815,rob ver 1B,2013-06-07 17:13:00,
2013-06-07 10:14:00,93.1,42.8,29.26,SSE,164,5.1,7.3,17,-99.99,,,0.00,817,rob ver 1B,2013-06-07 17:14:00,
2013-06-07 10:15:00,92.7,42.8,29.26,SSE,150,2.5,4.1,18,-99.99,,,0.00,818,rob ver 1B,2013-06-07 17:15:00,
2013-06-07 10:16:00,93.1,43.0,29.26,SSE,168,3.1,5.3,17,-99.99,,,0.00,822,rob ver 1B,2013-06-07 17:16:00,
2013-06-07 10:17:00,96.1,34.5,29.21,SSW,198,10.0,13.6,11,-99.99,,,0.00,825,rob ver 1A,2013-06-07 17:17:00,
2013-06-07 10:18:00,93.2,43.0,29.26,ESE,119,2.4,4.1,17,-99.99,,,0.00,827,rob ver 1B,2013-06-07 17:18:00,
2013-06-07 10:19:00,93.3,43.0,29.26,SSE,164,3.3,5.0,17,-99.99,,,0.00,830,rob ver 1B,2013-06-07 17:19:00,
2013-06-07 10:20:00,93.3,43.3,29.26,ESE,122,2.6,4.4,18,-99.99,,,0.00,831,rob ver 1B,2013-06-07 17:20:00,
2013-06-07 10:21:00,93.5,43.7,29.26,East,91,3.9,5.1,18,-99.99,,,0.00,834,rob ver 1B,2013-06-07 17:21:00,
2013-06-07 10:22:00,93.8,43.7,29.26,NE,45,3.7,6.0,17,-99.99,,,0.00,835,rob ver 1B,2013-06-07 17:22:00,
2013-06-07 10:23:00,96.8,33.1,29.21,SSW,197,11.4,14.4,10,-99.99,,,0.00,837,rob ver 1A,2013-06-07 17:23:00,
2013-06-07 10:24:00,94.5,44.1,29.26,SE,132,4.2,8.8,17,-99.99,,,0.00,839,rob ver 1B,2013-06-07 17:24:00,
2013-06-07 10:25:00,94.4,44.1,29.26,South,191,6.7,9.0,17,-99.99,,,0.00,843,rob ver 1B,2013-06-07 17:25:00,
2013-06-07 10:26:00,94.0,44.1,29.26,SW,217,4.4,5.7,18,-99.99,,,0.00,844,rob ver 1B,2013-06-07 17:26:00,
2013-06-07 10:27:00,93.9,44.2,29.26,SSW,204,4.5,6.4,18,-99.99,,,0.00,846,rob ver 1B,2013-06-07 17:27:00,
2013-06-07 10:28:00,96.2,32.0,29.21,South,182,9.4,12.8,10,-99.99,,,0.00,847,rob ver 1A,2013-06-07 17:28:00,
2013-06-07 10:29:00,93.9,44.2,29.26,SSW,197,3.8,6.6,18,-99.99,,,0.00,850,rob ver 1B,2013-06-07 17:29:00,
2013-06-07 10:30:00,94.2,44.3,29.26,SSW,203,5.6,8.3,18,-99.99,,,0.00,852,rob ver 1B,2013-06-07 17:30:00,
2013-06-07 10:31:00,94.0,44.4,29.26,WSW,245,3.8,5.0,18,-99.99,,,0.00,856,rob ver 1B,2013-06-07 17:31:00,
2013-06-07 10:32:00,94.2,44.5,29.26,SSW,195,3.6,4.6,18,-99.99,,,0.00,856,rob ver 1B,2013-06-07 17:32:00,
2013-06-07 10:33:00,96.8,31.8,29.21,SSW,196,9.1,12.5,10,-99.99,,,0.00,862,rob ver 1A,2013-06-07 17:33:00,
2013-06-07 10:34:00,94.6,44.3,29.26,WSW,254,1.2,2.4,17,-99.99,,,0.00,859,rob ver 1B,2013-06-07 17:34:00,
2013-06-07 10:35:00,95.1,44.5,29.26,East,79,2.0,4.3,17,-99.99,,,0.00,862,rob ver 1B,2013-06-07 17:35:00,
2013-06-07 10:36:00,95.4,44.7,29.26,East,79,3.5,4.6,17,-99.99,,,0.00,863,rob ver 1B,2013-06-07 17:36:00,
2013-06-07 10:37:00,95.2,44.5,29.26,East,82,4.3,5.9,17,-99.99,,,0.00,865,rob ver 1B,2013-06-07 17:37:00,
2013-06-07 10:38:00,94.9,44.4,29.26,East,88,3.3,5.5,17,-99.99,,,0.00,867,rob ver 1B,2013-06-07 17:38:00,
2013-06-07 10:39:00,97.1,32.5,29.21,South,187,11.0,16.8,10,-99.99,,,0.00,872,rob ver 1A,2013-06-07 17:39:00,
2013-06-07 10:40:00,95.6,45.5,29.26,South,189,5.5,7.1,18,-99.99,,,0.00,870,rob ver 1B,2013-06-07 17:40:00,
2013-06-07 10:41:00,95.6,45.5,29.26,SSW,207,6.4,8.1,18,-99.99,,,0.00,872,rob ver 1B,2013-06-07 17:41:00,
2013-06-07 10:42:00,95.5,45.5,29.26,SSW,193,6.8,9.7,18,-99.99,,,0.00,874,rob ver 1B,2013-06-07 17:42:00,
2013-06-07 10:43:00,95.2,45.3,29.26,South,177,4.9,7.6,18,-99.99,,,0.00,876,rob ver 1B,2013-06-07 17:43:00,
2013-06-07 10:44:00,94.8,45.2,29.26,South,185,4.0,6.0,18,-99.99,,,0.00,876,rob ver 1B,2013-06-07 17:44:00,
2013-06-07 10:45:00,97.4,32.9,29.21,South,172,10.8,16.1,10,-99.99,,,0.00,885,rob ver 1A,2013-06-07 17:45:00,
2013-06-07 10:46:00,94.5,45.3,29.26,South,170,6.2,8.4,18,-99.99,,,0.00,882,rob ver 1B,2013-06-07 17:46:00,
2013-06-07 10:47:00,94.4,45.4,29.26,South,191,5.1,6.6,18,-99.99,,,0.00,883,rob ver 1B,2013-06-07 17:47:00,
2013-06-07 10:48:00,94.7,45.3,29.26,South,171,5.9,7.3,18,-99.99,,,0.00,885,rob ver 1B,2013-06-07 17:48:00,
2013-06-07 10:49:00,94.7,45.0,29.26,SSE,167,5.5,7.3,18,-99.99,,,0.00,888,rob ver 1B,2013-06-07 17:49:00,
2013-06-07 10:50:00,94.5,44.9,29.26,SSE,151,2.7,4.6,18,-99.99,,,0.00,889,rob ver 1B,2013-06-07 17:50:00,
2013-06-07 10:51:00,98.9,33.0,29.21,South,182,9.7,13.0,10,-99.99,,,0.00,893,rob ver 1A,2013-06-07 17:51:00,
2013-06-07 10:52:00,95.4,45.1,29.26,ENE,73,1.4,2.6,17,-99.99,,,0.00,891,rob ver 1B,2013-06-07 17:52:00,
2013-06-07 10:53:00,95.9,45.1,29.26,WNW,286,1.7,4.3,17,-99.99,,,0.00,895,rob ver 1B,2013-06-07 17:53:00,
2013-06-07 10:54:00,96.2,44.7,29.26,SW,228,4.7,7.2,16,-99.99,,,0.00,895,rob ver 1B,2013-06-07 17:54:00,
2013-06-07 10:55:00,96.1,44.4,29.26,SSW,213,6.6,10.9,17,-99.99,,,0.00,898,rob ver 1B,2013-06-07 17:55:00,
2013-06-07 10:56:00,96.0,44.3,29.26,South,186,6.8,8.8,17,-99.99,,,0.00,898,rob ver 1B,2013-06-07 17:56:00,
2013-06-07 10:57:00,96.0,44.3,29.26,SSW,194,6.3,8.7,17,-99.99,,,0.00,900,rob ver 1B,2013-06-07 17:57:00,
2013-06-07 10:58:00,96.2,44.1,29.26,SSW,210,7.5,9.5,16,-99.99,,,0.00,903,rob ver 1B,2013-06-07 17:58:00,
2013-06-07 10:59:00,96.1,44.0,29.26,South,177,7.8,10.1,16,-99.99,,,0.00,905,rob ver 1B,2013-06-07 17:59:00,
2013-06-07 11:00:00,97.7,33.2,29.21,South,189,9.6,11.5,10,-99.99,,,0.00,907,rob ver 1A,2013-06-07 18:00:00,
2013-06-07 11:01:00,95.8,43.5,29.26,SSE,161,5.5,7.6,16,-99.99,,,0.00,907,rob ver 1B,2013-06-07 18:01:00,
2013-06-07 11:02:00,95.8,43.7,29.26,South,183,5.6,7.3,16,-99.99,,,0.00,910,rob ver 1B,2013-06-07 18:02:00,
2013-06-07 11:03:00,96.1,43.7,29.26,South,183,2.7,5.7,16,-99.99,,,0.00,911,rob ver 1B,2013-06-07 18:03:00,
2013-06-07 11:04:00,96.4,43.8,29.26,South,179,3.4,4.7,16,-99.99,,,0.00,912,rob ver 1B,2013-06-07 18:04:00,
2013-06-07 11:05:00,96.6,43.9,29.26,SW,223,1.8,3.2,16,-99.99,,,0.00,914,rob ver 1B,2013-06-07 18:05:00,
2013-06-07 11:06:00,97.2,43.6,29.26,South,184,3.6,5.3,15,-99.99,,,0.00,915,rob ver 1B,2013-06-07 18:06:00,
2013-06-07 11:07:00,98.5,34.5,29.21,South,191,10.9,14.7,10,-99.99,,,0.00,919,rob ver 1A,2013-06-07 18:07:00,
2013-06-07 11:08:00,96.7,42.8,29.26,SE,145,5.8,8.7,15,-99.99,,,0.00,916,rob ver 1B,2013-06-07 18:08:00,
2013-06-07 11:09:00,96.4,42.5,29.26,SSW,198,7.1,10.0,15,-99.99,,,0.00,917,rob ver 1B,2013-06-07 18:09:00,
2013-06-07 11:10:00,96.1,42.4,29.26,South,188,5.9,9.2,15,-99.99,,,0.00,919,rob ver 1B,2013-06-07 18:10:00,
2013-06-07 11:11:00,96.0,42.8,29.26,SSW,195,3.2,4.9,16,-99.99,,,0.00,920,rob ver 1B,2013-06-07 18:11:00,
2013-06-07 11:12:00,96.1,43.0,29.26,SSW,205,3.9,7.9,16,-99.99,,,0.00,921,rob ver 1B,2013-06-07 18:12:00,
2013-06-07 11:13:00,98.7,35.5,29.21,SSW,213,9.7,12.0,11,-99.99,,,0.00,925,rob ver 1A,2013-06-07 18:13:00,
2013-06-07 11:14:00,96.4,43.0,29.26,South,187,8.6,11.7,15,-99.99,,,0.00,927,rob ver 1B,2013-06-07 18:14:00,
2013-06-07 11:15:00,96.5,42.8,29.26,SSW,203,6.6,10.0,15,-99.99,,,0.00,928,rob ver 1B,2013-06-07 18:15:00,
2013-06-07 11:16:00,96.6,42.7,29.26,SSW,193,5.4,8.9,15,-99.99,,,0.00,929,rob ver 1B,2013-06-07 18:16:00,
2013-06-07 11:17:00,96.9,42.7,29.26,South,186,6.3,8.9,15,-99.99,,,0.00,931,rob ver 1B,2013-06-07 18:17:00,
2013-06-07 11:18:00,97.1,42.4,29.26,SSE,168,7.9,10.9,15,-99.99,,,0.00,933,rob ver 1B,2013-06-07 18:18:00,
2013-06-07 11:19:00,99.4,35.4,29.21,SW,214,11.1,13.5,10,-99.99,,,0.00,935,rob ver 1A,2013-06-07 18:19:00,
2013-06-07 11:20:00,96.5,41.8,29.26,South,177,3.1,4.9,15,-99.99,,,0.00,935,rob ver 1B,2013-06-07 18:20:00,
2013-06-07 11:21:00,96.7,41.9,29.26,South,179,6.9,9.0,15,-99.99,,,0.00,938,rob ver 1B,2013-06-07 18:21:00,
2013-06-07 11:22:00,96.9,41.6,29.26,SSW,196,7.1,10.3,14,-99.99,,,0.00,938,rob ver 1B,2013-06-07 18:22:00,
2013-06-07 11:23:00,97.2,41.2,29.26,South,171,8.8,12.3,14,-99.99,,,0.00,940,rob ver 1B,2013-06-07 18:23:00,
2013-06-07 11:24:00,99.1,35.3,29.21,South,183,10.8,15.2,10,-99.99,,,0.00,941,rob ver 1A,2013-06-07 18:24:00,
2013-06-07 11:25:00,97.4,40.4,29.26,South,181,10.8,13.3,13,-99.99,,,0.00,943,rob ver 1B,2013-06-07 18:25:00,
2013-06-07 11:26:00,97.1,40.1,29.26,SSE,165,9.5,12.2,14,-99.99,,,0.00,945,rob ver 1B,2013-06-07 18:26:00,
2013-06-07 11:27:00,96.6,41.0,29.26,SSW,192,4.0,5.9,14,-99.99,,,0.00,947,rob ver 1B,2013-06-07 18:27:00,
2013-06-07 11:28:00,96.9,40.7,29.26,South,175,7.1,13.1,14,-99.99,,,0.00,946,rob ver 1B,2013-06-07 18:28:00,
2013-06-07 11:29:00,96.8,40.5,29.26,SSE,149,8.4,11.7,14,-99.99,,,0.00,946,rob ver 1B,2013-06-07 18:29:00,
2013-06-07 11:30:00,96.5,41.2,29.26,SE,141,4.1,7.0,15,-99.99,,,0.00,948,rob ver 1B,2013-06-07 18:30:00,
2013-06-07 11:31:00,96.6,41.3,29.26,SSE,160,5.5,7.7,14,-99.99,,,0.00,949,rob ver 1B,2013-06-07 18:31:00,
2013-06-07 11:32:00,97.0,41.1,29.26,SSE,147,7.5,11.2,14,-99.99,,,0.00,951,rob ver 1B,2013-06-07 18:32:00,
2013-06-07 11:33:00,99.9,34.6,29.21,South,181,11.2,15.8,10,-99.99,,,0.00,952,rob ver 1A,2013-06-07 18:33:00,
2013-06-07 11:34:00,96.7,41.3,29.26,SSE,148,7.3,10.3,15,-99.99,,,0.00,952,rob ver 1B,2013-06-07 18:34:00,
2013-06-07 11:35:00,96.5,41.6,29.26,SE,136,6.5,9.9,15,-99.99,,,0.00,955,rob ver 1B,2013-06-07 18:35:00,
2013-06-07 11:36:00,96.9,41.9,29.26,SE,144,7.4,9.2,15,-99.99,,,0.00,954,rob ver 1B,2013-06-07 18:36:00,
2013-06-07 11:37:00,97.3,41.9,29.26,SE,142,8.3,11.1,14,-99.99,,,0.00,954,rob ver 1B,2013-06-07 18:37:00,
2013-06-07 11:38:00,97.5,42.0,29.26,SSE,148,7.5,11.5,14,-99.99,,,0.00,954,rob ver 1B,2013-06-07 18:38:00,
2013-06-07 11:39:00,98.5,41.8,29.26,SSE,164,8.7,11.3,14,-99.99,,,0.00,957,rob ver 1B,2013-06-07 18:39:00,
2013-06-07 11:40:00,100.5,35.1,29.21,SSW,199,10.7,14.1,10,-99.99,,,0.00,958,rob ver 1A,2013-06-07 18:40:00,
2013-06-07 11:41:00,98.6,41.4,29.26,SE,140,7.5,11.0,14,-99.99,,,0.00,962,rob ver 1B,2013-06-07 18:41:00,
2013-06-07 11:42:00,98.8,41.5,29.26,SE,142,6.0,8.6,13,-99.99,,,0.00,961,rob ver 1B,2013-06-07 18:42:00,
2013-06-07 11:43:00,98.9,41.2,29.26,SE,127,4.4,6.0,13,-99.99,,,0.00,960,rob ver 1B,2013-06-07 18:43:00,
2013-06-07 11:44:00,98.6,41.4,29.26,SSE,150,7.1,8.9,14,-99.99,,,0.00,961,rob ver 1B,2013-06-07 18:44:00,
2013-06-07 11:45:00,100.3,34.9,29.21,SSW,209,6.5,10.0,10,-99.99,,,0.00,964,rob ver 1A,2013-06-07 18:45:00,
2013-06-07 11:46:00,98.4,41.5,29.26,South,181,8.7,11.7,14,-99.99,,,0.00,965,rob ver 1B,2013-06-07 18:46:00,
2013-06-07 11:47:00,98.5,41.3,29.26,South,187,8.8,12.2,14,-99.99,,,0.00,964,rob ver 1B,2013-06-07 18:47:00,
2013-06-07 11:48:00,98.4,41.9,29.26,South,171,5.7,8.0,14,-99.99,,,0.00,965,rob ver 1B,2013-06-07 18:48:00,
2013-06-07 11:49:00,98.3,42.5,29.26,SSE,165,5.3,7.4,15,-99.99,,,0.00,966,rob ver 1B,2013-06-07 18:49:00,
2013-06-07 11:50:00,98.7,42.6,29.26,SSW,203,8.7,13.4,14,-99.99,,,0.00,968,rob ver 1B,2013-06-07 18:50:00,
2013-06-07 11:51:00,99.8,34.2,29.21,South,180,8.7,14.0,10,-99.99,,,0.00,969,rob ver 1A,2013-06-07 18:51:00,
2013-06-07 11:52:00,99.5,42.0,29.26,SSW,206,9.5,13.9,14,-99.99,,,0.00,965,rob ver 1B,2013-06-07 18:52:00,
2013-06-07 11:53:00,99.1,42.0,29.26,SW,222,5.9,9.9,14,-99.99,,,0.00,967,rob ver 1B,2013-06-07 18:53:00,
2013-06-07 11:54:00,98.9,42.5,29.26,SSW,211,7.3,10.2,14,-99.99,,,0.00,965,rob ver 1B,2013-06-07 18:54:00,
2013-06-07 11:55:00,98.7,42.3,29.26,SSW,208,8.3,12.3,14,-99.99,,,0.00,970,rob ver 1B,2013-06-07 18:55:00,
2013-06-07 11:56:00,100.1,34.3,29.21,South,189,8.4,11.4,10,-99.99,,,0.00,974,rob ver 1A,2013-06-07 18:56:00,
2013-06-07 11:57:00,98.5,43.0,29.26,SSW,205,8.9,11.7,15,-99.99,,,0.00,975,rob ver 1B,2013-06-07 18:57:00,
2013-06-07 11:58:00,98.5,43.4,29.26,SW,226,9.2,10.8,15,-99.99,,,0.00,972,rob ver 1B,2013-06-07 18:58:00,
2013-06-07 11:59:00,98.4,43.1,29.26,SSW,196,9.1,11.3,14,-99.99,,,0.00,972,rob ver 1B,2013-06-07 18:59:00,
2013-06-07 12:00:00,98.4,42.7,29.26,SW,219,7.2,9.0,14,-99.99,,,0.00,974,rob ver 1B,2013-06-07 19:00:00,
2013-06-07 12:01:00,98.2,43.1,29.26,WSW,245,6.9,12.7,15,-99.99,,,0.00,973,rob ver 1B,2013-06-07 19:01:00,
2013-06-07 12:02:00,99.8,34.1,29.21,SSW,211,7.5,11.0,10,-99.99,,,0.00,977,rob ver 1A,2013-06-07 19:02:00,
2013-06-07 12:03:00,97.8,43.4,29.23,WSW,253,11.2,15.3,15,-99.99,,,0.00,975,rob ver 1B,2013-06-07 19:03:00,
2013-06-07 12:04:00,97.8,43.5,29.26,WSW,257,6.3,10.1,15,-99.99,,,0.00,975,rob ver 1B,2013-06-07 19:04:00,
2013-06-07 12:05:00,98.1,44.3,29.26,SSW,201,7.6,12.0,16,-99.99,,,0.00,973,rob ver 1B,2013-06-07 19:05:00,
2013-06-07 12:06:00,98.9,45.0,29.26,SSE,161,8.6,14.5,15,-99.99,,,0.00,975,rob ver 1B,2013-06-07 19:06:00,
2013-06-07 12:07:00,100.6,34.2,29.21,SSW,210,9.4,16.1,9,-99.99,,,0.00,981,rob ver 1A,2013-06-07 19:07:00,
2013-06-07 12:08:00,100.0,45.2,29.26,SSW,197,9.7,12.5,15,-99.99,,,0.00,962,rob ver 1B,2013-06-07 19:08:00,
2013-06-07 12:09:00,99.6,45.1,29.26,SSE,156,5.4,7.5,15,-99.99,,,0.00,973,rob ver 1B,2013-06-07 19:09:00,
2013-06-07 12:10:00,99.1,45.1,29.26,South,177,4.0,6.2,15,-99.99,,,0.00,974,rob ver 1B,2013-06-07 19:10:00,
2013-06-07 12:11:00,99.4,45.3,29.23,SSW,195,9.8,14.1,16,-99.99,,,0.00,972,rob ver 1B,2013-06-07 19:11:00,
2013-06-07 12:12:00,99.0,45.6,29.26,SSW,203,5.8,9.9,16,-99.99,,,0.00,965,rob ver 1B,2013-06-07 19:12:00,
2013-06-07 12:13:00,101.2,34.2,29.21,SSW,202,11.7,14.8,9,-99.99,,,0.00,984,rob ver 1A,2013-06-07 19:13:00,
2013-06-07 12:14:00,98.9,45.7,29.23,SSW,212,8.8,10.8,16,-99.99,,,0.00,966,rob ver 1B,2013-06-07 19:14:00,
2013-06-07 12:15:00,99.1,45.8,29.23,SW,217,10.4,15.0,16,-99.99,,,0.00,956,rob ver 1B,2013-06-07 19:15:00,
2013-06-07 12:16:00,99.7,45.5,29.23,SSW,193,13.7,17.8,15,-99.99,,,0.00,972,rob ver 1B,2013-06-07 19:16:00,
2013-06-07 12:17:00,100.2,45.1,29.23,SSW,192,11.6,14.8,15,-99.99,,,0.00,978,rob ver 1B,2013-06-07 19:17:00,
2013-06-07 12:18:00,100.3,44.9,29.23,SSW,203,11.8,14.4,15,-99.99,,,0.00,971,rob ver 1B,2013-06-07 19:18:00,
2013-06-07 12:19:00,100.4,44.9,29.23,South,183,13.1,21.4,15,-99.99,,,0.00,975,rob ver 1B,2013-06-07 19:19:00,
2013-06-07 12:20:00,102.0,34.8,29.21,South,189,6.7,8.8,9,-99.99,,,0.00,988,rob ver 1A,2013-06-07 19:20:00,
2013-06-07 12:21:00,100.0,44.8,29.26,SSW,192,6.0,8.0,15,-99.99,,,0.00,980,rob ver 1B,2013-06-07 19:21:00,
2013-06-07 12:22:00,100.2,45.0,29.23,South,177,4.6,7.6,15,-99.99,,,0.00,979,rob ver 1B,2013-06-07 19:22:00,
2013-06-07 12:23:00,100.5,44.2,29.23,South,172,11.1,19.7,14,-99.99,,,0.00,985,rob ver 1B,2013-06-07 19:23:00,
2013-06-07 12:24:00,100.6,44.0,29.23,South,189,15.0,20.8,14,-99.99,,,0.00,987,rob ver 1B,2013-06-07 19:24:00,
2013-06-07 12:25:00,102.2,34.4,29.21,SSW,212,6.3,9.7,9,-99.99,,,0.00,987,rob ver 1A,2013-06-07 19:25:00,
2013-06-07 12:26:00,100.1,41.5,29.23,South,169,12.7,19.6,12,-99.99,,,0.00,989,rob ver 1B,2013-06-07 19:26:00,
2013-06-07 12:27:00,101.4,40.5,29.23,SSE,156,15.5,19.1,12,-99.99,,,0.00,987,rob ver 1B,2013-06-07 19:27:00,
2013-06-07 12:28:00,101.2,40.0,29.26,SSE,162,12.1,15.5,12,-99.99,,,0.00,988,rob ver 1B,2013-06-07 19:28:00,
2013-06-07 12:29:00,100.7,40.2,29.26,SSE,154,7.2,10.6,12,-99.99,,,0.00,976,rob ver 1B,2013-06-07 19:29:00,
2013-06-07 12:30:00,100.3,42.1,29.26,SSE,159,9.9,16.3,15,-99.99,,,0.00,986,rob ver 1B,2013-06-07 19:30:00,
2013-06-07 12:31:00,101.6,33.7,29.21,South,175,7.9,10.0,9,-99.99,,,0.00,988,rob ver 1A,2013-06-07 19:31:00,
2013-06-07 12:32:00,100.8,44.5,29.23,South,172,16.4,23.3,14,-99.99,,,0.00,985,rob ver 1B,2013-06-07 19:32:00,
2013-06-07 12:33:00,100.3,44.0,29.23,SSE,158,8.3,15.3,15,-99.99,,,0.00,982,rob ver 1B,2013-06-07 19:33:00,
2013-06-07 12:34:00,99.7,44.6,29.23,South,183,6.9,13.9,15,-99.99,,,0.00,988,rob ver 1B,2013-06-07 19:34:00,
2013-06-07 12:35:00,100.2,44.7,29.23,SSW,205,13.4,16.4,15,-99.99,,,0.00,977,rob ver 1B,2013-06-07 19:35:00,
2013-06-07 12:36:00,102.0,34.1,29.21,SSW,195,8.1,14.0,9,-99.99,,,0.00,989,rob ver 1A,2013-06-07 19:36:00,
2013-06-07 12:37:00,100.4,40.5,29.23,SSE,165,14.6,18.7,12,-99.99,,,0.00,988,rob ver 1B,2013-06-07 19:37:00,
2013-06-07 12:38:00,100.6,38.9,29.23,SSE,152,13.9,16.9,12,-99.99,,,0.00,983,rob ver 1B,2013-06-07 19:38:00,
2013-06-07 12:39:00,101.0,39.8,29.23,SE,141,13.1,16.3,12,-99.99,,,0.00,983,rob ver 1B,2013-06-07 19:39:00,
2013-06-07 12:40:00,100.9,40.5,29.23,SE,140,8.0,11.4,12,-99.99,,,0.00,971,rob ver 1B,2013-06-07 19:40:00,
2013-06-07 12:41:00,102.5,33.7,29.18,South,176,10.2,14.0,9,-99.99,,,0.00,991,rob ver 1A,2013-06-07 19:41:00,
2013-06-07 12:42:00,100.5,41.3,29.23,SE,125,8.0,9.5,13,-99.99,,,0.00,967,rob ver 1B,2013-06-07 19:42:00,
2013-06-07 12:43:00,100.3,41.5,29.23,SSE,159,6.6,11.5,14,-99.99,,,0.00,976,rob ver 1B,2013-06-07 19:43:00,
2013-06-07 12:44:00,101.4,41.5,29.23,SE,131,12.1,17.5,12,-99.99,,,0.00,987,rob ver 1B,2013-06-07 19:44:00,
2013-06-07 12:45:00,101.3,40.6,29.23,SE,145,11.8,16.0,12,-99.99,,,0.00,977,rob ver 1B,2013-06-07 19:45:00,
2013-06-07 12:46:00,103.1,33.7,29.18,South,188,11.4,14.0,9,-99.99,,,0.00,989,rob ver 1A,2013-06-07 19:46:00,
2013-06-07 12:47:00,100.7,41.3,29.23,SSE,156,9.5,13.1,13,-99.99,,,0.00,979,rob ver 1B,2013-06-07 19:47:00,
2013-06-07 12:48:00,100.4,41.6,29.23,SSE,155,8.7,10.1,13,-99.99,,,0.00,975,rob ver 1B,2013-06-07 19:48:00,
2013-06-07 12:49:00,100.6,42.5,29.23,South,180,13.9,16.7,13,-99.99,,,0.00,969,rob ver 1B,2013-06-07 19:49:00,
2013-06-07 12:50:00,100.9,42.7,29.23,South,175,10.8,12.8,13,-99.99,,,0.00,974,rob ver 1B,2013-06-07 19:50:00,
2013-06-07 12:51:00,102.1,43.2,29.23,South,176,15.0,19.0,13,-99.99,,,0.00,972,rob ver 1B,2013-06-07 19:51:00,
2013-06-07 12:52:00,102.6,33.2,29.18,South,180,10.5,14.0,9,-99.99,,,0.00,989,rob ver 1A,2013-06-07 19:52:00,
2013-06-07 12:53:00,101.9,43.1,29.23,South,187,13.2,15.8,13,-99.99,,,0.00,960,rob ver 1B,2013-06-07 19:53:00,
2013-06-07 12:54:00,101.5,43.2,29.23,South,184,12.2,17.4,14,-99.99,,,0.00,963,rob ver 1B,2013-06-07 19:54:00,
2013-06-07 12:55:00,101.4,43.4,29.23,South,186,15.2,18.8,14,-99.99,,,0.00,962,rob ver 1B,2013-06-07 19:55:00,
2013-06-07 12:56:00,101.4,43.6,29.23,South,179,10.8,15.6,14,-99.99,,,0.00,977,rob ver 1B,2013-06-07 19:56:00,
2013-06-07 12:57:00,101.7,42.2,29.23,SSE,155,11.2,15.1,13,-99.99,,,0.00,975,rob ver 1B,2013-06-07 19:57:00,
2013-06-07 12:58:00,101.9,43.4,29.23,South,175,13.8,16.5,13,-99.99,,,0.00,957,rob ver 1B,2013-06-07 19:58:00,
2013-06-07 12:59:00,101.8,43.4,29.23,South,180,11.8,15.6,13,-99.99,,,0.00,961,rob ver 1B,2013-06-07 19:59:00,
2013-06-07 13:00:00,102.4,42.6,29.23,SSE,166,10.5,16.9,11,-99.99,,,0.00,980,rob ver 1B,2013-06-07 20:00:00,
2013-06-07 13:01:00,102.1,39.9,29.23,SE,141,10.6,14.7,12,-99.99,,,0.00,960,rob ver 1B,2013-06-07 20:01:00,
2013-06-07 13:02:00,101.5,41.3,29.23,SSE,155,9.5,12.3,13,-99.99,,,0.00,960,rob ver 1B,2013-06-07 20:02:00,
2013-06-07 13:03:00,102.1,42.8,29.23,South,187,12.6,16.9,13,-99.99,,,0.00,953,rob ver 1B,2013-06-07 20:03:00,
2013-06-07 13:04:00,102.4,42.2,29.23,South,173,16.0,20.8,12,-99.99,,,0.00,951,rob ver 1B,2013-06-07 20:04:00,
2013-06-07 13:05:00,102.1,42.4,29.23,South,179,15.7,20.2,13,-99.99,,,0.00,968,rob ver 1B,2013-06-07 20:05:00,
2013-06-07 13:06:00,102.8,42.9,29.23,South,187,17.5,21.9,13,-99.99,,,0.00,975,rob ver 1B,2013-06-07 20:06:00,
2013-06-07 13:07:00,103.1,43.1,29.23,South,176,16.0,19.9,13,-99.99,,,0.00,982,rob ver 1B,2013-06-07 20:07:00,
2013-06-07 13:08:00,102.6,42.8,29.23,South,178,16.7,21.4,13,-99.99,,,0.00,971,rob ver 1B,2013-06-07 20:08:00,
2013-06-07 13:09:00,101.9,42.5,29.23,South,173,9.6,14.2,13,-99.99,,,0.00,970,rob ver 1B,2013-06-07 20:09:00,
2013-06-07 13:10:00,102.0,42.0,29.23,SSW,207,14.7,19.7,12,-99.99,,,0.00,966,rob ver 1B,2013-06-07 20:10:00,
2013-06-07 13:11:00,102.3,41.5,29.23,SSW,201,16.9,21.7,12,-99.99,,,0.00,968,rob ver 1B,2013-06-07 20:11:00,
2013-06-07 13:12:00,102.3,41.1,29.23,South,191,13.2,16.0,12,-99.99,,,0.00,961,rob ver 1B,2013-06-07 20:12:00,
2013-06-07 13:13:00,102.8,41.4,29.23,South,173,13.9,19.3,12,-99.99,,,0.00,965,rob ver 1B,2013-06-07 20:13:00,
2013-06-07 13:14:00,103.2,40.6,29.23,South,171,18.4,23.8,11,-99.99,,,0.00,965,rob ver 1B,2013-06-07 20:14:00,
2013-06-07 13:15:00,102.7,40.2,29.23,South,179,16.5,20.8,11,-99.99,,,0.00,966,rob ver 1B,2013-06-07 20:15:00,
2013-06-07 13:16:00,102.2,40.7,29.23,South,180,18.1,21.3,13,-99.99,,,0.00,960,rob ver 1B,2013-06-07 20:16:00,
2013-06-07 13:17:00,102.1,42.3,29.23,South,191,16.9,21.0,13,-99.99,,,0.00,968,rob ver 1B,2013-06-07 20:17:00,
2013-06-07 13:18:00,104.0,33.3,29.18,SSW,194,12.1,14.2,8,-99.99,,,0.00,980,rob ver 1A,2013-06-07 20:18:00,
2013-06-07 13:19:00,101.8,41.9,29.23,SSW,195,14.7,18.5,12,-99.99,,,0.00,966,rob ver 1B,2013-06-07 20:19:00,
2013-06-07 13:20:00,102.0,41.1,29.23,SSW,198,12.8,20.8,12,-99.99,,,0.00,962,rob ver 1B,2013-06-07 20:20:00,
2013-06-07 13:21:00,102.4,40.8,29.23,South,180,14.8,22.8,12,-99.99,,,0.00,968,rob ver 1B,2013-06-07 20:21:00,
2013-06-07 13:22:00,103.0,41.6,29.23,South,175,15.3,21.8,12,-99.99,,,0.00,968,rob ver 1B,2013-06-07 20:22:00,
2013-06-07 13:23:00,104.0,33.8,29.18,South,182,11.3,13.3,8,-99.99,,,0.00,973,rob ver 1A,2013-06-07 20:23:00,
2013-06-07 13:24:00,103.3,42.1,29.23,SSW,194,18.9,22.6,12,-99.99,,,0.00,971,rob ver 1B,2013-06-07 20:24:00,
2013-06-07 13:25:00,102.5,41.5,29.23,South,189,16.7,20.9,12,-99.99,,,0.00,970,rob ver 1B,2013-06-07 20:25:00,
2013-06-07 13:26:00,102.3,41.1,29.23,South,189,15.9,21.6,12,-99.99,,,0.00,972,rob ver 1B,2013-06-07 20:26:00,
2013-06-07 13:27:00,102.7,41.1,29.23,South,172,18.1,24.4,12,-99.99,,,0.00,968,rob ver 1B,2013-06-07 20:27:00,
2013-06-07 13:28:00,102.5,40.9,29.23,South,182,12.1,15.9,12,-99.99,,,0.00,965,rob ver 1B,2013-06-07 20:28:00,
2013-06-07 13:29:00,104.3,34.2,29.18,South,178,10.6,13.9,8,-99.99,,,0.00,970,rob ver 1A,2013-06-07 20:29:00,
2013-06-07 13:30:00,103.3,40.4,29.23,South,185,14.9,22.3,11,-99.99,,,0.00,965,rob ver 1B,2013-06-07 20:30:00,
2013-06-07 13:31:00,103.3,41.1,29.23,South,177,15.8,18.3,12,-99.99,,,0.00,966,rob ver 1B,2013-06-07 20:31:00,
2013-06-07 13:32:00,103.3,41.8,29.23,South,172,17.5,22.3,12,-99.99,,,0.00,963,rob ver 1B,2013-06-07 20:32:00,
2013-06-07 13:33:00,102.5,41.4,29.23,South,183,15.7,23.4,12,-99.99,,,0.00,961,rob ver 1B,2013-06-07 20:33:00,
2013-06-07 13:34:00,103.1,41.2,29.23,South,172,15.5,21.4,12,-99.99,,,0.00,958,rob ver 1B,2013-06-07 20:34:00,
2013-06-07 13:35:00,102.8,40.8,29.23,SSW,194,16.3,21.7,12,-99.99,,,0.00,955,rob ver 1B,2013-06-07 20:35:00,
2013-06-07 13:36:00,104.5,34.9,29.18,SSW,204,13.6,16.3,9,-99.99,,,0.00,964,rob ver 1A,2013-06-07 20:36:00,
2013-06-07 13:37:00,102.7,40.7,29.23,South,179,16.4,23.7,12,-99.99,,,0.00,962,rob ver 1B,2013-06-07 20:37:00,
2013-06-07 13:38:00,102.5,40.6,29.23,SSE,167,17.9,21.5,12,-99.99,,,0.00,964,rob ver 1B,2013-06-07 20:38:00,
2013-06-07 13:39:00,102.1,41.3,29.23,South,182,13.7,18.7,12,-99.99,,,0.00,952,rob ver 1B,2013-06-07 20:39:00,
2013-06-07 13:40:00,102.2,42.0,29.23,South,186,13.2,18.7,13,-99.99,,,0.00,945,rob ver 1B,2013-06-07 20:40:00,
2013-06-07 13:41:00,104.7,34.5,29.18,South,185,10.9,15.9,9,-99.99,,,0.00,958,rob ver 1A,2013-06-07 20:41:00,
2013-06-07 13:42:00,102.5,41.5,29.23,South,172,17.7,22.2,12,-99.99,,,0.00,959,rob ver 1B,2013-06-07 20:42:00,
2013-06-07 13:43:00,102.7,40.8,29.23,South,178,17.2,21.3,11,-99.99,,,0.00,959,rob ver 1B,2013-06-07 20:43:00,
2013-06-07 13:44:00,102.2,40.0,29.23,South,175,12.5,17.0,12,-99.99,,,0.00,959,rob ver 1B,2013-06-07 20:44:00,
2013-06-07 13:45:00,102.3,40.7,29.23,South,170,14.9,24.1,12,-99.99,,,0.00,955,rob ver 1B,2013-06-07 20:45:00,
2013-06-07 13:46:00,102.5,40.9,29.23,South,172,16.3,21.2,12,-99.99,,,0.00,965,rob ver 1B,2013-06-07 20:46:00,
2013-06-07 13:47:00,105.0,35.2,29.18,South,183,10.3,13.4,9,-99.99,,,0.00,952,rob ver 1A,2013-06-07 20:47:00,
2013-06-07 13:48:00,102.0,41.8,29.23,SSE,158,15.8,20.2,12,-99.99,,,0.00,950,rob ver 1B,2013-06-07 20:48:00,
2013-06-07 13:49:00,101.6,40.9,29.23,South,176,17.0,21.1,12,-99.99,,,0.00,955,rob ver 1B,2013-06-07 20:49:00,
2013-06-07 13:50:00,101.7,40.7,29.23,SSW,193,15.9,19.5,12,-99.99,,,0.00,955,rob ver 1B,2013-06-07 20:50:00,
2013-06-07 13:51:00,101.7,41.1,29.23,South,187,13.4,16.0,12,-99.99,,,0.00,961,rob ver 1B,2013-06-07 20:51:00,
2013-06-07 13:52:00,105.6,34.4,29.18,South,188,9.5,11.7,8,-99.99,,,0.00,945,rob ver 1A,2013-06-07 20:52:00,
2013-06-07 13:53:00,102.6,42.4,29.23,South,172,15.3,19.8,13,-99.99,,,0.00,960,rob ver 1B,2013-06-07 20:53:00,
2013-06-07 13:54:00,103.2,43.2,29.23,South,177,13.9,19.9,13,-99.99,,,0.00,923,rob ver 1B,2013-06-07 20:54:00,
2013-06-07 13:55:00,103.4,42.9,29.23,South,187,12.5,17.4,12,-99.99,,,0.00,930,rob ver 1B,2013-06-07 20:55:00,
2013-06-07 13:56:00,103.5,42.4,29.23,South,183,17.2,22.2,12,-99.99,,,0.00,951,rob ver 1B,2013-06-07 20:56:00,
2013-06-07 13:57:00,106.4,35.6,29.18,SSW,212,10.6,13.8,8,-99.99,,,0.00,943,rob ver 1A,2013-06-07 20:57:00,
2013-06-07 13:58:00,102.5,40.9,29.23,South,187,17.0,20.8,12,-99.99,,,0.00,945,rob ver 1B,2013-06-07 20:58:00,
2013-06-07 13:59:00,102.4,41.2,29.23,South,190,17.6,22.5,13,-99.99,,,0.00,941,rob ver 1B,2013-06-07 20:59:00,
2013-06-07 14:00:00,102.1,42.2,29.23,South,191,13.0,15.4,13,-99.99,,,0.00,938,rob ver 1B,2013-06-07 21:00:00,
2013-06-07 14:01:00,102.8,41.3,29.23,SSW,192,17.1,20.4,11,-99.99,,,0.00,947,rob ver 1B,2013-06-07 21:01:00,
2013-06-07 14:02:00,103.1,40.0,29.23,South,190,15.1,19.6,11,-99.99,,,0.00,944,rob ver 1B,2013-06-07 21:02:00,
2013-06-07 14:03:00,105.9,34.8,29.18,South,178,10.1,15.0,8,-99.99,,,0.00,933,rob ver 1A,2013-06-07 21:03:00,
2013-06-07 14:04:00,103.0,41.2,29.23,South,189,12.0,17.0,12,-99.99,,,0.00,920,rob ver 1B,2013-06-07 21:04:00,
2013-06-07 14:05:00,102.4,41.0,29.23,South,189,9.5,14.6,12,-99.99,,,0.00,927,rob ver 1B,2013-06-07 21:05:00,
2013-06-07 14:06:00,102.4,41.6,29.23,SSW,196,15.9,20.4,12,-99.99,,,0.00,939,rob ver 1B,2013-06-07 21:06:00,
2013-06-07 14:07:00,102.4,41.8,29.23,South,190,16.5,20.6,13,-99.99,,,0.00,920,rob ver 1B,2013-06-07 21:07:00,
2013-06-07 14:08:00,102.3,41.7,29.23,South,182,16.9,21.4,12,-99.99,,,0.00,925,rob ver 1B,2013-06-07 21:08:00,
2013-06-07 14:09:00,102.4,41.0,29.23,South,177,18.4,24.5,12,-99.99,,,0.00,920,rob ver 1B,2013-06-07 21:09:00,
2013-06-07 14:10:00,105.8,34.6,29.15,SSW,203,13.6,16.8,8,-99.99,,,0.00,927,rob ver 1A,2013-06-07 21:10:00,
2013-06-07 14:11:00,102.5,40.4,29.23,South,181,16.0,18.6,11,-99.99,,,0.00,934,rob ver 1B,2013-06-07 21:11:00,
2013-06-07 14:12:00,102.8,39.9,29.23,SSW,192,13.2,15.8,11,-99.99,,,0.00,924,rob ver 1B,2013-06-07 21:12:00,
2013-06-07 14:13:00,103.1,40.0,29.23,South,187,13.5,17.4,11,-99.99,,,0.00,921,rob ver 1B,2013-06-07 21:13:00,
2013-06-07 14:14:00,103.5,39.6,29.23,South,177,17.6,22.2,11,-99.99,,,0.00,921,rob ver 1B,2013-06-07 21:14:00,
2013-06-07 14:15:00,106.0,33.9,29.15,SSW,201,11.0,14.4,8,-99.99,,,0.00,917,rob ver 1A,2013-06-07 21:15:00,
2013-06-07 14:16:00,102.8,41.1,29.23,South,174,14.1,19.9,12,-99.99,,,0.00,914,rob ver 1B,2013-06-07 21:16:00,
2013-06-07 14:17:00,103.0,40.2,29.23,SSW,197,15.7,21.4,11,-99.99,,,0.00,917,rob ver 1B,2013-06-07 21:17:00,
2013-06-07 14:18:00,103.2,39.0,29.23,SSE,164,17.4,21.5,11,-99.99,,,0.00,920,rob ver 1B,2013-06-07 21:18:00,
2013-06-07 14:19:00,102.8,38.4,29.23,South,185,16.1,20.7,10,-99.99,,,0.00,914,rob ver 1B,2013-06-07 21:19:00,
2013-06-07 14:20:00,102.8,37.7,29.23,South,191,15.6,18.7,10,-99.99,,,0.00,915,rob ver 1B,2013-06-07 21:20:00,
2013-06-07 14:21:00,106.4,34.1,29.15,SSW,203,14.7,18.5,8,-99.99,,,0.00,910,rob ver 1A,2013-06-07 21:21:00,
2013-06-07 14:22:00,103.0,41.0,29.23,South,189,13.8,17.6,12,-99.99,,,0.00,900,rob ver 1B,2013-06-07 21:22:00,
2013-06-07 14:23:00,102.7,41.4,29.23,South,191,12.9,19.1,12,-99.99,,,0.00,907,rob ver 1B,2013-06-07 21:23:00,
2013-06-07 14:24:00,103.6,41.7,29.23,South,189,18.3,20.9,12,-99.99,,,0.00,913,rob ver 1B,2013-06-07 21:24:00,
2013-06-07 14:25:00,103.2,41.2,29.23,South,188,18.3,23.8,12,-99.99,,,0.00,906,rob ver 1B,2013-06-07 21:25:00,
2013-06-07 14:26:00,106.5,34.1,29.15,SSW,205,9.1,13.4,8,-99.99,,,0.00,897,rob ver 1A,2013-06-07 21:26:00,
2013-06-07 14:27:00,102.0,40.7,29.23,South,180,10.7,13.4,12,-99.99,,,0.00,891,rob ver 1B,2013-06-07 21:27:00,
2013-06-07 14:28:00,102.4,41.4,29.23,South,172,12.9,17.4,11,-99.99,,,0.00,890,rob ver 1B,2013-06-07 21:28:00,
2013-06-07 14:29:00,102.7,40.0,29.23,SSE,161,15.5,18.3,11,-99.99,,,0.00,893,rob ver 1B,2013-06-07 21:29:00,
2013-06-07 14:30:00,102.8,40.5,29.23,South,173,16.2,20.0,12,-99.99,,,0.00,894,rob ver 1B,2013-06-07 21:30:00,
2013-06-07 14:31:00,103.0,41.3,29.23,South,174,15.5,18.8,12,-99.99,,,0.00,893,rob ver 1B,2013-06-07 21:31:00,
2013-06-07 14:32:00,103.4,41.1,29.23,South,175,15.7,19.3,11,-99.99,,,0.00,890,rob ver 1B,2013-06-07 21:32:00,
2013-06-07 14:33:00,103.6,40.4,29.21,South,186,17.6,21.2,11,-99.99,,,0.00,893,rob ver 1B,2013-06-07 21:33:00,
2013-06-07 14:34:00,103.5,40.5,29.23,South,187,16.8,24.6,11,-99.99,,,0.00,889,rob ver 1B,2013-06-07 21:34:00,
2013-06-07 14:35:00,106.9,33.4,29.15,SSW,198,11.3,15.6,8,-99.99,,,0.00,884,rob ver 1A,2013-06-07 21:35:00,
2013-06-07 14:36:00,102.6,40.4,29.23,South,190,15.0,21.8,12,-99.99,,,0.00,886,rob ver 1B,2013-06-07 21:36:00,
2013-06-07 14:37:00,102.5,41.2,29.23,South,179,12.6,19.4,12,-99.99,,,0.00,874,rob ver 1B,2013-06-07 21:37:00,
2013-06-07 14:38:00,103.1,40.7,29.23,South,189,15.2,18.9,11,-99.99,,,0.00,881,rob ver 1B,2013-06-07 21:38:00,
2013-06-07 14:39:00,103.4,41.2,29.23,South,182,17.4,22.5,12,-99.99,,,0.00,877,rob ver 1B,2013-06-07 21:39:00,
2013-06-07 14:40:00,106.3,34.0,29.15,SSW,195,11.1,18.8,8,-99.99,,,0.00,872,rob ver 1A,2013-06-07 21:40:00,
2013-06-07 14:41:00,103.3,40.9,29.23,South,180,14.9,20.3,12,-99.99,,,0.00,872,rob ver 1B,2013-06-07 21:41:00,
2013-06-07 14:42:00,103.5,42.0,29.21,South,180,20.9,26.1,12,-99.99,,,0.00,867,rob ver 1B,2013-06-07 21:42:00,
2013-06-07 14:43:00,103.0,41.4,29.23,SSW,192,16.8,20.3,12,-99.99,,,0.00,870,rob ver 1B,2013-06-07 21:43:00,
2013-06-07 14:44:00,102.6,40.2,29.21,SSW,198,17.0,22.9,11,-99.99,,,0.00,874,rob ver 1B,2013-06-07 21:44:00,
2013-06-07 14:45:00,107.7,33.2,29.15,South,185,11.8,14.9,7,-99.99,,,0.00,867,rob ver 1A,2013-06-07 21:45:00,
2013-06-07 14:46:00,103.0,41.8,29.21,South,187,16.2,21.1,12,-99.99,,,0.00,859,rob ver 1B,2013-06-07 21:46:00,
2013-06-07 14:47:00,103.0,41.4,29.21,South,181,14.6,17.2,12,-99.99,,,0.00,861,rob ver 1B,2013-06-07 21:47:00,
2013-06-07 14:48:00,103.7,41.1,29.23,SSE,166,16.6,21.8,11,-99.99,,,0.00,856,rob ver 1B,2013-06-07 21:48:00,
2013-06-07 14:49:00,103.8,40.7,29.23,SSE,167,17.1,21.3,11,-99.99,,,0.00,858,rob ver 1B,2013-06-07 21:49:00,
2013-06-07 14:50:00,107.8,33.6,29.15,South,186,12.6,16.3,7,-99.99,,,0.00,855,rob ver 1A,2013-06-07 21:50:00,
2013-06-07 14:51:00,103.6,41.5,29.23,South,171,16.9,21.5,12,-99.99,,,0.00,848,rob ver 1B,2013-06-07 21:51:00,
2013-06-07 14:52:00,103.6,42.7,29.21,South,170,18.5,22.6,13,-99.99,,,0.00,845,rob ver 1B,2013-06-07 21:52:00,
2013-06-07 14:53:00,103.3,43.8,29.21,South,179,17.9,21.7,13,-99.99,,,0.00,846,rob ver 1B,2013-06-07 21:53:00,
2013-06-07 14:54:00,103.2,44.0,29.21,South,185,16.8,20.5,13,-99.99,,,0.00,844,rob ver 1B,2013-06-07 21:54:00,
2013-06-07 14:55:00,107.1,34.2,29.15,South,182,10.7,13.7,8,-99.99,,,0.00,846,rob ver 1A,2013-06-07 21:55:00,
2013-06-07 14:56:00,103.2,42.3,29.21,South,179,17.4,22.1,12,-99.99,,,0.00,840,rob ver 1B,2013-06-07 21:56:00,
2013-06-07 14:57:00,104.0,41.9,29.23,South,172,15.1,21.1,11,-99.99,,,0.00,843,rob ver 1B,2013-06-07 21:57:00,
2013-06-07 14:58:00,104.4,40.6,29.21,South,171,18.2,22.8,11,-99.99,,,0.00,843,rob ver 1B,2013-06-07 21:58:00,
2013-06-07 14:59:00,104.1,40.3,29.21,South,170,17.7,21.9,11,-99.99,,,0.00,844,rob ver 1B,2013-06-07 21:59:00,
2013-06-07 15:00:00,104.0,39.8,29.21,South,187,16.0,19.1,11,-99.99,,,0.00,840,rob ver 1B,2013-06-07 22:00:00,
2013-06-07 15:01:00,103.9,41.1,29.21,SSW,193,15.4,19.7,12,-99.99,,,0.00,834,rob ver 1B,2013-06-07 22:01:00,
2013-06-07 15:02:00,107.3,33.2,29.15,South,189,12.5,15.7,7,-99.99,,,0.00,832,rob ver 1A,2013-06-07 22:02:00,
2013-06-07 15:03:00,104.2,41.8,29.21,South,187,15.7,18.8,12,-99.99,,,0.00,828,rob ver 1B,2013-06-07 22:03:00,
2013-06-07 15:04:00,104.5,41.2,29.21,South,177,15.5,21.5,11,-99.99,,,0.00,828,rob ver 1B,2013-06-07 22:04:00,
2013-06-07 15:05:00,104.6,41.1,29.21,South,174,16.9,20.0,11,-99.99,,,0.00,826,rob ver 1B,2013-06-07 22:05:00,
2013-06-07 15:06:00,105.1,40.9,29.21,South,172,17.6,21.8,11,-99.99,,,0.00,825,rob ver 1B,2013-06-07 22:06:00,
2013-06-07 15:07:00,107.4,33.6,29.15,South,181,10.3,12.8,8,-99.99,,,0.00,821,rob ver 1A,2013-06-07 22:07:00,
2013-06-07 15:08:00,103.6,40.4,29.21,South,179,17.0,23.6,11,-99.99,,,0.00,804,rob ver 1B,2013-06-07 22:08:00,
2013-06-07 15:09:00,102.9,40.5,29.21,South,174,15.0,21.0,12,-99.99,,,0.00,807,rob ver 1B,2013-06-07 22:09:00,
2013-06-07 15:10:00,102.8,42.5,29.21,South,183,14.1,17.6,13,-99.99,,,0.00,811,rob ver 1B,2013-06-07 22:10:00,
2013-06-07 15:11:00,103.3,42.6,29.21,South,177,14.2,19.7,12,-99.99,,,0.00,816,rob ver 1B,2013-06-07 22:11:00,
2013-06-07 15:12:00,108.2,33.5,29.12,SSW,209,13.4,17.6,7,-99.99,,,0.00,809,rob ver 1A,2013-06-07 22:12:00,
2013-06-07 15:13:00,103.2,40.3,29.21,South,184,17.7,21.0,11,-99.99,,,0.00,809,rob ver 1B,2013-06-07 22:13:00,
2013-06-07 15:14:00,102.9,39.6,29.21,South,178,16.1,21.9,11,-99.99,,,0.00,810,rob ver 1B,2013-06-07 22:14:00,
2013-06-07 15:15:00,102.9,40.7,29.21,South,177,17.4,21.5,11,-99.99,,,0.00,807,rob ver 1B,2013-06-07 22:15:00,
2013-06-07 15:16:00,102.7,40.2,29.21,SSE,156,15.8,18.7,11,-99.99,,,0.00,806,rob ver 1B,2013-06-07 22:16:00,
2013-06-07 15:17:00,108.2,32.8,29.12,South,173,15.4,18.7,7,-99.99,,,0.00,798,rob ver 1A,2013-06-07 22:17:00,
2013-06-07 15:18:00,102.1,40.6,29.21,South,180,13.8,16.7,12,-99.99,,,0.00,799,rob ver 1B,2013-06-07 22:18:00,
2013-06-07 15:19:00,102.7,40.7,29.21,South,178,13.2,15.7,12,-99.99,,,0.00,794,rob ver 1B,2013-06-07 22:19:00,
2013-06-07 15:20:00,102.6,40.9,29.21,SSE,164,13.9,18.1,12,-99.99,,,0.00,798,rob ver 1B,2013-06-07 22:20:00,
2013-06-07 15:21:00,102.3,40.9,29.21,South,171,11.4,15.0,12,-99.99,,,0.00,784,rob ver 1B,2013-06-07 22:21:00,
2013-06-07 15:22:00,102.9,42.0,29.21,South,175,14.9,19.9,12,-99.99,,,0.00,785,rob ver 1B,2013-06-07 22:22:00,
2013-06-07 15:23:00,107.9,34.2,29.12,SSW,203,14.9,19.0,8,-99.99,,,0.00,785,rob ver 1A,2013-06-07 22:23:00,
2013-06-07 15:24:00,103.2,41.4,29.21,SSW,200,17.2,22.4,12,-99.99,,,0.00,775,rob ver 1B,2013-06-07 22:24:00,
2013-06-07 15:25:00,102.7,41.1,29.21,South,183,13.4,17.7,12,-99.99,,,0.00,776,rob ver 1B,2013-06-07 22:25:00,
2013-06-07 15:26:00,103.4,40.3,29.21,South,177,14.5,17.0,11,-99.99,,,0.00,782,rob ver 1B,2013-06-07 22:26:00,
2013-06-07 15:27:00,103.9,40.0,29.21,South,181,17.3,21.2,11,-99.99,,,0.00,778,rob ver 1B,2013-06-07 22:27:00,
2013-06-07 15:28:00,103.5,39.8,29.21,SSE,166,14.4,18.8,11,-99.99,,,0.00,778,rob ver 1B,2013-06-07 22:28:00,
2013-06-07 15:29:00,107.8,34.2,29.12,SSW,211,13.1,17.0,7,-99.99,,,0.00,770,rob ver 1A,2013-06-07 22:29:00,
2013-06-07 15:30:00,102.9,38.8,29.21,South,174,13.3,18.6,11,-99.99,,,0.00,771,rob ver 1B,2013-06-07 22:30:00,
2013-06-07 15:31:00,103.5,38.7,29.21,SSE,159,15.7,18.7,10,-99.99,,,0.00,768,rob ver 1B,2013-06-07 22:31:00,
2013-06-07 15:32:00,103.4,38.3,29.21,SSE,168,14.7,18.9,10,-99.99,,,0.00,765,rob ver 1B,2013-06-07 22:32:00,
2013-06-07 15:33:00,103.3,37.8,29.21,South,169,13.8,17.5,10,-99.99,,,0.00,764,rob ver 1B,2013-06-07 22:33:00,
2013-06-07 15:34:00,108.2,33.9,29.12,SSW,208,13.6,17.5,8,-99.99,,,0.00,757,rob ver 1A,2013-06-07 22:34:00,
2013-06-07 15:35:00,103.4,39.6,29.21,SSE,163,14.6,18.5,11,-99.99,,,0.00,762,rob ver 1B,2013-06-07 22:35:00,
2013-06-07 15:36:00,103.4,39.9,29.21,South,176,16.0,18.9,11,-99.99,,,0.00,754,rob ver 1B,2013-06-07 22:36:00,
2013-06-07 15:37:00,103.1,39.8,29.21,South,174,11.8,15.2,11,-99.99,,,0.00,748,rob ver 1B,2013-06-07 22:37:00,
2013-06-07 15:38:00,103.2,40.5,29.21,South,178,14.9,19.6,11,-99.99,,,0.00,748,rob ver 1B,2013-06-07 22:38:00,
2013-06-07 15:39:00,108.2,32.6,29.12,South,191,12.9,17.2,7,-99.99,,,0.00,744,rob ver 1A,2013-06-07 22:39:00,
2013-06-07 15:40:00,102.9,39.9,29.21,South,182,14.5,17.6,11,-99.99,,,0.00,744,rob ver 1B,2013-06-07 22:40:00,
2013-06-07 15:41:00,103.1,39.4,29.21,South,180,17.0,22.5,11,-99.99,,,0.00,738,rob ver 1B,2013-06-07 22:41:00,
2013-06-07 15:42:00,104.1,40.0,29.21,SSE,167,14.2,17.2,11,-99.99,,,0.00,735,rob ver 1B,2013-06-07 22:42:00,
2013-06-07 15:43:00,104.5,39.4,29.21,South,182,13.0,16.4,10,-99.99,,,0.00,732,rob ver 1B,2013-06-07 22:43:00,
2013-06-07 15:44:00,108.3,33.0,29.12,SSW,202,15.6,19.6,7,-99.99,,,0.00,729,rob ver 1A,2013-06-07 22:44:00,
2013-06-07 15:45:00,104.5,40.4,29.21,South,174,13.8,17.6,11,-99.99,,,0.00,731,rob ver 1B,2013-06-07 22:45:00,
2013-06-07 15:46:00,104.2,39.5,29.21,South,181,17.3,20.9,11,-99.99,,,0.00,729,rob ver 1B,2013-06-07 22:46:00,
2013-06-07 15:47:00,103.7,38.5,29.21,SSW,193,17.9,21.6,10,-99.99,,,0.00,729,rob ver 1B,2013-06-07 22:47:00,
2013-06-07 15:48:00,103.5,38.4,29.21,SSW,192,16.8,21.0,11,-99.99,,,0.00,731,rob ver 1B,2013-06-07 22:48:00,
2013-06-07 15:49:00,103.5,39.6,29.21,South,181,16.9,21.7,11,-99.99,,,0.00,720,rob ver 1B,2013-06-07 22:49:00,
2013-06-07 15:50:00,103.4,40.3,29.21,South,181,14.9,18.9,11,-99.99,,,0.00,713,rob ver 1B,2013-06-07 22:50:00,
2013-06-07 15:51:00,108.7,32.7,29.12,SSW,201,13.5,18.4,7,-99.99,,,0.00,710,rob ver 1A,2013-06-07 22:51:00,
2013-06-07 15:52:00,102.9,39.6,29.21,South,171,14.8,18.4,11,-99.99,,,0.00,713,rob ver 1B,2013-06-07 22:52:00,
2013-06-07 15:53:00,103.3,39.5,29.21,South,184,15.3,20.5,11,-99.99,,,0.00,714,rob ver 1B,2013-06-07 22:53:00,
2013-06-07 15:54:00,104.0,39.5,29.21,South,186,16.8,20.5,10,-99.99,,,0.00,710,rob ver 1B,2013-06-07 22:54:00,
2013-06-07 15:55:00,103.8,39.2,29.21,South,173,16.3,20.0,11,-99.99,,,0.00,704,rob ver 1B,2013-06-07 22:55:00,
2013-06-07 15:56:00,103.5,39.2,29.21,South,185,13.5,18.0,11,-99.99,,,0.00,702,rob ver 1B,2013-06-07 22:56:00,
2013-06-07 15:57:00,108.5,33.4,29.12,SSW,203,13.3,18.9,7,-99.99,,,0.00,696.6,rob ver 1A,2013-06-07 22:57:00,
2013-06-07 15:58:00,103.4,38.9,29.21,South,182,14.6,19.4,10,-99.99,,,0.00,695.8,rob ver 1B,2013-06-07 22:58:00,
2013-06-07 15:59:00,103.7,38.5,29.21,South,186,14.2,17.6,10,-99.99,,,0.00,693.2,rob ver 1B,2013-06-07 22:59:00,
2013-06-07 16:00:00,103.9,39.3,29.21,SSW,193,15.4,22.2,11,-99.99,,,0.00,691.7,rob ver 1B,2013-06-07 23:00:00,
2013-06-07 16:01:00,103.6,40.3,29.21,South,185,16.7,20.8,11,-99.99,,,0.00,686.8,rob ver 1B,2013-06-07 23:01:00,
2013-06-07 16:02:00,103.3,39.6,29.21,SSW,193,16.0,19.7,11,-99.99,,,0.00,685.8,rob ver 1B,2013-06-07 23:02:00,
2013-06-07 16:03:00,108.4,32.5,29.12,SSW,194,14.4,17.0,7,-99.99,,,0.00,680.9,rob ver 1A,2013-06-07 23:03:00,
2013-06-07 16:04:00,103.8,39.1,29.21,South,185,18.5,22.1,11,-99.99,,,0.00,679.4,rob ver 1B,2013-06-07 23:04:00,
2013-06-07 16:05:00,103.5,38.9,29.21,South,171,18.1,22.1,10,-99.99,,,0.00,675,rob ver 1B,2013-06-07 23:05:00,
2013-06-07 16:06:00,103.2,38.6,29.21,SSE,168,17.6,21.5,11,-99.99,,,0.00,672.9,rob ver 1B,2013-06-07 23:06:00,
2013-06-07 16:07:00,103.0,38.7,29.21,South,169,16.5,20.6,11,-99.99,,,0.00,667.5,rob ver 1B,2013-06-07 23:07:00,
2013-06-07 16:08:00,109.4,31.3,29.12,South,186,12.5,15.1,6,-99.99,,,0.00,665.5,rob ver 1A,2013-06-07 23:08:00,
2013-06-07 16:09:00,103.8,39.6,29.21,South,179,16.3,20.1,11,-99.99,,,0.00,666.2,rob ver 1B,2013-06-07 23:09:00,
2013-06-07 16:10:00,103.4,40.3,29.21,South,180,15.9,21.9,12,-99.99,,,0.00,659.2,rob ver 1B,2013-06-07 23:10:00,
2013-06-07 16:11:00,102.8,40.5,29.21,South,172,15.4,18.9,11,-99.99,,,0.00,655.7,rob ver 1B,2013-06-07 23:11:00,
2013-06-07 16:12:00,102.8,39.2,29.21,South,169,18.5,23.6,11,-99.99,,,0.00,654.9,rob ver 1B,2013-06-07 23:12:00,
2013-06-07 16:13:00,102.6,39.4,29.21,South,180,15.9,18.7,11,-99.99,,,0.00,652.9,rob ver 1B,2013-06-07 23:13:00,
2013-06-07 16:14:00,102.7,39.3,29.21,South,179,17.2,19.2,11,-99.99,,,0.00,650.6,rob ver 1B,2013-06-07 23:14:00,
2013-06-07 16:15:00,108.2,32.5,29.12,SSW,208,12.2,17.2,7,-99.99,,,0.00,645.3,rob ver 1A,2013-06-07 23:15:00,
2013-06-07 16:16:00,103.3,39.0,29.21,South,186,15.8,19.3,11,-99.99,,,0.00,642.8,rob ver 1B,2013-06-07 23:16:00,
2013-06-07 16:17:00,103.4,38.6,29.21,South,188,16.6,21.5,10,-99.99,,,0.00,638,rob ver 1B,2013-06-07 23:17:00,
2013-06-07 16:18:00,103.5,37.6,29.21,South,172,15.4,18.7,10,-99.99,,,0.00,637.9,rob ver 1B,2013-06-07 23:18:00,
2013-06-07 16:19:00,103.9,38.8,29.21,South,180,16.4,21.4,10,-99.99,,,0.00,634.4,rob ver 1B,2013-06-07 23:19:00,
2013-06-07 16:20:00,103.8,38.8,29.21,South,182,16.0,19.1,10,-99.99,,,0.00,630,rob ver 1B,2013-06-07 23:20:00,
2013-06-07 16:21:00,109.1,31.8,29.12,SSW,194,13.2,15.3,7,-99.99,,,0.00,627.6,rob ver 1A,2013-06-07 23:21:00,
2013-06-07 16:22:00,103.2,38.8,29.21,SSE,162,14.5,18.0,11,-99.99,,,0.00,625.4,rob ver 1B,2013-06-07 23:22:00,
2013-06-07 16:23:00,103.1,38.9,29.21,South,175,14.0,18.9,10,-99.99,,,0.00,625,rob ver 1B,2013-06-07 23:23:00,
2013-06-07 16:24:00,103.3,38.1,29.21,South,177,14.7,17.2,10,-99.99,,,0.00,618.6,rob ver 1B,2013-06-07 23:24:00,
2013-06-07 16:25:00,103.4,37.8,29.21,South,184,15.6,19.1,10,-99.99,,,0.00,615.6,rob ver 1B,2013-06-07 23:25:00,
2013-06-07 16:26:00,103.3,37.6,29.21,South,183,14.6,18.3,10,-99.99,,,0.00,614.8,rob ver 1B,2013-06-07 23:26:00,
2013-06-07 16:27:00,108.3,32.2,29.12,SSW,206,11.8,16.3,7,-99.99,,,0.00,609.9,rob ver 1A,2013-06-07 23:27:00,
2013-06-07 16:28:00,103.4,38.0,29.21,South,175,15.1,18.1,10,-99.99,,,0.00,608.1,rob ver 1B,2013-06-07 23:28:00,
2013-06-07 16:29:00,103.3,37.5,29.21,South,189,13.8,18.5,10,-99.99,,,0.00,606,rob ver 1B,2013-06-07 23:29:00,
2013-06-07 16:30:00,103.6,37.8,29.21,SSE,166,14.5,18.8,10,-99.99,,,0.00,600.4,rob ver 1B,2013-06-07 23:30:00,
2013-06-07 16:31:00,103.4,37.8,29.21,South,191,17.1,20.4,10,-99.99,,,0.00,599.3,rob ver 1B,2013-06-07 23:31:00,
2013-06-07 16:32:00,103.5,38.0,29.21,SSW,194,13.9,17.4,10,-99.99,,,0.00,597.5,rob ver 1B,2013-06-07 23:32:00,
2013-06-07 16:33:00,108.6,32.1,29.12,SSW,206,10.3,13.2,7,-99.99,,,0.00,593.4,rob ver 1A,2013-06-07 23:33:00,
2013-06-07 16:34:00,103.4,36.9,29.21,South,184,16.0,19.2,10,-99.99,,,0.00,590.6,rob ver 1B,2013-06-07 23:34:00,
2013-06-07 16:35:00,103.5,36.8,29.21,South,186,14.7,19.1,10,-99.99,,,0.00,588.3,rob ver 1B,2013-06-07 23:35:00,
2013-06-07 16:36:00,103.4,37.5,29.21,South,177,15.5,18.9,10,-99.99,,,0.00,582.7,rob ver 1B,2013-06-07 23:36:00,
2013-06-07 16:37:00,103.3,37.6,29.21,South,190,16.6,21.7,10,-99.99,,,0.00,580.9,rob ver 1B,2013-06-07 23:37:00,
2013-06-07 16:38:00,108.3,31.8,29.12,SSW,197,9.0,13.2,7,-99.99,,,0.00,574.4,rob ver 1A,2013-06-07 23:38:00,
2013-06-07 16:39:00,103.4,37.5,29.21,South,190,15.8,20.0,10,-99.99,,,0.00,575.5,rob ver 1B,2013-06-07 23:39:00,
2013-06-07 16:40:00,103.3,37.4,29.21,South,184,14.3,17.5,10,-99.99,,,0.00,574.1,rob ver 1B,2013-06-07 23:40:00,
2013-06-07 16:41:00,103.4,37.1,29.21,South,180,16.2,20.0,10,-99.99,,,0.00,568.5,rob ver 1B,2013-06-07 23:41:00,
2013-06-07 16:42:00,103.5,36.9,29.21,South,184,15.0,18.6,10,-99.99,,,0.00,565.2,rob ver 1B,2013-06-07 23:42:00,
2013-06-07 16:43:00,103.0,36.7,29.21,SSW,195,16.2,19.2,10,-99.99,,,0.00,562.1,rob ver 1B,2013-06-07 23:43:00,
2013-06-07 16:44:00,102.9,36.2,29.21,SSW,192,14.0,17.8,9,-99.99,,,0.00,559,rob ver 1B,2013-06-07 23:44:00,
2013-06-07 16:45:00,108.5,31.9,29.09,SSW,211,11.3,15.6,6,-99.99,,,0.00,550.9,rob ver 1A,2013-06-07 23:45:00,
2013-06-07 16:46:00,103.1,36.1,29.21,South,171,14.6,19.2,10,-99.99,,,0.00,553.8,rob ver 1B,2013-06-07 23:46:00,
2013-06-07 16:47:00,102.8,36.1,29.21,South,175,15.0,18.8,10,-99.99,,,0.00,548.2,rob ver 1B,2013-06-07 23:47:00,
2013-06-07 16:48:00,102.7,36.1,29.21,SSE,168,14.3,16.4,10,-99.99,,,0.00,544.3,rob ver 1B,2013-06-07 23:48:00,
2013-06-07 16:49:00,102.6,36.4,29.21,South,177,15.0,20.0,10,-99.99,,,0.00,541.2,rob ver 1B,2013-06-07 23:49:00,
2013-06-07 16:50:00,102.8,37.2,29.21,South,173,16.6,19.0,10,-99.99,,,0.00,540,rob ver 1B,2013-06-07 23:50:00,
2013-06-07 16:51:00,102.7,38.0,29.21,South,186,16.3,19.9,10,-99.99,,,0.00,533.8,rob ver 1B,2013-06-07 23:51:00,
2013-06-07 16:52:00,109.1,32.1,29.09,SSW,196,14.6,20.5,7,-99.99,,,0.00,528.6,rob ver 1A,2013-06-07 23:52:00,
2013-06-07 16:53:00,102.7,37.8,29.21,South,179,17.3,19.8,11,-99.99,,,0.00,531.5,rob ver 1B,2013-06-07 23:53:00,
2013-06-07 16:54:00,102.4,37.8,29.21,South,169,15.6,18.4,11,-99.99,,,0.00,527.7,rob ver 1B,2013-06-07 23:54:00,
2013-06-07 16:55:00,102.6,37.6,29.21,South,172,17.4,20.6,10,-99.99,,,0.00,522.8,rob ver 1B,2013-06-07 23:55:00,
2013-06-07 16:56:00,102.9,37.9,29.21,SSE,164,16.6,20.4,10,-99.99,,,0.00,522.2,rob ver 1B,2013-06-07 23:56:00,
2013-06-07 16:57:00,108.9,32.5,29.09,SSW,195,15.6,19.6,7,-99.99,,,0.00,508.8,rob ver 1A,2013-06-07 23:57:00,
2013-06-07 16:58:00,103.0,37.2,29.18,South,182,16.3,21.9,10,-99.99,,,0.00,514.8,rob ver 1B,2013-06-07 23:58:00,
2013-06-07 16:59:00,102.7,37.0,29.18,South,180,14.8,18.5,10,-99.99,,,0.00,511.5,rob ver 1B,2013-06-07 23:59:00,
2013-06-07 17:00:00,102.8,36.6,29.18,South,177,15.3,19.5,10,-99.99,,,0.00,509.6,rob ver 1B,2013-06-08 00:00:00,
2013-06-07 17:01:00,103.0,36.3,29.21,SSE,162,16.2,18.7,10,-99.99,,,0.00,504.3,rob ver 1B,2013-06-08 00:01:00,
2013-06-07 17:02:00,102.8,35.7,29.18,South,176,16.3,18.9,9,-99.99,,,0.00,501.2,rob ver 1B,2013-06-08 00:02:00,
2013-06-07 17:03:00,108.6,32.9,29.09,SSW,199,14.9,19.5,7,-99.99,,,0.00,495.7,rob ver 1A,2013-06-08 00:03:00,
2013-06-07 17:04:00,103.0,35.3,29.18,South,179,15.9,19.8,9,-99.99,,,0.00,495,rob ver 1B,2013-06-08 00:04:00,
2013-06-07 17:05:00,103.0,35.3,29.18,South,183,16.5,21.2,9,-99.99,,,0.00,493.4,rob ver 1B,2013-06-08 00:05:00,
2013-06-07 17:06:00,103.2,35.5,29.18,South,181,15.0,20.1,9,-99.99,,,0.00,490.4,rob ver 1B,2013-06-08 00:06:00,
2013-06-07 17:07:00,103.0,35.0,29.21,South,191,12.4,15.4,9,-99.99,,,0.00,486.3,rob ver 1B,2013-06-08 00:07:00,
2013-06-07 17:08:00,103.1,35.4,29.18,South,185,16.4,18.8,9,-99.99,,,0.00,482.4,rob ver 1B,2013-06-08 00:08:00,
2013-06-07 17:09:00,108.3,32.4,29.09,South,171,13.7,16.6,7,-99.99,,,0.00,472.2,rob ver 1A,2013-06-08 00:09:00,
2013-06-07 17:10:00,102.6,34.5,29.18,South,176,14.6,20.2,9,-99.99,,,0.00,475.4,rob ver 1B,2013-06-08 00:10:00,
2013-06-07 17:11:00,102.8,35.2,29.18,South,179,14.1,18.3,9,-99.99,,,0.00,471.1,rob ver 1B,2013-06-08 00:11:00,
2013-06-07 17:12:00,102.9,35.5,29.18,South,185,14.4,18.7,9,-99.99,,,0.00,468.7,rob ver 1B,2013-06-08 00:12:00,
2013-06-07 17:13:00,103.0,35.2,29.18,SSW,195,17.0,20.5,9,-99.99,,,0.00,466.4,rob ver 1B,2013-06-08 00:13:00,
2013-06-07 17:14:00,102.7,35.4,29.18,South,185,16.4,18.8,9,-99.99,,,0.00,462.6,rob ver 1B,2013-06-08 00:14:00,
2013-06-07 17:15:00,102.5,35.7,29.18,South,182,16.0,19.1,10,-99.99,,,0.00,458.2,rob ver 1B,2013-06-08 00:15:00,
2013-06-07 17:16:00,108.2,32.7,29.09,SSW,199,13.7,17.5,7,-99.99,,,0.00,446.3,rob ver 1A,2013-06-08 00:16:00,
2013-06-07 17:17:00,102.3,35.8,29.18,South,186,16.4,20.0,10,-99.99,,,0.00,451.7,rob ver 1B,2013-06-08 00:17:00,
2013-06-07 17:18:00,102.5,35.8,29.18,South,177,14.9,18.8,9,-99.99,,,0.00,449,rob ver 1B,2013-06-08 00:18:00,
2013-06-07 17:19:00,102.8,34.5,29.21,SSE,166,14.2,18.3,9,-99.99,,,0.00,445.4,rob ver 1B,2013-06-08 00:19:00,
2013-06-07 17:20:00,102.7,34.0,29.18,South,174,16.4,19.6,9,-99.99,,,0.00,441.5,rob ver 1B,2013-06-08 00:20:00,
2013-06-07 17:21:00,108.1,32.9,29.09,SSW,197,11.7,14.2,7,-99.99,,,0.00,429.1,rob ver 1A,2013-06-08 00:21:00,
2013-06-07 17:22:00,102.7,35.2,29.21,South,175,13.4,16.9,9,-99.99,,,0.00,436.1,rob ver 1B,2013-06-08 00:22:00,
2013-06-07 17:23:00,102.5,35.4,29.18,South,176,13.2,16.7,9,-99.99,,,0.00,433.8,rob ver 1B,2013-06-08 00:23:00,
2013-06-07 17:24:00,102.8,35.7,29.18,South,180,16.2,20.1,10,-99.99,,,0.00,428.3,rob ver 1B,2013-06-08 00:24:00,
2013-06-07 17:25:00,102.6,35.7,29.18,South,178,16.4,19.6,10,-99.99,,,0.00,424.5,rob ver 1B,2013-06-08 00:25:00,
2013-06-07 17:26:00,102.4,35.4,29.21,SSE,165,15.8,19.5,9,-99.99,,,0.00,421.5,rob ver 1B,2013-06-08 00:26:00,
2013-06-07 17:27:00,102.1,34.6,29.18,SSE,161,14.7,16.9,9,-99.99,,,0.00,418.8,rob ver 1B,2013-06-08 00:27:00,
2013-06-07 17:28:00,107.9,32.9,29.09,SSW,212,13.7,15.5,7,-99.99,,,0.00,406.1,rob ver 1A,2013-06-08 00:28:00,
2013-06-07 17:29:00,102.2,35.1,29.18,South,179,14.5,16.4,10,-99.99,,,0.00,413,rob ver 1B,2013-06-08 00:29:00,
2013-06-07 17:30:00,102.4,35.5,29.18,South,183,17.1,21.4,9,-99.99,,,0.00,409.4,rob ver 1B,2013-06-08 00:30:00,
2013-06-07 17:31:00,102.1,34.9,29.18,South,180,17.8,22.2,9,-99.99,,,0.00,405.2,rob ver 1B,2013-06-08 00:31:00,
2013-06-07 17:32:00,101.9,35.2,29.18,South,174,17.4,19.8,9,-99.99,,,0.00,400.9,rob ver 1B,2013-06-08 00:32:00,
2013-06-07 17:33:00,108.1,33.2,29.09,SSW,208,15.6,18.0,7,-99.99,,,0.00,387.7,rob ver 1A,2013-06-08 00:33:00,
2013-06-07 17:34:00,101.9,34.6,29.18,South,179,15.4,18.4,9,-99.99,,,0.00,394.1,rob ver 1B,2013-06-08 00:34:00,
2013-06-07 17:35:00,102.0,34.1,29.21,South,181,13.8,18.9,9,-99.99,,,0.00,392.3,rob ver 1B,2013-06-08 00:35:00,
2013-06-07 17:36:00,102.5,34.1,29.18,South,178,15.3,17.5,9,-99.99,,,0.00,388.2,rob ver 1B,2013-06-08 00:36:00,
2013-06-07 17:37:00,102.8,34.7,29.18,South,172,14.5,18.5,9,-99.99,,,0.00,385.4,rob ver 1B,2013-06-08 00:37:00,
2013-06-07 17:38:00,108.3,33.2,29.09,SSW,205,12.6,15.3,7,-99.99,,,0.00,372.2,rob ver 1A,2013-06-08 00:38:00,
2013-06-07 17:39:00,102.1,33.8,29.18,South,184,15.6,19.6,9,-99.99,,,0.00,379.3,rob ver 1B,2013-06-08 00:39:00,
2013-06-07 17:40:00,102.1,33.4,29.18,South,185,15.7,19.9,9,-99.99,,,0.00,375.4,rob ver 1B,2013-06-08 00:40:00,
2013-06-07 17:41:00,102.1,33.5,29.18,South,183,16.1,18.3,9,-99.99,,,0.00,370.8,rob ver 1B,2013-06-08 00:41:00,
2013-06-07 17:42:00,102.3,33.8,29.18,South,180,15.0,18.7,9,-99.99,,,0.00,368,rob ver 1B,2013-06-08 00:42:00,
2013-06-07 17:43:00,102.2,34.6,29.18,South,177,17.2,21.3,9,-99.99,,,0.00,364.9,rob ver 1B,2013-06-08 00:43:00,
2013-06-07 17:44:00,108.0,33.0,29.09,SSW,192,14.9,19.0,7,-99.99,,,0.00,354.4,rob ver 1A,2013-06-08 00:44:00,
2013-06-07 17:45:00,101.7,35.9,29.18,South,179,16.9,21.8,10,-99.99,,,0.00,357.4,rob ver 1B,2013-06-08 00:45:00,
2013-06-07 17:46:00,101.3,36.4,29.18,South,176,16.7,19.6,10,-99.99,,,0.00,352.7,rob ver 1B,2013-06-08 00:46:00,
2013-06-07 17:47:00,101.3,36.9,29.18,South,176,15.6,19.8,10,-99.99,,,0.00,349.2,rob ver 1B,2013-06-08 00:47:00,
2013-06-07 17:48:00,101.4,36.9,29.18,South,176,14.5,17.6,10,-99.99,,,0.00,345.3,rob ver 1B,2013-06-08 00:48:00,
2013-06-07 17:49:00,108.5,33.6,29.09,South,191,12.3,18.2,7,-99.99,,,0.00,334.1,rob ver 1A,2013-06-08 00:49:00,
2013-06-07 17:50:00,101.6,36.6,29.18,South,174,15.8,19.6,10,-99.99,,,0.00,337.1,rob ver 1B,2013-06-08 00:50:00,
2013-06-07 17:51:00,101.6,36.1,29.18,South,175,14.7,17.9,10,-99.99,,,0.00,333.5,rob ver 1B,2013-06-08 00:51:00,
2013-06-07 17:52:00,101.7,36.0,29.18,South,175,14.6,17.0,10,-99.99,,,0.00,329.7,rob ver 1B,2013-06-08 00:52:00,
2013-06-07 17:53:00,101.6,35.7,29.18,South,175,16.4,19.4,10,-99.99,,,0.00,326.1,rob ver 1B,2013-06-08 00:53:00,
2013-06-07 17:54:00,101.7,35.0,29.18,SSE,168,16.0,19.1,9,-99.99,,,0.00,322.4,rob ver 1B,2013-06-08 00:54:00,
2013-06-07 17:55:00,107.7,33.6,29.09,SSW,209,15.6,18.8,7,-99.99,,,0.00,314.8,rob ver 1A,2013-06-08 00:55:00,
2013-06-07 17:56:00,101.3,35.6,29.18,South,175,15.9,18.4,10,-99.99,,,0.00,316.8,rob ver 1B,2013-06-08 00:56:00,
2013-06-07 17:57:00,101.4,35.7,29.18,South,177,15.6,18.0,10,-99.99,,,0.00,312.6,rob ver 1B,2013-06-08 00:57:00,
2013-06-07 17:58:00,101.6,35.3,29.18,SSE,168,14.2,17.9,10,-99.99,,,0.00,309.8,rob ver 1B,2013-06-08 00:58:00,
2013-06-07 17:59:00,101.8,35.4,29.18,South,179,15.2,19.4,10,-99.99,,,0.00,306,rob ver 1B,2013-06-08 00:59:00,
2013-06-07 18:00:00,107.7,33.0,29.09,SSW,195,15.3,19.8,7,-99.99,,,0.00,296.1,rob ver 1A,2013-06-08 01:00:00,
2013-06-07 18:01:00,101.7,36.3,29.18,South,184,14.2,18.2,10,-99.99,,,0.00,298.7,rob ver 1B,2013-06-08 01:01:00,
2013-06-07 18:02:00,101.6,36.8,29.18,South,184,16.4,19.7,10,-99.99,,,0.00,295.5,rob ver 1B,2013-06-08 01:02:00,
2013-06-07 18:03:00,101.3,37.1,29.18,South,186,15.1,19.4,10,-99.99,,,0.00,292.3,rob ver 1B,2013-06-08 01:03:00,
2013-06-07 18:04:00,101.2,36.9,29.18,South,176,16.6,20.6,10,-99.99,,,0.00,289.7,rob ver 1B,2013-06-08 01:04:00,
2013-06-07 18:05:00,101.1,36.6,29.18,South,178,17.5,20.8,10,-99.99,,,0.00,285.7,rob ver 1B,2013-06-08 01:05:00,
2013-06-07 18:06:00,101.0,36.2,29.18,South,183,17.3,20.2,10,-99.99,,,0.00,282.6,rob ver 1B,2013-06-08 01:06:00,
2013-06-07 18:07:00,107.5,32.7,29.09,South,189,14.5,19.6,7,-99.99,,,0.00,275.9,rob ver 1A,2013-06-08 01:07:00,
2013-06-07 18:08:00,101.2,36.5,29.18,South,181,15.5,20.1,10,-99.99,,,0.00,275.3,rob ver 1B,2013-06-08 01:08:00,
2013-06-07 18:09:00,101.4,36.8,29.18,South,181,15.6,18.5,10,-99.99,,,0.00,272,rob ver 1B,2013-06-08 01:09:00,
2013-06-07 18:10:00,101.2,37.2,29.18,South,177,18.4,22.6,11,-99.99,,,0.00,270,rob ver 1B,2013-06-08 01:10:00,
2013-06-07 18:11:00,100.7,37.4,29.18,South,182,18.9,21.8,11,-99.99,,,0.00,265.4,rob ver 1B,2013-06-08 01:11:00,
2013-06-07 18:12:00,107.3,32.7,29.09,South,190,14.2,17.0,7,-99.99,,,0.00,260.8,rob ver 1A,2013-06-08 01:12:00,
2013-06-07 18:13:00,100.8,37.3,29.18,South,176,17.0,19.9,11,-99.99,,,0.00,258.9,rob ver 1B,2013-06-08 01:13:00,
2013-06-07 18:14:00,100.5,37.5,29.18,South,179,16.4,19.6,11,-99.99,,,0.00,254.5,rob ver 1B,2013-06-08 01:14:00,
2013-06-07 18:15:00,100.6,37.8,29.18,South,179,13.9,16.3,11,-99.99,,,0.00,251.7,rob ver 1B,2013-06-08 01:15:00,
2013-06-07 18:16:00,100.7,38.2,29.18,South,179,15.5,19.2,11,-99.99,,,0.00,246.9,rob ver 1B,2013-06-08 01:16:00,
2013-06-07 18:17:00,100.5,37.8,29.18,South,180,17.5,21.0,11,-99.99,,,0.00,243.5,rob ver 1B,2013-06-08 01:17:00,
2013-06-07 18:18:00,107.2,33.2,29.09,SSW,208,13.1,16.5,7,-99.99,,,0.00,238.6,rob ver 1A,2013-06-08 01:18:00,
2013-06-07 18:19:00,100.1,36.3,29.18,South,172,16.3,18.9,11,-99.99,,,0.00,237.6,rob ver 1B,2013-06-08 01:19:00,
2013-06-07 18:20:00,100.1,36.0,29.18,South,177,16.3,20.3,11,-99.99,,,0.00,235.2,rob ver 1B,2013-06-08 01:20:00,
2013-06-07 18:21:00,100.1,36.6,29.18,South,177,16.6,19.7,11,-99.99,,,0.00,230.7,rob ver 1B,2013-06-08 01:21:00,
2013-06-07 18:22:00,100.1,37.3,29.18,South,178,16.6,19.3,11,-99.99,,,0.00,227.5,rob ver 1B,2013-06-08 01:22:00,
2013-06-07 18:23:00,107.1,33.6,29.09,SSW,209,15.6,18.7,8,-99.99,,,0.00,220.2,rob ver 1A,2013-06-08 01:23:00,
2013-06-07 18:24:00,100.0,38.0,29.18,South,170,15.4,19.2,11,-99.99,,,0.00,219.5,rob ver 1B,2013-06-08 01:24:00,
2013-06-07 18:25:00,99.8,38.3,29.18,South,170,16.5,20.0,12,-99.99,,,0.00,216.3,rob ver 1B,2013-06-08 01:25:00,
2013-06-07 18:26:00,99.6,38.2,29.18,South,172,16.2,19.7,12,-99.99,,,0.00,213.2,rob ver 1B,2013-06-08 01:26:00,
2013-06-07 18:27:00,99.8,37.7,29.18,South,182,15.1,19.5,11,-99.99,,,0.00,209.6,rob ver 1B,2013-06-08 01:27:00,
2013-06-07 18:28:00,99.9,36.2,29.18,South,176,15.7,18.3,10,-99.99,,,0.00,206.5,rob ver 1B,2013-06-08 01:28:00,
2013-06-07 18:29:00,99.7,36.3,29.18,South,178,16.4,19.4,11,-99.99,,,0.00,203.4,rob ver 1B,2013-06-08 01:29:00,
2013-06-07 18:30:00,107.1,34.1,29.09,SSW,199,14.3,17.3,8,-99.99,,,0.00,195,rob ver 1A,2013-06-08 01:30:00,
2013-06-07 18:31:00,99.3,36.9,29.18,South,182,16.5,19.1,11,-99.99,,,0.00,197.4,rob ver 1B,2013-06-08 01:31:00,
2013-06-07 18:32:00,99.2,37.2,29.18,South,181,16.3,19.9,11,-99.99,,,0.00,193.4,rob ver 1B,2013-06-08 01:32:00,
2013-06-07 18:33:00,99.4,37.6,29.18,South,183,13.7,17.2,11,-99.99,,,0.00,190.8,rob ver 1B,2013-06-08 01:33:00,
2013-06-07 18:34:00,99.6,37.8,29.18,South,188,13.8,17.4,11,-99.99,,,0.00,186.9,rob ver 1B,2013-06-08 01:34:00,
2013-06-07 18:35:00,106.9,34.0,29.09,SSW,203,13.9,16.1,8,-99.99,,,0.00,176.4,rob ver 1A,2013-06-08 01:35:00,
2013-06-07 18:36:00,99.7,37.7,29.18,South,169,13.3,16.6,11,-99.99,,,0.00,179,rob ver 1B,2013-06-08 01:36:00,
2013-06-07 18:37:00,99.6,37.6,29.18,SSE,168,15.3,19.1,11,-99.99,,,0.00,176.4,rob ver 1B,2013-06-08 01:37:00,
2013-06-07 18:38:00,99.4,37.5,29.18,South,171,13.7,16.6,11,-99.99,,,0.00,173.3,rob ver 1B,2013-06-08 01:38:00,
2013-06-07 18:39:00,99.4,37.7,29.18,South,169,16.3,20.2,12,-99.99,,,0.00,169.9,rob ver 1B,2013-06-08 01:39:00,
2013-06-07 18:40:00,107.0,34.4,29.09,SSW,203,12.0,14.8,8,-99.99,,,0.00,159.5,rob ver 1A,2013-06-08 01:40:00,
2013-06-07 18:41:00,98.9,38.1,29.18,South,174,16.6,19.7,12,-99.99,,,0.00,163.3,rob ver 1B,2013-06-08 01:41:00,
2013-06-07 18:42:00,98.8,38.7,29.18,South,171,15.1,18.7,12,-99.99,,,0.00,160.6,rob ver 1B,2013-06-08 01:42:00,
2013-06-07 18:43:00,98.8,38.4,29.18,South,176,14.7,18.1,12,-99.99,,,0.00,158.1,rob ver 1B,2013-06-08 01:43:00,
2013-06-07 18:44:00,98.8,38.3,29.18,South,173,14.4,17.0,12,-99.99,,,0.00,154.8,rob ver 1B,2013-06-08 01:44:00,
2013-06-07 18:45:00,98.8,38.6,29.18,South,179,14.1,19.2,12,-99.99,,,0.00,151.4,rob ver 1B,2013-06-08 01:45:00,
2013-06-07 18:46:00,106.6,35.0,29.09,SSW,204,11.7,15.0,8,-99.99,,,0.00,142.2,rob ver 1A,2013-06-08 01:46:00,
2013-06-07 18:47:00,98.7,39.2,29.18,South,177,14.7,17.9,12,-99.99,,,0.00,145,rob ver 1B,2013-06-08 01:47:00,
2013-06-07 18:48:00,98.7,39.0,29.18,South,179,14.6,17.4,12,-99.99,,,0.00,141.1,rob ver 1B,2013-06-08 01:48:00,
2013-06-07 18:49:00,98.7,38.5,29.21,South,177,14.8,17.2,12,-99.99,,,0.00,137.3,rob ver 1B,2013-06-08 01:49:00,
2013-06-07 18:50:00,98.6,38.5,29.21,South,176,14.5,17.4,12,-99.99,,,0.00,133.9,rob ver 1B,2013-06-08 01:50:00,
2013-06-07 18:51:00,98.5,39.1,29.18,South,179,16.4,19.1,13,-99.99,,,0.00,130.9,rob ver 1B,2013-06-08 01:51:00,
2013-06-07 18:52:00,106.2,35.7,29.09,SSW,199,12.9,16.2,9,-99.99,,,0.00,120.1,rob ver 1A,2013-06-08 01:52:00,
2013-06-07 18:53:00,98.3,37.8,29.18,South,177,14.9,20.5,11,-99.99,,,0.00,124.6,rob ver 1B,2013-06-08 01:53:00,
2013-06-07 18:54:00,98.3,37.5,29.18,South,179,16.4,20.1,12,-99.99,,,0.00,121.9,rob ver 1B,2013-06-08 01:54:00,
2013-06-07 18:55:00,98.2,38.4,29.18,South,179,15.7,19.3,12,-99.99,,,0.00,119,rob ver 1B,2013-06-08 01:55:00,
2013-06-07 18:56:00,98.2,38.8,29.18,South,176,17.0,20.2,13,-99.99,,,0.00,116.2,rob ver 1B,2013-06-08 01:56:00,
2013-06-07 18:57:00,98.0,38.6,29.18,South,178,17.7,21.3,13,-99.99,,,0.00,112.9,rob ver 1B,2013-06-08 01:57:00,
2013-06-07 18:58:00,105.6,36.7,29.09,SSW,201,14.1,16.6,9,-99.99,,,0.00,102.1,rob ver 1A,2013-06-08 01:58:00,
2013-06-07 18:59:00,97.8,38.9,29.21,South,181,15.0,19.7,13,-99.99,,,0.00,107.7,rob ver 1B,2013-06-08 01:59:00,
2013-06-07 19:00:00,97.9,39.2,29.21,South,179,14.8,17.7,13,-99.99,,,0.00,104.4,rob ver 1B,2013-06-08 02:00:00,
2013-06-07 19:01:00,97.9,38.9,29.21,South,178,14.3,17.4,12,-99.99,,,0.00,101.8,rob ver 1B,2013-06-08 02:01:00,
2013-06-07 19:02:00,97.8,38.7,29.21,South,177,16.9,21.1,13,-99.99,,,0.00,98.5,rob ver 1B,2013-06-08 02:02:00,
2013-06-07 19:03:00,105.2,37.9,29.09,SSW,209,14.3,16.7,10,-99.99,,,0.00,87.5,rob ver 1A,2013-06-08 02:03:00,
2013-06-07 19:04:00,97.5,39.0,29.21,South,177,17.0,20.8,13,-99.99,,,0.00,93,rob ver 1B,2013-06-08 02:04:00,
2013-06-07 19:05:00,97.4,39.4,29.21,South,176,14.8,18.3,13,-99.99,,,0.00,90,rob ver 1B,2013-06-08 02:05:00,
2013-06-07 19:06:00,97.4,39.6,29.21,South,175,13.2,18.2,13,-99.99,,,0.00,87.4,rob ver 1B,2013-06-08 02:06:00,
2013-06-07 19:07:00,97.4,40.1,29.21,South,175,16.6,20.1,14,-99.99,,,0.00,84.5,rob ver 1B,2013-06-08 02:07:00,
2013-06-07 19:08:00,97.2,40.5,29.21,South,177,16.1,18.5,14,-99.99,,,0.00,82.2,rob ver 1B,2013-06-08 02:08:00,
2013-06-07 19:09:00,104.8,38.9,29.09,SSW,201,13.0,15.5,10,-99.99,,,0.00,71,rob ver 1A,2013-06-08 02:09:00,
2013-06-07 19:10:00,97.0,40.1,29.21,South,175,15.3,19.0,14,-99.99,,,0.00,77.3,rob ver 1B,2013-06-08 02:10:00,
2013-06-07 19:11:00,96.9,40.2,29.21,South,174,17.4,23.6,14,-99.99,,,0.00,74.3,rob ver 1B,2013-06-08 02:11:00,
2013-06-07 19:12:00,96.7,40.4,29.21,South,177,17.9,20.9,14,-99.99,,,0.00,72,rob ver 1B,2013-06-08 02:12:00,
2013-06-07 19:13:00,96.5,39.9,29.21,South,173,16.3,19.8,14,-99.99,,,0.00,69.73,rob ver 1B,2013-06-08 02:13:00,
2013-06-07 19:14:00,104.4,39.2,29.09,SSW,199,12.8,15.5,10,-99.99,,,0.00,56.62,rob ver 1A,2013-06-08 02:14:00,
2013-06-07 19:15:00,96.5,39.9,29.21,South,174,16.2,19.3,14,-99.99,,,0.00,64.82,rob ver 1B,2013-06-08 02:15:00,
2013-06-07 19:16:00,96.4,40.6,29.21,South,177,13.4,18.1,14,-99.99,,,0.00,62.53,rob ver 1B,2013-06-08 02:16:00,
2013-06-07 19:17:00,96.5,41.1,29.21,South,183,13.0,17.4,14,-99.99,,,0.00,59.91,rob ver 1B,2013-06-08 02:17:00,
2013-06-07 19:18:00,96.4,41.1,29.21,South,182,13.3,15.5,14,-99.99,,,0.00,57.29,rob ver 1B,2013-06-08 02:18:00,
2013-06-07 19:19:00,96.3,41.5,29.21,South,182,13.4,16.6,15,-99.99,,,0.00,55.49,rob ver 1B,2013-06-08 02:19:00,
2013-06-07 19:20:00,96.2,41.7,29.21,South,184,16.0,19.2,15,-99.99,,,0.00,53.36,rob ver 1B,2013-06-08 02:20:00,
2013-06-07 19:21:00,103.8,39.6,29.09,SSW,206,11.2,14.3,11,-99.99,,,0.00,39.77,rob ver 1A,2013-06-08 02:21:00,
2013-06-07 19:22:00,96.1,41.7,29.21,South,183,13.6,17.2,15,-99.99,,,0.00,48.78,rob ver 1B,2013-06-08 02:22:00,
2013-06-07 19:23:00,96.0,41.4,29.21,South,183,15.4,19.1,15,-99.99,,,0.00,46.32,rob ver 1B,2013-06-08 02:23:00,
2013-06-07 19:24:00,96.0,40.7,29.21,South,180,14.7,18.3,14,-99.99,,,0.00,43.87,rob ver 1B,2013-06-08 02:24:00,
2013-06-07 19:25:00,95.9,39.6,29.21,South,184,15.0,18.0,14,-99.99,,,0.00,40.92,rob ver 1B,2013-06-08 02:25:00,
2013-06-07 19:26:00,95.8,39.1,29.21,South,183,15.9,18.1,14,-99.99,,,0.00,38.3,rob ver 1B,2013-06-08 02:26:00,
2013-06-07 19:27:00,95.7,38.9,29.21,South,182,14.0,17.6,14,-99.99,,,0.00,35.69,rob ver 1B,2013-06-08 02:27:00,
2013-06-07 19:28:00,103.4,39.4,29.09,SSW,201,11.0,13.3,11,-99.99,,,0.00,27.16,rob ver 1A,2013-06-08 02:28:00,
2013-06-07 19:29:00,95.6,39.6,29.21,South,182,14.2,18.0,14,-99.99,,,0.00,32.58,rob ver 1B,2013-06-08 02:29:00,
2013-06-07 19:30:00,95.5,39.9,29.21,South,183,15.2,18.2,14,-99.99,,,0.00,29.79,rob ver 1B,2013-06-08 02:30:00,
2013-06-07 19:31:00,95.5,40.2,29.21,South,183,15.2,19.4,14,-99.99,,,0.00,27.5,rob ver 1B,2013-06-08 02:31:00,
2013-06-07 19:32:00,95.4,39.8,29.21,South,184,11.6,14.2,14,-99.99,,,0.00,25.21,rob ver 1B,2013-06-08 02:32:00,
2013-06-07 19:33:00,103.0,39.3,29.09,SSW,201,11.4,13.0,11,-99.99,,,0.00,18.66,rob ver 1A,2013-06-08 02:33:00,
2013-06-07 19:34:00,95.3,40.4,29.21,South,184,13.1,15.9,15,-99.99,,,0.00,20.63,rob ver 1B,2013-06-08 02:34:00,
2013-06-07 19:35:00,95.3,40.6,29.21,South,182,13.2,15.8,14,-99.99,,,0.00,18.83,rob ver 1B,2013-06-08 02:35:00,
2013-06-07 19:36:00,95.2,40.2,29.21,South,187,14.5,18.4,14,-99.99,,,0.00,16.7,rob ver 1B,2013-06-08 02:36:00,
2013-06-07 19:37:00,95.1,40.2,29.21,South,185,14.3,17.9,15,-99.99,,,0.00,14.41,rob ver 1B,2013-06-08 02:37:00,
2013-06-07 19:38:00,95.1,40.3,29.21,South,189,11.8,17.5,15,-99.99,,,0.00,12.77,rob ver 1B,2013-06-08 02:38:00,
2013-06-07 19:39:00,95.0,40.3,29.21,South,190,11.7,15.1,15,-99.99,,,0.00,10.97,rob ver 1B,2013-06-08 02:39:00,
2013-06-07 19:40:00,102.5,38.9,29.09,SSW,202,10.2,12.3,11,-99.99,,,0.00,8.02,rob ver 1A,2013-06-08 02:40:00,
2013-06-07 19:41:00,94.9,38.7,29.21,South,185,12.9,16.2,14,-99.99,,,0.00,8.19,rob ver 1B,2013-06-08 02:41:00,
2013-06-07 19:42:00,94.8,38.5,29.21,South,186,13.3,16.4,14,-99.99,,,0.00,7.37,rob ver 1B,2013-06-08 02:42:00,
2013-06-07 19:43:00,94.8,38.7,29.21,South,187,11.6,15.2,14,-99.99,,,0.00,6.385,rob ver 1B,2013-06-08 02:43:00,
2013-06-07 19:44:00,94.7,38.4,29.21,South,183,12.6,15.1,14,-99.99,,,0.00,5.73,rob ver 1B,2013-06-08 02:44:00,
2013-06-07 19:45:00,94.6,38.3,29.21,South,187,12.5,16.3,14,-99.99,,,0.00,5.239,rob ver 1B,2013-06-08 02:45:00,
2013-06-07 19:46:00,94.6,38.4,29.21,South,183,13.9,16.7,14,-99.99,,,0.00,4.584,rob ver 1B,2013-06-08 02:46:00,
2013-06-07 19:47:00,94.6,39.4,29.21,South,183,14.2,17.3,15,-99.99,,,0.00,4.257,rob ver 1B,2013-06-08 02:47:00,
2013-06-07 19:48:00,101.9,38.8,29.09,SSW,204,9.1,10.7,11,-99.99,,,0.00,3.109,rob ver 1A,2013-06-08 02:48:00,
2013-06-07 19:49:00,94.4,40.8,29.21,South,184,13.8,16.4,15,-99.99,,,0.00,3.111,rob ver 1B,2013-06-08 02:49:00,
2013-06-07 19:50:00,94.3,40.6,29.21,South,184,13.7,15.7,15,-99.99,,,0.00,2.947,rob ver 1B,2013-06-08 02:50:00,
2013-06-07 19:51:00,94.2,40.8,29.21,South,188,11.1,14.0,15,-99.99,,,0.00,2.62,rob ver 1B,2013-06-08 02:51:00,
2013-06-07 19:52:00,94.1,41.2,29.21,South,191,11.7,15.1,16,-99.99,,,0.00,2.62,rob ver 1B,2013-06-08 02:52:00,
2013-06-07 19:53:00,101.4,38.8,29.12,SSW,201,8.1,9.7,11,-99.99,,,0.00,1.637,rob ver 1A,2013-06-08 02:53:00,
2013-06-07 19:54:00,94.0,41.8,29.21,South,189,10.5,12.6,16,-99.99,,,0.00,1.965,rob ver 1B,2013-06-08 02:54:00,
2013-06-07 19:55:00,93.9,41.9,29.21,SSW,192,13.0,15.5,16,-99.99,,,0.00,1.474,rob ver 1B,2013-06-08 02:55:00,
2013-06-07 19:56:00,93.9,41.6,29.21,South,191,13.4,17.0,16,-99.99,,,0.00,1.31,rob ver 1B,2013-06-08 02:56:00,
2013-06-07 19:57:00,93.9,41.6,29.21,South,191,11.4,14.0,16,-99.99,,,0.00,1.146,rob ver 1B,2013-06-08 02:57:00,
2013-06-07 19:58:00,100.8,38.6,29.09,SSW,200,7.5,9.4,11,-99.99,,,0.00,.655,rob ver 1A,2013-06-08 02:58:00,
2013-06-07 19:59:00,93.7,41.7,29.21,South,190,10.7,15.0,16,-99.99,,,0.00,.819,rob ver 1B,2013-06-08 02:59:00,
2013-06-07 20:00:00,93.7,41.6,29.21,South,191,11.6,14.3,16,-99.99,,,0.00,.655,rob ver 1B,2013-06-08 03:00:00,
2013-06-07 20:01:00,93.7,41.3,29.21,South,191,10.6,12.9,16,-99.99,,,0.00,.655,rob ver 1B,2013-06-08 03:01:00,
2013-06-07 20:02:00,93.6,41.2,29.21,South,188,9.9,12.4,16,-99.99,,,0.00,.491,rob ver 1B,2013-06-08 03:02:00,
2013-06-07 20:03:00,93.5,41.4,29.21,SSW,192,11.0,13.2,16,-99.99,,,0.00,.327,rob ver 1B,2013-06-08 03:03:00,
2013-06-07 20:04:00,100.6,38.1,29.12,SSW,198,8.0,9.0,11,-99.99,,,0.00,0,rob ver 1A,2013-06-08 03:04:00,
2013-06-07 20:05:00,93.4,41.8,29.21,South,190,10.4,12.8,16,-99.99,,,0.00,.164,rob ver 1B,2013-06-08 03:05:00,
2013-06-07 20:06:00,93.3,41.9,29.21,South,187,11.8,14.4,16,-99.99,,,0.00,0,rob ver 1B,2013-06-08 03:06:00,
2013-06-07 20:07:00,93.3,42.0,29.21,South,188,11.8,15.4,16,-99.99,,,0.00,0,rob ver 1B,2013-06-08 03:07:00,
2013-06-07 20:08:00,93.3,42.0,29.21,South,190,10.7,12.9,17,-99.99,,,0.00,0,rob ver 1B,2013-06-08 03:08:00,
2013-06-07 20:09:00,93.2,42.2,29.21,South,191,11.2,14.8,17,-99.99,,,0.00,0,rob ver 1B,2013-06-08 03:09:00,
2013-06-07 20:10:00,93.1,42.4,29.21,South,190,11.9,14.1,17,-99.99,,,0.00,0,rob ver 1B,2013-06-08 03:10:00,
2013-06-07 20:11:00,93.1,42.3,29.21,South,191,11.0,13.8,17,-99.99,,,0.00,0,rob ver 1B,2013-06-08 03:11:00,
2013-06-07 20:12:00,100.2,37.9,29.12,SSW,200,8.7,11.0,11,-99.99,,,0.00,0,rob ver 1A,2013-06-08 03:12:00,
2013-06-07 20:13:00,93.0,42.2,29.21,South,190,11.5,14.5,17,-99.99,,,0.00,0,rob ver 1B,2013-06-08 03:13:00,
2013-06-07 20:14:00,92.9,42.1,29.21,South,190,10.5,13.6,17,-99.99,,,0.00,0,rob ver 1B,2013-06-08 03:14:00,
2013-06-07 20:15:00,92.8,42.1,29.21,South,191,11.5,14.2,17,-99.99,,,0.00,0,rob ver 1B,2013-06-08 03:15:00,
2013-06-07 20:16:00,92.8,42.1,29.21,South,189,11.0,14.1,17,-99.99,,,0.00,0,rob ver 1B,2013-06-08 03:16:00,
2013-06-07 20:17:00,99.8,37.9,29.12,SSW,199,7.7,9.1,11,-99.99,,,0.00,0,rob ver 1A,2013-06-08 03:17:00,
2013-06-07 20:18:00,92.6,41.9,29.21,SSW,192,10.9,14.4,17,-99.99,,,0.00,0,rob ver 1B,2013-06-08 03:18:00,
2013-06-07 20:19:00,92.6,42.0,29.21,SSW,194,11.9,14.1,17,-99.99,,,0.00,0,rob ver 1B,2013-06-08 03:19:00,
2013-06-07 20:20:00,92.6,42.1,29.21,SSW,192,10.5,13.4,17,-99.99,,,0.00,0,rob ver 1B,2013-06-08 03:20:00,
2013-06-07 20:21:00,92.4,42.5,29.21,SSW,193,10.5,12.5,17,-99.99,,,0.00,0,rob ver 1B,2013-06-08 03:21:00,
2013-06-07 20:22:00,92.3,42.7,29.21,SSW,194,9.8,12.3,18,-99.99,,,0.00,0,rob ver 1B,2013-06-08 03:22:00,
2013-06-07 20:23:00,99.4,38.0,29.12,SSW,198,7.9,9.8,12,-99.99,,,0.00,0,rob ver 1A,2013-06-08 03:23:00,
2013-06-07 20:24:00,92.2,43.2,29.21,SSW,193,11.4,13.6,18,-99.99,,,0.00,0,rob ver 1B,2013-06-08 03:24:00,
2013-06-07 20:25:00,92.2,43.4,29.21,SSW,192,10.4,13.0,18,-99.99,,,0.00,0,rob ver 1B,2013-06-08 03:25:00,
2013-06-07 20:26:00,92.1,43.4,29.21,SSW,193,10.4,13.3,18,-99.99,,,0.00,0,rob ver 1B,2013-06-08 03:26:00,
2013-06-07 20:27:00,92.0,43.4,29.21,SSW,195,9.6,12.2,18,-99.99,,,0.00,0,rob ver 1B,2013-06-08 03:27:00,
2013-06-07 20:28:00,91.9,43.4,29.21,SSW,195,10.0,12.1,18,-99.99,,,0.00,0,rob ver 1B,2013-06-08 03:28:00,
2013-06-07 20:29:00,91.8,43.4,29.21,SSW,195,9.5,12.7,18,-99.99,,,0.00,0,rob ver 1B,2013-06-08 03:29:00,
2013-06-07 20:30:00,91.7,43.5,29.23,SSW,193,10.4,11.9,18,-99.99,,,0.00,0,rob ver 1B,2013-06-08 03:30:00,
2013-06-07 20:31:00,98.7,38.1,29.12,SSW,204,7.0,8.1,12,-99.99,,,0.00,0,rob ver 1A,2013-06-08 03:31:00,
2013-06-07 20:32:00,91.7,43.6,29.23,SSW,196,11.6,13.3,18,-99.99,,,0.00,0,rob ver 1B,2013-06-08 03:32:00,
2013-06-07 20:33:00,91.7,43.6,29.23,SSW,195,9.6,11.1,18,-99.99,,,0.00,0,rob ver 1B,2013-06-08 03:33:00,
2013-06-07 20:34:00,91.6,43.6,29.23,SSW,197,8.8,12.1,19,-99.99,,,0.00,0,rob ver 1B,2013-06-08 03:34:00,
2013-06-07 20:35:00,91.5,43.9,29.23,SSW,195,10.3,12.8,19,-99.99,,,0.00,0,rob ver 1B,2013-06-08 03:35:00,
2013-06-07 20:36:00,98.5,38.2,29.12,SSW,205,6.5,7.9,12,-99.99,,,0.00,0,rob ver 1A,2013-06-08 03:36:00,
2013-06-07 20:37:00,91.3,44.0,29.23,SSW,194,8.8,11.6,19,-99.99,,,0.00,0,rob ver 1B,2013-06-08 03:37:00,
2013-06-07 20:38:00,91.2,44.1,29.23,SSW,194,9.5,13.3,19,-99.99,,,0.00,0,rob ver 1B,2013-06-08 03:38:00,
2013-06-07 20:39:00,91.2,44.2,29.23,SSW,193,9.6,12.0,19,-99.99,,,0.00,0,rob ver 1B,2013-06-08 03:39:00,
2013-06-07 20:40:00,91.1,44.3,29.23,SSW,192,8.5,10.7,19,-99.99,,,0.00,0,rob ver 1B,2013-06-08 03:40:00,
2013-06-07 20:41:00,98.0,38.1,29.12,SSW,200,6.2,7.5,12,-99.99,,,0.00,0,rob ver 1A,2013-06-08 03:41:00,
2013-06-07 20:42:00,91.0,44.7,29.23,SSW,192,9.1,10.9,20,-99.99,,,0.00,0,rob ver 1B,2013-06-08 03:42:00,
2013-06-07 20:43:00,90.9,44.9,29.23,SSW,194,9.3,13.0,20,-99.99,,,0.00,0,rob ver 1B,2013-06-08 03:43:00,
2013-06-07 20:44:00,90.9,45.3,29.23,SSW,194,10.5,11.9,20,-99.99,,,0.00,0,rob ver 1B,2013-06-08 03:44:00,
2013-06-07 20:45:00,90.8,45.6,29.23,South,191,10.0,12.9,21,-99.99,,,0.00,0,rob ver 1B,2013-06-08 03:45:00,
2013-06-07 20:46:00,90.8,45.9,29.23,SSW,192,10.0,13.4,21,-99.99,,,0.00,0,rob ver 1B,2013-06-08 03:46:00,
2013-06-07 20:47:00,90.7,46.1,29.23,SSW,194,10.2,12.8,21,-99.99,,,0.00,0,rob ver 1B,2013-06-08 03:47:00,
2013-06-07 20:48:00,90.6,46.5,29.23,South,190,9.8,14.2,22,-99.99,,,0.00,0,rob ver 1B,2013-06-08 03:48:00,
2013-06-07 20:49:00,97.3,38.4,29.12,SSW,193,6.5,8.4,13,-99.99,,,0.00,0,rob ver 1A,2013-06-08 03:49:00,
2013-06-07 20:50:00,90.5,47.4,29.23,South,189,10.9,13.2,23,-99.99,,,0.00,0,rob ver 1B,2013-06-08 03:50:00,
2013-06-07 20:51:00,90.4,47.6,29.23,South,188,10.5,13.5,23,-99.99,,,0.00,0,rob ver 1B,2013-06-08 03:51:00,
2013-06-07 20:52:00,90.3,47.7,29.23,South,190,10.3,12.8,23,-99.99,,,0.00,0,rob ver 1B,2013-06-08 03:52:00,
2013-06-07 20:53:00,90.2,47.8,29.23,South,191,9.6,12.5,23,-99.99,,,0.00,0,rob ver 1B,2013-06-08 03:53:00,
2013-06-07 20:54:00,90.1,47.9,29.23,South,189,9.8,12.6,23,-99.99,,,0.00,0,rob ver 1B,2013-06-08 03:54:00,
2013-06-07 20:55:00,97.4,38.5,29.12,SSW,192,7.2,9.1,13,-99.99,,,0.00,0,rob ver 1A,2013-06-08 03:55:00,
2013-06-07 20:56:00,90.0,48.2,29.23,SSW,194,11.0,13.2,23,-99.99,,,0.00,0,rob ver 1B,2013-06-08 03:56:00,
2013-06-07 20:57:00,90.0,48.2,29.23,SSW,194,10.7,14.3,23,-99.99,,,0.00,0,rob ver 1B,2013-06-08 03:57:00,
2013-06-07 20:58:00,89.9,48.3,29.23,SSW,194,12.6,14.8,23,-99.99,,,0.00,0,rob ver 1B,2013-06-08 03:58:00,
2013-06-07 20:59:00,89.9,48.3,29.23,SSW,194,11.7,14.5,24,-99.99,,,0.00,0,rob ver 1B,2013-06-08 03:59:00,
2013-06-07 21:00:00,97.0,38.5,29.12,SSW,195,6.7,8.7,13,-99.99,,,0.00,0,rob ver 1A,2013-06-08 04:00:00,
2013-06-07 21:01:00,96.9,38.5,29.12,SSW,193,6.4,7.5,13,-99.99,,,0.00,0,rob ver 1A,2013-06-08 04:01:00,
2013-06-07 21:02:00,96.9,38.6,29.12,South,190,6.7,8.2,13,-99.99,,,0.00,0,rob ver 1A,2013-06-08 04:02:00,
2013-06-07 21:03:00,89.7,48.3,29.23,South,190,12.1,14.4,24,-99.99,,,0.00,0,rob ver 1B,2013-06-08 04:03:00,
2013-06-07 21:04:00,96.9,38.5,29.12,South,186,6.6,7.8,13,-99.99,,,0.00,0,rob ver 1A,2013-06-08 04:04:00,
2013-06-07 21:05:00,89.6,48.3,29.23,SSW,192,11.4,14.6,24,-99.99,,,0.00,0,rob ver 1B,2013-06-08 04:05:00,
2013-06-07 21:06:00,89.5,48.2,29.23,South,191,11.2,15.5,24,-99.99,,,0.00,0,rob ver 1B,2013-06-08 04:06:00,
2013-06-07 21:07:00,89.5,48.1,29.23,South,186,11.8,15.1,24,-99.99,,,0.00,0,rob ver 1B,2013-06-08 04:07:00,
2013-06-07 21:08:00,89.5,48.0,29.23,SSW,195,13.4,16.0,23,-99.99,,,0.00,0,rob ver 1B,2013-06-08 04:08:00,
2013-06-07 21:09:00,96.6,38.3,29.12,South,183,6.4,7.8,13,-99.99,,,0.00,0,rob ver 1A,2013-06-08 04:09:00,
2013-06-07 21:10:00,89.5,47.9,29.23,South,191,10.3,14.4,23,-99.99,,,0.00,0,rob ver 1B,2013-06-08 04:10:00,
2013-06-07 21:11:00,89.4,47.8,29.23,South,191,9.8,11.8,23,-99.99,,,0.00,0,rob ver 1B,2013-06-08 04:11:00,
2013-06-07 21:12:00,89.3,47.8,29.23,SSW,192,9.2,11.6,23,-99.99,,,0.00,0,rob ver 1B,2013-06-08 04:12:00,
2013-06-07 21:13:00,89.2,47.8,29.23,SSW,192,10.5,12.8,24,-99.99,,,0.00,0,rob ver 1B,2013-06-08 04:13:00,
2013-06-07 21:14:00,96.1,38.3,29.12,South,184,6.6,7.5,13,-99.99,,,0.00,0,rob ver 1A,2013-06-08 04:14:00,
2013-06-07 21:15:00,89.1,47.8,29.23,SSW,194,9.9,11.9,24,-99.99,,,0.00,0,rob ver 1B,2013-06-08 04:15:00,
2013-06-07 21:16:00,89.0,47.8,29.23,SSW,196,10.5,12.5,24,-99.99,,,0.00,0,rob ver 1B,2013-06-08 04:16:00,
2013-06-07 21:17:00,89.0,47.9,29.23,SSW,194,11.6,13.8,24,-99.99,,,0.00,0,rob ver 1B,2013-06-08 04:17:00,
2013-06-07 21:18:00,89.0,47.9,29.23,SSW,194,11.1,13.5,24,-99.99,,,0.00,0,rob ver 1B,2013-06-08 04:18:00,
2013-06-07 21:19:00,95.6,38.1,29.12,South,180,5.9,6.7,13,-99.99,,,0.00,0,rob ver 1A,2013-06-08 04:19:00,
2013-06-07 21:20:00,88.9,48.1,29.23,SSW,194,10.0,12.3,24,-99.99,,,0.00,0,rob ver 1B,2013-06-08 04:20:00,
2013-06-07 21:21:00,88.8,48.1,29.23,SSW,196,9.0,12.3,24,-99.99,,,0.00,0,rob ver 1B,2013-06-08 04:21:00,
2013-06-07 21:22:00,88.7,48.2,29.23,SSW,193,11.3,16.4,25,-99.99,,,0.00,0,rob ver 1B,2013-06-08 04:22:00,
2013-06-07 21:23:00,88.7,48.6,29.23,South,190,12.6,16.1,25,-99.99,,,0.00,0,rob ver 1B,2013-06-08 04:23:00,
2013-06-07 21:24:00,95.2,38.0,29.12,South,178,5.4,6.4,13,-99.99,,,0.00,0,rob ver 1A,2013-06-08 04:24:00,
2013-06-07 21:25:00,88.6,48.5,29.23,SSW,196,11.8,15.4,25,-99.99,,,0.00,0,rob ver 1B,2013-06-08 04:25:00,
2013-06-07 21:26:00,88.6,48.5,29.23,SSW,197,10.2,13.4,25,-99.99,,,0.00,0,rob ver 1B,2013-06-08 04:26:00,
2013-06-07 21:27:00,88.5,48.4,29.23,SSW,199,10.0,12.8,25,-99.99,,,0.00,0,rob ver 1B,2013-06-08 04:27:00,
2013-06-07 21:28:00,88.5,48.3,29.23,SSW,198,9.9,11.7,24,-99.99,,,0.00,0,rob ver 1B,2013-06-08 04:28:00,
2013-06-07 21:29:00,95.0,38.0,29.12,South,174,5.4,6.4,13,-99.99,,,0.00,0,rob ver 1A,2013-06-08 04:29:00,
2013-06-07 21:30:00,88.4,48.2,29.23,SSW,197,8.9,10.8,25,-99.99,,,0.00,0,rob ver 1B,2013-06-08 04:30:00,
2013-06-07 21:31:00,88.3,48.1,29.23,SSW,200,8.4,9.9,25,-99.99,,,0.00,0,rob ver 1B,2013-06-08 04:31:00,
2013-06-07 21:32:00,88.2,48.1,29.23,SSW,196,8.0,11.5,24,-99.99,,,0.00,0,rob ver 1B,2013-06-08 04:32:00,
2013-06-07 21:33:00,88.2,48.1,29.23,SSW,196,9.2,11.7,25,-99.99,,,0.00,0,rob ver 1B,2013-06-08 04:33:00,
2013-06-07 21:34:00,94.9,38.1,29.12,SSE,167,5.0,6.1,13,-99.99,,,0.00,0,rob ver 1A,2013-06-08 04:34:00,
2013-06-07 21:35:00,88.2,48.2,29.23,SSW,196,9.7,12.3,25,-99.99,,,0.00,0,rob ver 1B,2013-06-08 04:35:00,
2013-06-07 21:36:00,88.2,48.1,29.23,SSW,198,9.0,11.7,25,-99.99,,,0.00,0,rob ver 1B,2013-06-08 04:36:00,
2013-06-07 21:37:00,88.1,48.0,29.23,SSW,203,8.9,11.9,25,-99.99,,,0.00,0,rob ver 1B,2013-06-08 04:37:00,
2013-06-07 21:38:00,88.1,48.2,29.23,SSW,201,9.7,12.2,25,-99.99,,,0.00,0,rob ver 1B,2013-06-08 04:38:00,
2013-06-07 21:39:00,94.5,38.2,29.12,South,177,4.5,5.8,14,-99.99,,,0.00,0,rob ver 1A,2013-06-08 04:39:00,
2013-06-07 21:40:00,88.0,48.2,29.23,SSW,202,9.5,11.7,25,-99.99,,,0.00,0,rob ver 1B,2013-06-08 04:40:00,
2013-06-07 21:41:00,87.9,48.1,29.23,SSW,205,8.7,11.6,25,-99.99,,,0.00,0,rob ver 1B,2013-06-08 04:41:00,
2013-06-07 21:42:00,87.9,48.2,29.23,SSW,207,9.8,13.7,25,-99.99,,,0.00,0,rob ver 1B,2013-06-08 04:42:00,
2013-06-07 21:43:00,87.9,48.3,29.23,SSW,208,10.8,13.5,25,-99.99,,,0.00,0,rob ver 1B,2013-06-08 04:43:00,
2013-06-07 21:44:00,94.2,38.7,29.12,South,187,4.5,5.9,14,-99.99,,,0.00,0,rob ver 1A,2013-06-08 04:44:00,
2013-06-07 21:45:00,87.8,48.7,29.23,SSW,206,9.1,10.9,26,-99.99,,,0.00,0,rob ver 1B,2013-06-08 04:45:00,
2013-06-07 21:46:00,87.7,48.9,29.23,SSW,200,10.3,12.4,26,-99.99,,,0.00,0,rob ver 1B,2013-06-08 04:46:00,
2013-06-07 21:47:00,87.5,49.1,29.23,SSW,200,10.4,13.0,26,-99.99,,,0.00,0,rob ver 1B,2013-06-08 04:47:00,
2013-06-07 21:48:00,87.4,49.3,29.23,SSW,201,10.6,12.6,27,-99.99,,,0.00,0,rob ver 1B,2013-06-08 04:48:00,
2013-06-07 21:49:00,93.9,38.6,29.12,SSW,207,2.6,3.8,14,-99.99,,,0.00,0,rob ver 1A,2013-06-08 04:49:00,
2013-06-07 21:50:00,87.4,49.5,29.23,SSW,201,10.6,12.6,26,-99.99,,,0.00,0,rob ver 1B,2013-06-08 04:50:00,
2013-06-07 21:51:00,87.2,49.3,29.23,SSW,204,8.3,11.0,27,-99.99,,,0.00,0,rob ver 1B,2013-06-08 04:51:00,
2013-06-07 21:52:00,87.1,49.5,29.23,SSW,203,8.6,10.1,27,-99.99,,,0.00,0,rob ver 1B,2013-06-08 04:52:00,
2013-06-07 21:53:00,87.0,49.6,29.23,SSW,201,8.1,9.9,27,-99.99,,,0.00,0,rob ver 1B,2013-06-08 04:53:00,
2013-06-07 21:54:00,93.4,38.4,29.12,WNW,296,3.7,4.4,14,-99.99,,,0.00,0,rob ver 1A,2013-06-08 04:54:00,
2013-06-07 21:55:00,86.9,50.1,29.23,SSW,196,8.3,11.7,28,-99.99,,,0.00,0,rob ver 1B,2013-06-08 04:55:00,
2013-06-07 21:56:00,86.8,50.1,29.23,SSW,199,8.0,9.5,28,-99.99,,,0.00,0,rob ver 1B,2013-06-08 04:56:00,
2013-06-07 21:57:00,86.7,50.2,29.23,SSW,205,9.5,11.0,28,-99.99,,,0.00,0,rob ver 1B,2013-06-08 04:57:00,
2013-06-07 21:58:00,86.7,50.4,29.23,SSW,201,10.2,12.2,28,-99.99,,,0.00,0,rob ver 1B,2013-06-08 04:58:00,
2013-06-07 21:59:00,92.5,38.1,29.15,NW,313,5.3,6.4,15,-99.99,,,0.00,0,rob ver 1A,2013-06-08 04:59:00,
2013-06-07 22:00:00,86.5,50.7,29.23,SSW,202,9.9,11.9,29,-99.99,,,0.00,0,rob ver 1B,2013-06-08 05:00:00,
2013-06-07 22:01:00,86.4,50.9,29.23,SSW,201,9.5,10.5,29,-99.99,,,0.00,0,rob ver 1B,2013-06-08 05:01:00,
2013-06-07 22:02:00,86.3,51.2,29.23,SSW,198,9.6,11.3,30,-99.99,,,0.00,0,rob ver 1B,2013-06-08 05:02:00,
2013-06-07 22:03:00,86.3,51.4,29.23,SSW,199,10.1,12.5,30,-99.99,,,0.00,0,rob ver 1B,2013-06-08 05:03:00,
2013-06-07 22:04:00,93.1,38.7,29.15,NW,309,7.0,9.3,15,-99.99,,,0.00,0,rob ver 1A,2013-06-08 05:04:00,
2013-06-07 22:05:00,86.2,51.7,29.23,SSW,192,8.0,9.7,30,-99.99,,,0.00,0,rob ver 1B,2013-06-08 05:05:00,
2013-06-07 22:06:00,86.1,51.7,29.23,South,189,7.9,10.4,30,-99.99,,,0.00,0,rob ver 1B,2013-06-08 05:06:00,
2013-06-07 22:07:00,86.0,51.9,29.23,South,185,8.7,10.5,31,-99.99,,,0.00,0,rob ver 1B,2013-06-08 05:07:00,
2013-06-07 22:08:00,85.9,51.9,29.23,South,183,9.1,11.1,31,-99.99,,,0.00,0,rob ver 1B,2013-06-08 05:08:00,
2013-06-07 22:09:00,85.9,51.9,29.23,South,183,7.5,9.7,31,-99.99,,,0.00,0,rob ver 1B,2013-06-08 05:09:00,
2013-06-07 22:10:00,93.4,39.3,29.15,WNW,297,6.3,7.7,15,-99.99,,,0.00,0,rob ver 1A,2013-06-08 05:10:00,
2013-06-07 22:11:00,85.7,51.9,29.23,South,186,7.7,9.9,31,-99.99,,,0.00,0,rob ver 1B,2013-06-08 05:11:00,
2013-06-07 22:12:00,85.7,52.1,29.23,South,186,8.3,10.0,31,-99.99,,,0.00,0,rob ver 1B,2013-06-08 05:12:00,
2013-06-07 22:13:00,85.6,52.1,29.23,South,186,7.2,10.0,31,-99.99,,,0.00,0,rob ver 1B,2013-06-08 05:13:00,
2013-06-07 22:14:00,85.6,52.1,29.23,South,187,7.0,8.6,31,-99.99,,,0.00,0,rob ver 1B,2013-06-08 05:14:00,
2013-06-07 22:15:00,93.0,39.2,29.15,West,277,5.1,6.4,15,-99.99,,,0.00,0,rob ver 1A,2013-06-08 05:15:00,
2013-06-07 22:16:00,85.5,52.2,29.23,South,184,8.0,10.5,31,-99.99,,,0.00,0,rob ver 1B,2013-06-08 05:16:00,
2013-06-07 22:17:00,85.5,52.2,29.23,South,185,7.9,10.7,31,-99.99,,,0.00,0,rob ver 1B,2013-06-08 05:17:00,
2013-06-07 22:18:00,85.5,52.2,29.23,South,187,7.2,9.0,31,-99.99,,,0.00,0,rob ver 1B,2013-06-08 05:18:00,
2013-06-07 22:19:00,85.5,52.2,29.23,South,189,7.6,9.2,31,-99.99,,,0.00,0,rob ver 1B,2013-06-08 05:19:00,
2013-06-07 22:20:00,92.5,38.7,29.15,WSW,254,5.1,7.5,15,-99.99,,,0.00,0,rob ver 1A,2013-06-08 05:20:00,
2013-06-07 22:21:00,85.5,52.1,29.23,South,186,7.1,10.4,31,-99.99,,,0.00,0,rob ver 1B,2013-06-08 05:21:00,
2013-06-07 22:22:00,85.5,52.0,29.23,South,182,6.2,8.4,31,-99.99,,,0.00,0,rob ver 1B,2013-06-08 05:22:00,
2013-06-07 22:23:00,85.5,51.9,29.23,South,180,5.9,7.4,31,-99.99,,,0.00,0,rob ver 1B,2013-06-08 05:23:00,
2013-06-07 22:24:00,85.4,51.8,29.23,South,178,5.4,6.8,31,-99.99,,,0.00,0,rob ver 1B,2013-06-08 05:24:00,
2013-06-07 22:25:00,92.0,38.6,29.15,WSW,252,3.6,4.3,15,-99.99,,,0.00,0,rob ver 1A,2013-06-08 05:25:00,
2013-06-07 22:26:00,85.4,51.7,29.23,South,172,5.8,6.9,31,-99.99,,,0.00,0,rob ver 1B,2013-06-08 05:26:00,
2013-06-07 22:27:00,85.4,51.7,29.23,South,174,5.9,8.0,31,-99.99,,,0.00,0,rob ver 1B,2013-06-08 05:27:00,
2013-06-07 22:28:00,85.5,51.6,29.23,South,173,5.6,6.5,31,-99.99,,,0.00,0,rob ver 1B,2013-06-08 05:28:00,
2013-06-07 22:29:00,85.5,51.6,29.23,South,177,5.1,6.5,31,-99.99,,,0.00,0,rob ver 1B,2013-06-08 05:29:00,
2013-06-07 22:30:00,91.2,38.4,29.15,West,273,3.0,3.7,15,-99.99,,,0.00,0,rob ver 1A,2013-06-08 05:30:00,
2013-06-07 22:31:00,85.4,51.4,29.23,SSW,200,4.3,5.7,30,-99.99,,,0.00,0,rob ver 1B,2013-06-08 05:31:00,
2013-06-07 22:32:00,85.3,51.3,29.23,SW,214,4.2,5.1,31,-99.99,,,0.00,0,rob ver 1B,2013-06-08 05:32:00,
2013-06-07 22:33:00,85.3,51.3,29.23,SW,227,4.0,5.1,31,-99.99,,,0.00,0,rob ver 1B,2013-06-08 05:33:00,
2013-06-07 22:34:00,85.2,51.2,29.23,WSW,244,3.3,4.0,30,-99.99,,,0.00,0,rob ver 1B,2013-06-08 05:34:00,
2013-06-07 22:35:00,90.7,38.5,29.15,North,350,0.7,1.2,16,-99.99,,,0.00,0,rob ver 1A,2013-06-08 05:35:00,
2013-06-07 22:36:00,85.0,50.9,29.23,WNW,286,2.5,3.2,30,-99.99,,,0.00,0,rob ver 1B,2013-06-08 05:36:00,
2013-06-07 22:37:00,85.0,50.8,29.23,WNW,287,2.3,3.3,31,-99.99,,,0.00,0,rob ver 1B,2013-06-08 05:37:00,
2013-06-07 22:38:00,84.9,50.9,29.23,WNW,292,2.5,3.2,30,-99.99,,,0.00,0,rob ver 1B,2013-06-08 05:38:00,
2013-06-07 22:39:00,84.8,50.9,29.23,WNW,300,2.4,2.8,31,-99.99,,,0.00,0,rob ver 1B,2013-06-08 05:39:00,
2013-06-07 22:40:00,90.3,39.1,29.15,SSW,193,5.5,7.6,16,-99.99,,,0.00,0,rob ver 1A,2013-06-08 05:40:00,
2013-06-07 22:41:00,84.6,51.1,29.23,NW,314,2.1,2.7,31,-99.99,,,0.00,0,rob ver 1B,2013-06-08 05:41:00,
2013-06-07 22:42:00,84.5,51.3,29.23,NW,308,2.2,3.2,31,-99.99,,,0.00,0,rob ver 1B,2013-06-08 05:42:00,
2013-06-07 22:43:00,84.4,51.3,29.23,NNW,332,1.3,1.9,32,-99.99,,,0.00,0,rob ver 1B,2013-06-08 05:43:00,
2013-06-07 22:44:00,84.3,51.2,29.23,NNW,339,1.8,2.2,31,-99.99,,,0.00,0,rob ver 1B,2013-06-08 05:44:00,
2013-06-07 22:45:00,90.3,39.4,29.15,SSW,203,8.1,10.1,16,-99.99,,,0.00,0,rob ver 1A,2013-06-08 05:45:00,
2013-06-07 22:46:00,84.2,51.2,29.23,North,358,1.9,2.6,32,-99.99,,,0.00,0,rob ver 1B,2013-06-08 05:46:00,
2013-06-07 22:47:00,84.2,51.2,29.23,North,10,1.5,2.1,31,-99.99,,,0.00,0,rob ver 1B,2013-06-08 05:47:00,
2013-06-07 22:48:00,84.1,50.5,29.23,North,2,0.6,1.5,31,-99.99,,,0.00,0,rob ver 1B,2013-06-08 05:48:00,
2013-06-07 22:49:00,84.1,50.6,29.23,NW,323,1.5,2.0,31,-99.99,,,0.00,0,rob ver 1B,2013-06-08 05:49:00,
2013-06-07 22:50:00,90.3,39.3,29.15,SSW,203,8.7,11.2,16,-99.99,,,0.00,0,rob ver 1A,2013-06-08 05:50:00,
2013-06-07 22:51:00,84.0,50.9,29.26,NW,322,1.1,1.7,31,-99.99,,,0.00,0,rob ver 1B,2013-06-08 05:51:00,
2013-06-07 22:52:00,84.0,50.5,29.26,WSW,256,0.3,0.9,31,-99.99,,,0.00,0,rob ver 1B,2013-06-08 05:52:00,
2013-06-07 22:53:00,83.9,50.6,29.26,North,357,0.6,1.5,31,-99.99,,,0.00,0,rob ver 1B,2013-06-08 05:53:00,
2013-06-07 22:54:00,83.9,50.2,29.23,WNW,298,1.0,1.9,30,-99.99,,,0.00,0,rob ver 1B,2013-06-08 05:54:00,
2013-06-07 22:55:00,90.1,39.2,29.15,SSW,197,8.8,10.6,16,-99.99,,,0.00,0,rob ver 1A,2013-06-08 05:55:00,
2013-06-07 22:56:00,84.1,49.6,29.23,WSW,256,1.0,1.9,30,-99.99,,,0.00,0,rob ver 1B,2013-06-08 05:56:00,
2013-06-07 22:57:00,84.2,49.4,29.23,SW,222,1.3,2.0,29,-99.99,,,0.00,0,rob ver 1B,2013-06-08 05:57:00,
2013-06-07 22:58:00,84.2,49.2,29.26,SSW,209,3.2,4.7,29,-99.99,,,0.00,0,rob ver 1B,2013-06-08 05:58:00,
2013-06-07 22:59:00,84.3,48.5,29.26,South,178,3.1,4.9,28,-99.99,,,0.00,0,rob ver 1B,2013-06-08 05:59:00,
2013-06-07 23:00:00,90.0,39.1,29.15,SSW,197,8.3,10.4,16,-99.99,,,0.00,0,rob ver 1A,2013-06-08 06:00:00,
2013-06-07 23:01:00,84.7,48.5,29.26,SW,214,3.2,3.8,28,-99.99,,,0.00,0,rob ver 1B,2013-06-08 06:01:00,
2013-06-07 23:02:00,84.7,48.2,29.26,SW,231,2.7,3.7,27,-99.99,,,0.00,0,rob ver 1B,2013-06-08 06:02:00,
2013-06-07 23:03:00,84.7,47.5,29.23,SW,218,4.5,6.8,27,-99.99,,,0.00,0,rob ver 1B,2013-06-08 06:03:00,
2013-06-07 23:04:00,84.8,47.5,29.23,SSW,208,4.2,6.2,27,-99.99,,,0.00,0,rob ver 1B,2013-06-08 06:04:00,
2013-06-07 23:05:00,89.5,39.1,29.15,SSW,201,9.1,11.3,16,-99.99,,,0.00,0,rob ver 1A,2013-06-08 06:05:00,
2013-06-07 23:06:00,84.5,47.4,29.26,SW,222,4.2,6.2,27,-99.99,,,0.00,0,rob ver 1B,2013-06-08 06:06:00,
2013-06-07 23:07:00,84.4,47.4,29.26,SW,229,4.5,5.6,27,-99.99,,,0.00,0,rob ver 1B,2013-06-08 06:07:00,
2013-06-07 23:08:00,84.3,47.5,29.26,WSW,237,4.0,5.1,27,-99.99,,,0.00,0,rob ver 1B,2013-06-08 06:08:00,
2013-06-07 23:09:00,84.3,47.5,29.23,SW,235,3.8,5.3,27,-99.99,,,0.00,0,rob ver 1B,2013-06-08 06:09:00,
2013-06-07 23:10:00,89.2,39.3,29.15,SSW,205,8.4,9.7,17,-99.99,,,0.00,0,rob ver 1A,2013-06-08 06:10:00,
2013-06-07 23:11:00,84.2,47.4,29.23,West,278,1.7,3.2,27,-99.99,,,0.00,0,rob ver 1B,2013-06-08 06:11:00,
2013-06-07 23:12:00,84.1,47.7,29.26,NW,321,1.9,2.1,28,-99.99,,,0.00,0,rob ver 1B,2013-06-08 06:12:00,
2013-06-07 23:13:00,84.1,47.4,29.26,NW,321,2.3,3.4,27,-99.99,,,0.00,0,rob ver 1B,2013-06-08 06:13:00,
2013-06-07 23:14:00,84.1,47.6,29.26,NW,320,2.3,3.3,27,-99.99,,,0.00,0,rob ver 1B,2013-06-08 06:14:00,
2013-06-07 23:15:00,88.7,39.5,29.15,SSW,206,7.1,9.1,17,-99.99,,,0.00,0,rob ver 1A,2013-06-08 06:15:00,
2013-06-07 23:16:00,83.9,48.0,29.26,North,6,3.5,4.1,28,-99.99,,,0.00,0,rob ver 1B,2013-06-08 06:16:00,
2013-06-07 23:17:00,83.7,48.5,29.26,NNE,12,4.4,4.9,29,-99.99,,,0.00,0,rob ver 1B,2013-06-08 06:17:00,
2013-06-07 23:18:00,83.5,48.8,29.26,NNE,17,4.8,5.3,29,-99.99,,,0.00,0,rob ver 1B,2013-06-08 06:18:00,
2013-06-07 23:19:00,83.4,48.5,29.26,NNE,16,4.6,5.2,29,-99.99,,,0.00,0,rob ver 1B,2013-06-08 06:19:00,
2013-06-07 23:20:00,88.2,39.6,29.15,SSW,205,7.3,9.4,18,-99.99,,,0.00,0,rob ver 1A,2013-06-08 06:20:00,
2013-06-07 23:21:00,83.2,48.3,29.26,NNW,344,3.2,3.9,29,-99.99,,,0.00,0,rob ver 1B,2013-06-08 06:21:00,
2013-06-07 23:22:00,83.3,48.1,29.26,NNW,336,2.6,3.2,29,-99.99,,,0.00,0,rob ver 1B,2013-06-08 06:22:00,
2013-06-07 23:23:00,83.4,48.1,29.26,NNW,334,1.8,2.2,28,-99.99,,,0.00,0,rob ver 1B,2013-06-08 06:23:00,
2013-06-07 23:24:00,83.4,47.5,29.26,North,349,0.9,1.2,28,-99.99,,,0.00,0,rob ver 1B,2013-06-08 06:24:00,
2013-06-07 23:25:00,88.1,39.5,29.15,SSW,204,7.6,9.7,18,-99.99,,,0.00,0,rob ver 1A,2013-06-08 06:25:00,
2013-06-07 23:26:00,83.4,47.9,29.26,NNW,342,2.1,2.6,28,-99.99,,,0.00,0,rob ver 1B,2013-06-08 06:26:00,
2013-06-07 23:27:00,83.5,48.1,29.26,NNW,337,2.2,2.9,29,-99.99,,,0.00,0,rob ver 1B,2013-06-08 06:27:00,
2013-06-07 23:28:00,83.4,48.3,29.26,North,356,2.9,3.4,30,-99.99,,,0.00,0,rob ver 1B,2013-06-08 06:28:00,
2013-06-07 23:29:00,83.3,48.7,29.26,NNE,15,3.0,4.0,30,-99.99,,,0.00,0,rob ver 1B,2013-06-08 06:29:00,
2013-06-07 23:30:00,87.9,39.5,29.15,SSW,213,6.9,8.5,18,-99.99,,,0.00,0,rob ver 1A,2013-06-08 06:30:00,
2013-06-07 23:31:00,82.8,48.9,29.26,North,349,2.6,3.2,30,-99.99,,,0.00,0,rob ver 1B,2013-06-08 06:31:00,
2013-06-07 23:32:00,82.6,48.7,29.26,NNW,347,2.6,3.0,30,-99.99,,,0.00,0,rob ver 1B,2013-06-08 06:32:00,
2013-06-07 23:33:00,82.3,48.5,29.26,North,349,3.0,3.5,30,-99.99,,,0.00,0,rob ver 1B,2013-06-08 06:33:00,
2013-06-07 23:34:00,82.0,48.5,29.26,NNW,337,3.4,4.0,31,-99.99,,,0.00,0,rob ver 1B,2013-06-08 06:34:00,
2013-06-07 23:35:00,87.6,39.6,29.15,SW,214,5.0,6.6,18,-99.99,,,0.00,0,rob ver 1A,2013-06-08 06:35:00,
2013-06-07 23:36:00,81.7,48.1,29.26,NW,315,2.3,2.8,30,-99.99,,,0.00,0,rob ver 1B,2013-06-08 06:36:00,
2013-06-07 23:37:00,81.7,48.2,29.26,NW,311,1.9,2.1,31,-99.99,,,0.00,0,rob ver 1B,2013-06-08 06:37:00,
2013-06-07 23:38:00,81.7,48.3,29.26,NW,308,1.8,2.1,30,-99.99,,,0.00,0,rob ver 1B,2013-06-08 06:38:00,
2013-06-07 23:39:00,81.7,48.2,29.26,NW,319,2.2,2.6,30,-99.99,,,0.00,0,rob ver 1B,2013-06-08 06:39:00,
2013-06-07 23:40:00,87.1,39.6,29.15,SSW,210,5.1,6.4,18,-99.99,,,0.00,0,rob ver 1A,2013-06-08 06:40:00,
2013-06-07 23:41:00,81.7,48.1,29.26,NNW,343,2.2,2.7,30,-99.99,,,0.00,0,rob ver 1B,2013-06-08 06:41:00,
2013-06-07 23:42:00,81.7,48.2,29.26,NW,321,2.5,2.8,30,-99.99,,,0.00,0,rob ver 1B,2013-06-08 06:42:00,
2013-06-07 23:43:00,81.6,48.0,29.26,NW,310,2.5,3.0,31,-99.99,,,0.00,0,rob ver 1B,2013-06-08 06:43:00,
2013-06-07 23:44:00,81.6,47.9,29.26,WNW,295,3.0,3.6,30,-99.99,,,0.00,0,rob ver 1B,2013-06-08 06:44:00,
2013-06-07 23:45:00,81.6,48.1,29.26,WNW,291,3.6,3.8,30,-99.99,,,0.00,0,rob ver 1B,2013-06-08 06:45:00,
2013-06-07 23:46:00,86.8,39.5,29.12,SSW,207,3.7,5.3,18,-99.99,,,0.00,0,rob ver 1A,2013-06-08 06:46:00,
2013-06-07 23:47:00,81.8,48.0,29.26,WNW,293,3.6,3.9,30,-99.99,,,0.00,0,rob ver 1B,2013-06-08 06:47:00,
2013-06-07 23:48:00,81.9,47.9,29.26,NW,305,3.7,3.8,30,-99.99,,,0.00,0,rob ver 1B,2013-06-08 06:48:00,
2013-06-07 23:49:00,81.9,47.5,29.26,NW,320,3.1,3.8,30,-99.99,,,0.00,0,rob ver 1B,2013-06-08 06:49:00,
2013-06-07 23:50:00,81.9,47.7,29.26,NNW,327,2.6,3.0,30,-99.99,,,0.00,0,rob ver 1B,2013-06-08 06:50:00,
2013-06-07 23:51:00,86.6,39.2,29.15,SSW,209,3.6,4.5,18,-99.99,,,0.00,0,rob ver 1A,2013-06-08 06:51:00,
2013-06-07 23:52:00,81.7,47.3,29.26,NNW,331,2.1,2.6,30,-99.99,,,0.00,0,rob ver 1B,2013-06-08 06:52:00,
2013-06-07 23:53:00,81.5,47.4,29.26,NNW,339,2.6,3.1,30,-99.99,,,0.00,0,rob ver 1B,2013-06-08 06:53:00,
2013-06-07 23:54:00,81.2,47.7,29.26,NNW,343,3.1,3.2,31,-99.99,,,0.00,0,rob ver 1B,2013-06-08 06:54:00,
2013-06-07 23:55:00,81.1,47.5,29.26,NNW,340,3.1,3.4,30,-99.99,,,0.00,0,rob ver 1B,2013-06-08 06:55:00,
2013-06-07 23:56:00,86.4,39.0,29.15,SW,219,4.0,5.2,18,-99.99,,,0.00,0,rob ver 1A,2013-06-08 06:56:00,
2013-06-07 23:57:00,80.9,47.2,29.26,NNW,329,1.9,2.5,30,-99.99,,,0.00,0,rob ver 1B,2013-06-08 06:57:00,
2013-06-07 23:58:00,80.7,47.1,29.26,NW,309,1.6,2.1,30,-99.99,,,0.00,0,rob ver 1B,2013-06-08 06:58:00,
2013-06-07 23:59:00,80.7,47.2,29.26,NW,319,2.4,2.8,31,-99.99,,,0.00,0,rob ver 1B,2013-06-08 06:59:00,